<?xml version="1.0" encoding="UTF-8" standalone="no" ?>
<gpx xmlns="http://www.topografix.com/GPX/1/1" xmlns:xsi="http://www.w3.org/2001/XMLSchema-instance" xsi:schemaLocation="http://www.topografix.com/GPX/1/1 http://www.topografix.com/GPX/1/1/gpx.xsd" version="1.1" creator="VisuGPX - https://www.visugpx.com">
  <metadata>
    <name>De Lardy à St Cheron</name>
    <desc><![CDATA[Départ à la gare RER de Lardy, arrivée à la gare RER de St Cheron. Nous passerons par Torfou, St Sulpice de Faviéres, St Yon, Breux-Jouy. Daniel BAIJOT]]></desc>
  </metadata>
  <trk>
    <name><![CDATA[Tracé actuel: 08 JAN 2014 10:23]]></name>
    <trkseg>
      <trkpt lat="48.52055" lon="2.25583">
        <ele>82.81</ele>
        <time>2014-01-08T09:23:27Z</time>
      </trkpt>
      <trkpt lat="48.52051" lon="2.25587">
        <ele>83.29</ele>
        <time>2014-01-08T09:23:45Z</time>
      </trkpt>
      <trkpt lat="48.52049" lon="2.25587">
        <ele>80.89</ele>
        <time>2014-01-08T09:24:05Z</time>
      </trkpt>
      <trkpt lat="48.52049" lon="2.25586">
        <ele>80.41</ele>
        <time>2014-01-08T09:24:21Z</time>
      </trkpt>
      <trkpt lat="48.5205" lon="2.25583">
        <ele>81.85</ele>
        <time>2014-01-08T09:24:46Z</time>
      </trkpt>
      <trkpt lat="48.52051" lon="2.25579">
        <ele>83.29</ele>
        <time>2014-01-08T09:25:15Z</time>
      </trkpt>
      <trkpt lat="48.52052" lon="2.25572">
        <ele>79.45</ele>
        <time>2014-01-08T09:25:28Z</time>
      </trkpt>
      <trkpt lat="48.52092" lon="2.25542">
        <ele>78.48</ele>
        <time>2014-01-08T09:26:11Z</time>
      </trkpt>
      <trkpt lat="48.52104" lon="2.25567">
        <ele>80.89</ele>
        <time>2014-01-08T09:26:32Z</time>
      </trkpt>
      <trkpt lat="48.52115" lon="2.2557">
        <ele>80.41</ele>
        <time>2014-01-08T09:26:48Z</time>
      </trkpt>
      <trkpt lat="48.52127" lon="2.25561">
        <ele>77.04</ele>
        <time>2014-01-08T09:27:02Z</time>
      </trkpt>
      <trkpt lat="48.52137" lon="2.25541">
        <ele>75.12</ele>
        <time>2014-01-08T09:27:16Z</time>
      </trkpt>
      <trkpt lat="48.52148" lon="2.25516">
        <ele>76.56</ele>
        <time>2014-01-08T09:27:34Z</time>
      </trkpt>
      <trkpt lat="48.52149" lon="2.25514">
        <ele>76.08</ele>
        <time>2014-01-08T09:27:36Z</time>
      </trkpt>
      <trkpt lat="48.52159" lon="2.25493">
        <ele>75.6</ele>
        <time>2014-01-08T09:27:52Z</time>
      </trkpt>
      <trkpt lat="48.52166" lon="2.25473">
        <ele>76.08</ele>
        <time>2014-01-08T09:28:08Z</time>
      </trkpt>
      <trkpt lat="48.52173" lon="2.25451">
        <ele>77.52</ele>
        <time>2014-01-08T09:28:25Z</time>
      </trkpt>
      <trkpt lat="48.52178" lon="2.25428">
        <ele>81.37</ele>
        <time>2014-01-08T09:28:42Z</time>
      </trkpt>
      <trkpt lat="48.52186" lon="2.25411">
        <ele>83.77</ele>
        <time>2014-01-08T09:28:58Z</time>
      </trkpt>
      <trkpt lat="48.52191" lon="2.25395">
        <ele>85.69</ele>
        <time>2014-01-08T09:29:12Z</time>
      </trkpt>
      <trkpt lat="48.52197" lon="2.25382">
        <ele>87.62</ele>
        <time>2014-01-08T09:29:25Z</time>
      </trkpt>
      <trkpt lat="48.52204" lon="2.25371">
        <ele>88.1</ele>
        <time>2014-01-08T09:29:41Z</time>
      </trkpt>
      <trkpt lat="48.52204" lon="2.25362">
        <ele>91.46</ele>
        <time>2014-01-08T09:29:57Z</time>
      </trkpt>
      <trkpt lat="48.52209" lon="2.25357">
        <ele>93.87</ele>
        <time>2014-01-08T09:30:10Z</time>
      </trkpt>
      <trkpt lat="48.52218" lon="2.25347">
        <ele>96.27</ele>
        <time>2014-01-08T09:30:23Z</time>
      </trkpt>
      <trkpt lat="48.52222" lon="2.25342">
        <ele>96.75</ele>
        <time>2014-01-08T09:30:37Z</time>
      </trkpt>
      <trkpt lat="48.5223" lon="2.25331">
        <ele>97.71</ele>
        <time>2014-01-08T09:30:51Z</time>
      </trkpt>
      <trkpt lat="48.52239" lon="2.25319">
        <ele>101.08</ele>
        <time>2014-01-08T09:31:06Z</time>
      </trkpt>
      <trkpt lat="48.52243" lon="2.25309">
        <ele>103</ele>
        <time>2014-01-08T09:31:21Z</time>
      </trkpt>
      <trkpt lat="48.52246" lon="2.25299">
        <ele>104.92</ele>
        <time>2014-01-08T09:31:37Z</time>
      </trkpt>
      <trkpt lat="48.52248" lon="2.25292">
        <ele>105.4</ele>
        <time>2014-01-08T09:31:51Z</time>
      </trkpt>
      <trkpt lat="48.52251" lon="2.25279">
        <ele>103.96</ele>
        <time>2014-01-08T09:32:08Z</time>
      </trkpt>
      <trkpt lat="48.52252" lon="2.25271">
        <ele>103.96</ele>
        <time>2014-01-08T09:32:23Z</time>
      </trkpt>
      <trkpt lat="48.52253" lon="2.25261">
        <ele>104.92</ele>
        <time>2014-01-08T09:32:37Z</time>
      </trkpt>
      <trkpt lat="48.52253" lon="2.25249">
        <ele>105.4</ele>
        <time>2014-01-08T09:32:52Z</time>
      </trkpt>
      <trkpt lat="48.52254" lon="2.25238">
        <ele>109.25</ele>
        <time>2014-01-08T09:33:09Z</time>
      </trkpt>
      <trkpt lat="48.52251" lon="2.25226">
        <ele>114.05</ele>
        <time>2014-01-08T09:33:28Z</time>
      </trkpt>
      <trkpt lat="48.52254" lon="2.25215">
        <ele>119.82</ele>
        <time>2014-01-08T09:34:02Z</time>
      </trkpt>
      <trkpt lat="48.52257" lon="2.25205">
        <ele>124.15</ele>
        <time>2014-01-08T09:34:30Z</time>
      </trkpt>
      <trkpt lat="48.5226" lon="2.25195">
        <ele>125.59</ele>
        <time>2014-01-08T09:34:45Z</time>
      </trkpt>
      <trkpt lat="48.52261" lon="2.25175">
        <ele>123.19</ele>
        <time>2014-01-08T09:34:58Z</time>
      </trkpt>
      <trkpt lat="48.52264" lon="2.25157">
        <ele>120.78</ele>
        <time>2014-01-08T09:35:07Z</time>
      </trkpt>
      <trkpt lat="48.52259" lon="2.25126">
        <ele>118.38</ele>
        <time>2014-01-08T09:35:23Z</time>
      </trkpt>
      <trkpt lat="48.52253" lon="2.25102">
        <ele>118.38</ele>
        <time>2014-01-08T09:35:38Z</time>
      </trkpt>
      <trkpt lat="48.52244" lon="2.25079">
        <ele>118.86</ele>
        <time>2014-01-08T09:35:52Z</time>
      </trkpt>
      <trkpt lat="48.52229" lon="2.25049">
        <ele>120.78</ele>
        <time>2014-01-08T09:36:09Z</time>
      </trkpt>
      <trkpt lat="48.52223" lon="2.25026">
        <ele>121.74</ele>
        <time>2014-01-08T09:36:25Z</time>
      </trkpt>
      <trkpt lat="48.5222" lon="2.25018">
        <ele>123.19</ele>
        <time>2014-01-08T09:36:37Z</time>
      </trkpt>
      <trkpt lat="48.52218" lon="2.25007">
        <ele>123.67</ele>
        <time>2014-01-08T09:36:51Z</time>
      </trkpt>
      <trkpt lat="48.52219" lon="2.24991">
        <ele>119.82</ele>
        <time>2014-01-08T09:37:04Z</time>
      </trkpt>
      <trkpt lat="48.52218" lon="2.24954">
        <ele>117.9</ele>
        <time>2014-01-08T09:37:17Z</time>
      </trkpt>
      <trkpt lat="48.52212" lon="2.24922">
        <ele>123.67</ele>
        <time>2014-01-08T09:37:31Z</time>
      </trkpt>
      <trkpt lat="48.52211" lon="2.24905">
        <ele>125.59</ele>
        <time>2014-01-08T09:37:42Z</time>
      </trkpt>
      <trkpt lat="48.52205" lon="2.24882">
        <ele>128.95</ele>
        <time>2014-01-08T09:37:55Z</time>
      </trkpt>
      <trkpt lat="48.52198" lon="2.24855">
        <ele>129.92</ele>
        <time>2014-01-08T09:38:10Z</time>
      </trkpt>
      <trkpt lat="48.52194" lon="2.24834">
        <ele>130.88</ele>
        <time>2014-01-08T09:38:23Z</time>
      </trkpt>
      <trkpt lat="48.52193" lon="2.2482">
        <ele>132.32</ele>
        <time>2014-01-08T09:38:34Z</time>
      </trkpt>
      <trkpt lat="48.52189" lon="2.24802">
        <ele>132.8</ele>
        <time>2014-01-08T09:38:48Z</time>
      </trkpt>
      <trkpt lat="48.52189" lon="2.24774">
        <ele>133.28</ele>
        <time>2014-01-08T09:39:03Z</time>
      </trkpt>
      <trkpt lat="48.52191" lon="2.24755">
        <ele>131.36</ele>
        <time>2014-01-08T09:39:18Z</time>
      </trkpt>
      <trkpt lat="48.52194" lon="2.24734">
        <ele>129.43</ele>
        <time>2014-01-08T09:39:33Z</time>
      </trkpt>
      <trkpt lat="48.52194" lon="2.24719">
        <ele>128.47</ele>
        <time>2014-01-08T09:39:46Z</time>
      </trkpt>
      <trkpt lat="48.52191" lon="2.24697">
        <ele>129.92</ele>
        <time>2014-01-08T09:39:58Z</time>
      </trkpt>
      <trkpt lat="48.5219" lon="2.24674">
        <ele>131.36</ele>
        <time>2014-01-08T09:40:13Z</time>
      </trkpt>
      <trkpt lat="48.52189" lon="2.2466">
        <ele>131.36</ele>
        <time>2014-01-08T09:40:26Z</time>
      </trkpt>
      <trkpt lat="48.52186" lon="2.24647">
        <ele>131.36</ele>
        <time>2014-01-08T09:40:37Z</time>
      </trkpt>
      <trkpt lat="48.52183" lon="2.24631">
        <ele>129.43</ele>
        <time>2014-01-08T09:40:51Z</time>
      </trkpt>
      <trkpt lat="48.52182" lon="2.24624">
        <ele>128.95</ele>
        <time>2014-01-08T09:40:56Z</time>
      </trkpt>
      <trkpt lat="48.52177" lon="2.24594">
        <ele>131.36</ele>
        <time>2014-01-08T09:41:10Z</time>
      </trkpt>
      <trkpt lat="48.52174" lon="2.24581">
        <ele>131.84</ele>
        <time>2014-01-08T09:41:23Z</time>
      </trkpt>
      <trkpt lat="48.52171" lon="2.24565">
        <ele>132.8</ele>
        <time>2014-01-08T09:41:36Z</time>
      </trkpt>
      <trkpt lat="48.52165" lon="2.24546">
        <ele>133.76</ele>
        <time>2014-01-08T09:41:50Z</time>
      </trkpt>
      <trkpt lat="48.52163" lon="2.24526">
        <ele>135.68</ele>
        <time>2014-01-08T09:42:03Z</time>
      </trkpt>
      <trkpt lat="48.52158" lon="2.24509">
        <ele>139.53</ele>
        <time>2014-01-08T09:42:15Z</time>
      </trkpt>
      <trkpt lat="48.52161" lon="2.24501">
        <ele>140.97</ele>
        <time>2014-01-08T09:42:29Z</time>
      </trkpt>
      <trkpt lat="48.52169" lon="2.24495">
        <ele>139.53</ele>
        <time>2014-01-08T09:42:43Z</time>
      </trkpt>
      <trkpt lat="48.52171" lon="2.24495">
        <ele>138.09</ele>
        <time>2014-01-08T09:42:55Z</time>
      </trkpt>
      <trkpt lat="48.52181" lon="2.2449">
        <ele>136.16</ele>
        <time>2014-01-08T09:43:12Z</time>
      </trkpt>
      <trkpt lat="48.52195" lon="2.24482">
        <ele>135.2</ele>
        <time>2014-01-08T09:43:27Z</time>
      </trkpt>
      <trkpt lat="48.52208" lon="2.24477">
        <ele>133.76</ele>
        <time>2014-01-08T09:43:41Z</time>
      </trkpt>
      <trkpt lat="48.52233" lon="2.24466">
        <ele>132.8</ele>
        <time>2014-01-08T09:43:59Z</time>
      </trkpt>
      <trkpt lat="48.52257" lon="2.24452">
        <ele>134.72</ele>
        <time>2014-01-08T09:44:12Z</time>
      </trkpt>
      <trkpt lat="48.52268" lon="2.24447">
        <ele>135.2</ele>
        <time>2014-01-08T09:44:26Z</time>
      </trkpt>
      <trkpt lat="48.52278" lon="2.24439">
        <ele>136.64</ele>
        <time>2014-01-08T09:44:43Z</time>
      </trkpt>
      <trkpt lat="48.52284" lon="2.24427">
        <ele>138.09</ele>
        <time>2014-01-08T09:44:57Z</time>
      </trkpt>
      <trkpt lat="48.52287" lon="2.24416">
        <ele>139.53</ele>
        <time>2014-01-08T09:45:17Z</time>
      </trkpt>
      <trkpt lat="48.52282" lon="2.24403">
        <ele>137.61</ele>
        <time>2014-01-08T09:45:32Z</time>
      </trkpt>
      <trkpt lat="48.52278" lon="2.24386">
        <ele>137.13</ele>
        <time>2014-01-08T09:45:45Z</time>
      </trkpt>
      <trkpt lat="48.52272" lon="2.24369">
        <ele>140.01</ele>
        <time>2014-01-08T09:45:58Z</time>
      </trkpt>
      <trkpt lat="48.52268" lon="2.2435">
        <ele>138.09</ele>
        <time>2014-01-08T09:46:13Z</time>
      </trkpt>
      <trkpt lat="48.52264" lon="2.24336">
        <ele>138.09</ele>
        <time>2014-01-08T09:46:27Z</time>
      </trkpt>
      <trkpt lat="48.52263" lon="2.24327">
        <ele>136.64</ele>
        <time>2014-01-08T09:46:39Z</time>
      </trkpt>
      <trkpt lat="48.5226" lon="2.24316">
        <ele>138.09</ele>
        <time>2014-01-08T09:46:46Z</time>
      </trkpt>
      <trkpt lat="48.52254" lon="2.24297">
        <ele>137.13</ele>
        <time>2014-01-08T09:46:59Z</time>
      </trkpt>
      <trkpt lat="48.5225" lon="2.24276">
        <ele>137.61</ele>
        <time>2014-01-08T09:47:12Z</time>
      </trkpt>
      <trkpt lat="48.52246" lon="2.24253">
        <ele>137.13</ele>
        <time>2014-01-08T09:47:26Z</time>
      </trkpt>
      <trkpt lat="48.5224" lon="2.24233">
        <ele>136.64</ele>
        <time>2014-01-08T09:47:41Z</time>
      </trkpt>
      <trkpt lat="48.52231" lon="2.24209">
        <ele>136.64</ele>
        <time>2014-01-08T09:47:56Z</time>
      </trkpt>
      <trkpt lat="48.52223" lon="2.24191">
        <ele>135.68</ele>
        <time>2014-01-08T09:48:13Z</time>
      </trkpt>
      <trkpt lat="48.52213" lon="2.24165">
        <ele>134.72</ele>
        <time>2014-01-08T09:48:26Z</time>
      </trkpt>
      <trkpt lat="48.52206" lon="2.2415">
        <ele>133.76</ele>
        <time>2014-01-08T09:48:38Z</time>
      </trkpt>
      <trkpt lat="48.52202" lon="2.24137">
        <ele>136.16</ele>
        <time>2014-01-08T09:48:51Z</time>
      </trkpt>
      <trkpt lat="48.52197" lon="2.24119">
        <ele>135.68</ele>
        <time>2014-01-08T09:49:04Z</time>
      </trkpt>
      <trkpt lat="48.52191" lon="2.24101">
        <ele>134.72</ele>
        <time>2014-01-08T09:49:17Z</time>
      </trkpt>
      <trkpt lat="48.52187" lon="2.24087">
        <ele>135.68</ele>
        <time>2014-01-08T09:49:29Z</time>
      </trkpt>
      <trkpt lat="48.5218" lon="2.24067">
        <ele>135.68</ele>
        <time>2014-01-08T09:49:42Z</time>
      </trkpt>
      <trkpt lat="48.52177" lon="2.24049">
        <ele>135.68</ele>
        <time>2014-01-08T09:49:55Z</time>
      </trkpt>
      <trkpt lat="48.52173" lon="2.24032">
        <ele>135.2</ele>
        <time>2014-01-08T09:50:08Z</time>
      </trkpt>
      <trkpt lat="48.52162" lon="2.24001">
        <ele>137.13</ele>
        <time>2014-01-08T09:50:23Z</time>
      </trkpt>
      <trkpt lat="48.52154" lon="2.23985">
        <ele>136.64</ele>
        <time>2014-01-08T09:50:35Z</time>
      </trkpt>
      <trkpt lat="48.52148" lon="2.23968">
        <ele>137.61</ele>
        <time>2014-01-08T09:50:46Z</time>
      </trkpt>
      <trkpt lat="48.52136" lon="2.23946">
        <ele>139.05</ele>
        <time>2014-01-08T09:51:00Z</time>
      </trkpt>
      <trkpt lat="48.5213" lon="2.23931">
        <ele>139.05</ele>
        <time>2014-01-08T09:51:13Z</time>
      </trkpt>
      <trkpt lat="48.52127" lon="2.23914">
        <ele>138.09</ele>
        <time>2014-01-08T09:51:25Z</time>
      </trkpt>
      <trkpt lat="48.52123" lon="2.23894">
        <ele>138.09</ele>
        <time>2014-01-08T09:51:38Z</time>
      </trkpt>
      <trkpt lat="48.52117" lon="2.23871">
        <ele>139.05</ele>
        <time>2014-01-08T09:51:52Z</time>
      </trkpt>
      <trkpt lat="48.5211" lon="2.23849">
        <ele>140.49</ele>
        <time>2014-01-08T09:52:05Z</time>
      </trkpt>
      <trkpt lat="48.52102" lon="2.23827">
        <ele>141.93</ele>
        <time>2014-01-08T09:52:18Z</time>
      </trkpt>
      <trkpt lat="48.52093" lon="2.23808">
        <ele>142.89</ele>
        <time>2014-01-08T09:52:30Z</time>
      </trkpt>
      <trkpt lat="48.52089" lon="2.23796">
        <ele>140.01</ele>
        <time>2014-01-08T09:52:41Z</time>
      </trkpt>
      <trkpt lat="48.52079" lon="2.23774">
        <ele>140.01</ele>
        <time>2014-01-08T09:52:59Z</time>
      </trkpt>
      <trkpt lat="48.52071" lon="2.23758">
        <ele>140.01</ele>
        <time>2014-01-08T09:53:13Z</time>
      </trkpt>
      <trkpt lat="48.52068" lon="2.2374">
        <ele>137.61</ele>
        <time>2014-01-08T09:53:25Z</time>
      </trkpt>
      <trkpt lat="48.52065" lon="2.23705">
        <ele>136.16</ele>
        <time>2014-01-08T09:53:39Z</time>
      </trkpt>
      <trkpt lat="48.52064" lon="2.23689">
        <ele>133.28</ele>
        <time>2014-01-08T09:53:54Z</time>
      </trkpt>
      <trkpt lat="48.52058" lon="2.2367">
        <ele>133.76</ele>
        <time>2014-01-08T09:54:09Z</time>
      </trkpt>
      <trkpt lat="48.5205" lon="2.23645">
        <ele>133.76</ele>
        <time>2014-01-08T09:54:23Z</time>
      </trkpt>
      <trkpt lat="48.52049" lon="2.23617">
        <ele>130.4</ele>
        <time>2014-01-08T09:54:38Z</time>
      </trkpt>
      <trkpt lat="48.52057" lon="2.23605">
        <ele>129.43</ele>
        <time>2014-01-08T09:54:50Z</time>
      </trkpt>
      <trkpt lat="48.52071" lon="2.23593">
        <ele>128.47</ele>
        <time>2014-01-08T09:55:05Z</time>
      </trkpt>
      <trkpt lat="48.5208" lon="2.23586">
        <ele>128.95</ele>
        <time>2014-01-08T09:55:17Z</time>
      </trkpt>
      <trkpt lat="48.52093" lon="2.23571">
        <ele>128.47</ele>
        <time>2014-01-08T09:55:32Z</time>
      </trkpt>
      <trkpt lat="48.52108" lon="2.23538">
        <ele>132.32</ele>
        <time>2014-01-08T09:55:50Z</time>
      </trkpt>
      <trkpt lat="48.52117" lon="2.23518">
        <ele>130.88</ele>
        <time>2014-01-08T09:56:05Z</time>
      </trkpt>
      <trkpt lat="48.5212" lon="2.23506">
        <ele>128.95</ele>
        <time>2014-01-08T09:56:20Z</time>
      </trkpt>
      <trkpt lat="48.52124" lon="2.23498">
        <ele>125.59</ele>
        <time>2014-01-08T09:56:33Z</time>
      </trkpt>
      <trkpt lat="48.52133" lon="2.23505">
        <ele>118.38</ele>
        <time>2014-01-08T09:56:44Z</time>
      </trkpt>
      <trkpt lat="48.52147" lon="2.23511">
        <ele>115.5</ele>
        <time>2014-01-08T09:56:58Z</time>
      </trkpt>
      <trkpt lat="48.52159" lon="2.23525">
        <ele>113.09</ele>
        <time>2014-01-08T09:57:13Z</time>
      </trkpt>
      <trkpt lat="48.52168" lon="2.23528">
        <ele>113.57</ele>
        <time>2014-01-08T09:57:28Z</time>
      </trkpt>
      <trkpt lat="48.52177" lon="2.23531">
        <ele>113.57</ele>
        <time>2014-01-08T09:57:46Z</time>
      </trkpt>
      <trkpt lat="48.52188" lon="2.23539">
        <ele>115.01</ele>
        <time>2014-01-08T09:58:01Z</time>
      </trkpt>
      <trkpt lat="48.52191" lon="2.23545">
        <ele>115.01</ele>
        <time>2014-01-08T09:58:14Z</time>
      </trkpt>
      <trkpt lat="48.52194" lon="2.23551">
        <ele>115.5</ele>
        <time>2014-01-08T09:58:29Z</time>
      </trkpt>
      <trkpt lat="48.52198" lon="2.23557">
        <ele>115.5</ele>
        <time>2014-01-08T09:58:49Z</time>
      </trkpt>
      <trkpt lat="48.52203" lon="2.23566">
        <ele>112.61</ele>
        <time>2014-01-08T09:59:02Z</time>
      </trkpt>
      <trkpt lat="48.52208" lon="2.23579">
        <ele>113.09</ele>
        <time>2014-01-08T09:59:16Z</time>
      </trkpt>
      <trkpt lat="48.52223" lon="2.23598">
        <ele>111.17</ele>
        <time>2014-01-08T09:59:33Z</time>
      </trkpt>
      <trkpt lat="48.52238" lon="2.23621">
        <ele>115.5</ele>
        <time>2014-01-08T09:59:49Z</time>
      </trkpt>
      <trkpt lat="48.52245" lon="2.2363">
        <ele>117.42</ele>
        <time>2014-01-08T09:59:58Z</time>
      </trkpt>
      <trkpt lat="48.52253" lon="2.23634">
        <ele>116.46</ele>
        <time>2014-01-08T10:00:10Z</time>
      </trkpt>
      <trkpt lat="48.52267" lon="2.23644">
        <ele>115.5</ele>
        <time>2014-01-08T10:00:28Z</time>
      </trkpt>
      <trkpt lat="48.52279" lon="2.23654">
        <ele>115.01</ele>
        <time>2014-01-08T10:00:43Z</time>
      </trkpt>
      <trkpt lat="48.52292" lon="2.2367">
        <ele>113.57</ele>
        <time>2014-01-08T10:00:58Z</time>
      </trkpt>
      <trkpt lat="48.52308" lon="2.23682">
        <ele>114.53</ele>
        <time>2014-01-08T10:01:13Z</time>
      </trkpt>
      <trkpt lat="48.52322" lon="2.23693">
        <ele>117.9</ele>
        <time>2014-01-08T10:01:25Z</time>
      </trkpt>
      <trkpt lat="48.52335" lon="2.23706">
        <ele>115.5</ele>
        <time>2014-01-08T10:01:42Z</time>
      </trkpt>
      <trkpt lat="48.52344" lon="2.23715">
        <ele>114.05</ele>
        <time>2014-01-08T10:01:54Z</time>
      </trkpt>
      <trkpt lat="48.52356" lon="2.23712">
        <ele>115.01</ele>
        <time>2014-01-08T10:02:09Z</time>
      </trkpt>
      <trkpt lat="48.52358" lon="2.2371">
        <ele>115.01</ele>
        <time>2014-01-08T10:02:10Z</time>
      </trkpt>
      <trkpt lat="48.52376" lon="2.23689">
        <ele>115.5</ele>
        <time>2014-01-08T10:02:26Z</time>
      </trkpt>
      <trkpt lat="48.52384" lon="2.23677">
        <ele>115.5</ele>
        <time>2014-01-08T10:02:42Z</time>
      </trkpt>
      <trkpt lat="48.52399" lon="2.23657">
        <ele>115.98</ele>
        <time>2014-01-08T10:02:59Z</time>
      </trkpt>
      <trkpt lat="48.52412" lon="2.23639">
        <ele>115.98</ele>
        <time>2014-01-08T10:03:15Z</time>
      </trkpt>
      <trkpt lat="48.52417" lon="2.23635">
        <ele>115.98</ele>
        <time>2014-01-08T10:03:22Z</time>
      </trkpt>
      <trkpt lat="48.52425" lon="2.23615">
        <ele>115.5</ele>
        <time>2014-01-08T10:03:38Z</time>
      </trkpt>
      <trkpt lat="48.5243" lon="2.236">
        <ele>114.05</ele>
        <time>2014-01-08T10:03:50Z</time>
      </trkpt>
      <trkpt lat="48.52437" lon="2.23579">
        <ele>112.13</ele>
        <time>2014-01-08T10:04:05Z</time>
      </trkpt>
      <trkpt lat="48.52444" lon="2.23555">
        <ele>112.61</ele>
        <time>2014-01-08T10:04:21Z</time>
      </trkpt>
      <trkpt lat="48.52447" lon="2.23546">
        <ele>113.57</ele>
        <time>2014-01-08T10:04:30Z</time>
      </trkpt>
      <trkpt lat="48.52449" lon="2.23541">
        <ele>114.05</ele>
        <time>2014-01-08T10:04:34Z</time>
      </trkpt>
      <trkpt lat="48.52455" lon="2.2352">
        <ele>115.01</ele>
        <time>2014-01-08T10:04:47Z</time>
      </trkpt>
      <trkpt lat="48.52461" lon="2.23494">
        <ele>116.46</ele>
        <time>2014-01-08T10:05:05Z</time>
      </trkpt>
      <trkpt lat="48.52466" lon="2.23465">
        <ele>118.38</ele>
        <time>2014-01-08T10:05:23Z</time>
      </trkpt>
      <trkpt lat="48.52469" lon="2.23437">
        <ele>118.38</ele>
        <time>2014-01-08T10:05:39Z</time>
      </trkpt>
      <trkpt lat="48.52472" lon="2.23416">
        <ele>119.34</ele>
        <time>2014-01-08T10:05:53Z</time>
      </trkpt>
      <trkpt lat="48.52474" lon="2.23414">
        <ele>119.82</ele>
        <time>2014-01-08T10:05:55Z</time>
      </trkpt>
      <trkpt lat="48.52476" lon="2.23411">
        <ele>119.82</ele>
        <time>2014-01-08T10:05:58Z</time>
      </trkpt>
      <trkpt lat="48.5248" lon="2.23406">
        <ele>120.3</ele>
        <time>2014-01-08T10:06:11Z</time>
      </trkpt>
      <trkpt lat="48.52486" lon="2.234">
        <ele>119.82</ele>
        <time>2014-01-08T10:06:30Z</time>
      </trkpt>
      <trkpt lat="48.52484" lon="2.23401">
        <ele>119.34</ele>
        <time>2014-01-08T10:06:45Z</time>
      </trkpt>
      <trkpt lat="48.52485" lon="2.23401">
        <ele>120.3</ele>
        <time>2014-01-08T10:07:07Z</time>
      </trkpt>
      <trkpt lat="48.52486" lon="2.23402">
        <ele>119.82</ele>
        <time>2014-01-08T10:07:33Z</time>
      </trkpt>
      <trkpt lat="48.52486" lon="2.23402">
        <ele>119.34</ele>
        <time>2014-01-08T10:08:01Z</time>
      </trkpt>
      <trkpt lat="48.52486" lon="2.23402">
        <ele>119.82</ele>
        <time>2014-01-08T10:08:29Z</time>
      </trkpt>
      <trkpt lat="48.52497" lon="2.23399">
        <ele>120.78</ele>
        <time>2014-01-08T10:08:40Z</time>
      </trkpt>
      <trkpt lat="48.52519" lon="2.23391">
        <ele>122.22</ele>
        <time>2014-01-08T10:08:59Z</time>
      </trkpt>
      <trkpt lat="48.52542" lon="2.23384">
        <ele>123.19</ele>
        <time>2014-01-08T10:09:19Z</time>
      </trkpt>
      <trkpt lat="48.52564" lon="2.23381">
        <ele>124.15</ele>
        <time>2014-01-08T10:09:38Z</time>
      </trkpt>
      <trkpt lat="48.52583" lon="2.2338">
        <ele>123.67</ele>
        <time>2014-01-08T10:09:55Z</time>
      </trkpt>
      <trkpt lat="48.52602" lon="2.23379">
        <ele>121.74</ele>
        <time>2014-01-08T10:10:15Z</time>
      </trkpt>
      <trkpt lat="48.52621" lon="2.2337">
        <ele>123.19</ele>
        <time>2014-01-08T10:10:31Z</time>
      </trkpt>
      <trkpt lat="48.52632" lon="2.23367">
        <ele>120.78</ele>
        <time>2014-01-08T10:10:48Z</time>
      </trkpt>
      <trkpt lat="48.52647" lon="2.23362">
        <ele>118.86</ele>
        <time>2014-01-08T10:11:03Z</time>
      </trkpt>
      <trkpt lat="48.52666" lon="2.23353">
        <ele>116.46</ele>
        <time>2014-01-08T10:11:17Z</time>
      </trkpt>
      <trkpt lat="48.52684" lon="2.23347">
        <ele>120.3</ele>
        <time>2014-01-08T10:11:28Z</time>
      </trkpt>
      <trkpt lat="48.52689" lon="2.23345">
        <ele>120.78</ele>
        <time>2014-01-08T10:11:31Z</time>
      </trkpt>
      <trkpt lat="48.52713" lon="2.23344">
        <ele>121.26</ele>
        <time>2014-01-08T10:11:49Z</time>
      </trkpt>
      <trkpt lat="48.52734" lon="2.2335">
        <ele>123.19</ele>
        <time>2014-01-08T10:12:06Z</time>
      </trkpt>
      <trkpt lat="48.52755" lon="2.23363">
        <ele>124.63</ele>
        <time>2014-01-08T10:12:24Z</time>
      </trkpt>
      <trkpt lat="48.52774" lon="2.23373">
        <ele>127.99</ele>
        <time>2014-01-08T10:12:41Z</time>
      </trkpt>
      <trkpt lat="48.5279" lon="2.23383">
        <ele>127.99</ele>
        <time>2014-01-08T10:12:57Z</time>
      </trkpt>
      <trkpt lat="48.5281" lon="2.23395">
        <ele>127.51</ele>
        <time>2014-01-08T10:13:16Z</time>
      </trkpt>
      <trkpt lat="48.52829" lon="2.23402">
        <ele>128.47</ele>
        <time>2014-01-08T10:13:33Z</time>
      </trkpt>
      <trkpt lat="48.5284" lon="2.23403">
        <ele>127.99</ele>
        <time>2014-01-08T10:13:47Z</time>
      </trkpt>
      <trkpt lat="48.52843" lon="2.23391">
        <ele>127.51</ele>
        <time>2014-01-08T10:13:59Z</time>
      </trkpt>
      <trkpt lat="48.52843" lon="2.23388">
        <ele>127.51</ele>
        <time>2014-01-08T10:14:14Z</time>
      </trkpt>
      <trkpt lat="48.52845" lon="2.23382">
        <ele>128.47</ele>
        <time>2014-01-08T10:14:35Z</time>
      </trkpt>
      <trkpt lat="48.52845" lon="2.23375">
        <ele>127.99</ele>
        <time>2014-01-08T10:14:49Z</time>
      </trkpt>
      <trkpt lat="48.52845" lon="2.23374">
        <ele>127.51</ele>
        <time>2014-01-08T10:14:55Z</time>
      </trkpt>
      <trkpt lat="48.52847" lon="2.23353">
        <ele>128.47</ele>
        <time>2014-01-08T10:15:12Z</time>
      </trkpt>
      <trkpt lat="48.52849" lon="2.23327">
        <ele>129.43</ele>
        <time>2014-01-08T10:15:29Z</time>
      </trkpt>
      <trkpt lat="48.5285" lon="2.23298">
        <ele>129.92</ele>
        <time>2014-01-08T10:15:47Z</time>
      </trkpt>
      <trkpt lat="48.52851" lon="2.23268">
        <ele>131.84</ele>
        <time>2014-01-08T10:16:04Z</time>
      </trkpt>
      <trkpt lat="48.52854" lon="2.23257">
        <ele>132.32</ele>
        <time>2014-01-08T10:16:19Z</time>
      </trkpt>
      <trkpt lat="48.52855" lon="2.23252">
        <ele>132.32</ele>
        <time>2014-01-08T10:16:23Z</time>
      </trkpt>
      <trkpt lat="48.52855" lon="2.23245">
        <ele>132.8</ele>
        <time>2014-01-08T10:16:28Z</time>
      </trkpt>
      <trkpt lat="48.52865" lon="2.2322">
        <ele>132.8</ele>
        <time>2014-01-08T10:16:45Z</time>
      </trkpt>
      <trkpt lat="48.52875" lon="2.23198">
        <ele>131.84</ele>
        <time>2014-01-08T10:17:01Z</time>
      </trkpt>
      <trkpt lat="48.52885" lon="2.23174">
        <ele>132.8</ele>
        <time>2014-01-08T10:17:18Z</time>
      </trkpt>
      <trkpt lat="48.52887" lon="2.2317">
        <ele>133.28</ele>
        <time>2014-01-08T10:17:36Z</time>
      </trkpt>
      <trkpt lat="48.52892" lon="2.23163">
        <ele>133.76</ele>
        <time>2014-01-08T10:17:50Z</time>
      </trkpt>
      <trkpt lat="48.52897" lon="2.23154">
        <ele>133.28</ele>
        <time>2014-01-08T10:18:04Z</time>
      </trkpt>
      <trkpt lat="48.52904" lon="2.23135">
        <ele>133.28</ele>
        <time>2014-01-08T10:18:19Z</time>
      </trkpt>
      <trkpt lat="48.52916" lon="2.23107">
        <ele>132.8</ele>
        <time>2014-01-08T10:18:38Z</time>
      </trkpt>
      <trkpt lat="48.52926" lon="2.23082">
        <ele>132.32</ele>
        <time>2014-01-08T10:18:57Z</time>
      </trkpt>
      <trkpt lat="48.52934" lon="2.23061">
        <ele>131.84</ele>
        <time>2014-01-08T10:19:12Z</time>
      </trkpt>
      <trkpt lat="48.52944" lon="2.23039">
        <ele>132.8</ele>
        <time>2014-01-08T10:19:31Z</time>
      </trkpt>
      <trkpt lat="48.52948" lon="2.23026">
        <ele>131.84</ele>
        <time>2014-01-08T10:19:40Z</time>
      </trkpt>
      <trkpt lat="48.52952" lon="2.23019">
        <ele>130.4</ele>
        <time>2014-01-08T10:19:46Z</time>
      </trkpt>
      <trkpt lat="48.52964" lon="2.22995">
        <ele>130.4</ele>
        <time>2014-01-08T10:20:05Z</time>
      </trkpt>
      <trkpt lat="48.52973" lon="2.22972">
        <ele>130.4</ele>
        <time>2014-01-08T10:20:21Z</time>
      </trkpt>
      <trkpt lat="48.52978" lon="2.22949">
        <ele>130.4</ele>
        <time>2014-01-08T10:20:38Z</time>
      </trkpt>
      <trkpt lat="48.52975" lon="2.22944">
        <ele>129.43</ele>
        <time>2014-01-08T10:20:44Z</time>
      </trkpt>
      <trkpt lat="48.5297" lon="2.22917">
        <ele>132.32</ele>
        <time>2014-01-08T10:21:00Z</time>
      </trkpt>
      <trkpt lat="48.52971" lon="2.22911">
        <ele>132.32</ele>
        <time>2014-01-08T10:21:04Z</time>
      </trkpt>
      <trkpt lat="48.5298" lon="2.22878">
        <ele>131.36</ele>
        <time>2014-01-08T10:21:25Z</time>
      </trkpt>
      <trkpt lat="48.5299" lon="2.22848">
        <ele>131.36</ele>
        <time>2014-01-08T10:21:44Z</time>
      </trkpt>
      <trkpt lat="48.52999" lon="2.22821">
        <ele>129.92</ele>
        <time>2014-01-08T10:22:01Z</time>
      </trkpt>
      <trkpt lat="48.53005" lon="2.22798">
        <ele>127.03</ele>
        <time>2014-01-08T10:22:17Z</time>
      </trkpt>
      <trkpt lat="48.53013" lon="2.22768">
        <ele>126.55</ele>
        <time>2014-01-08T10:22:35Z</time>
      </trkpt>
      <trkpt lat="48.5302" lon="2.22742">
        <ele>125.59</ele>
        <time>2014-01-08T10:22:53Z</time>
      </trkpt>
      <trkpt lat="48.53026" lon="2.22717">
        <ele>123.19</ele>
        <time>2014-01-08T10:23:09Z</time>
      </trkpt>
      <trkpt lat="48.53033" lon="2.22687">
        <ele>121.74</ele>
        <time>2014-01-08T10:23:26Z</time>
      </trkpt>
      <trkpt lat="48.53041" lon="2.22663">
        <ele>124.63</ele>
        <time>2014-01-08T10:23:43Z</time>
      </trkpt>
      <trkpt lat="48.5304" lon="2.22659">
        <ele>125.11</ele>
        <time>2014-01-08T10:24:02Z</time>
      </trkpt>
      <trkpt lat="48.53039" lon="2.22658">
        <ele>125.59</ele>
        <time>2014-01-08T10:24:21Z</time>
      </trkpt>
      <trkpt lat="48.53038" lon="2.22653">
        <ele>127.51</ele>
        <time>2014-01-08T10:24:38Z</time>
      </trkpt>
      <trkpt lat="48.53035" lon="2.22646">
        <ele>133.76</ele>
        <time>2014-01-08T10:24:53Z</time>
      </trkpt>
      <trkpt lat="48.53028" lon="2.22631">
        <ele>137.13</ele>
        <time>2014-01-08T10:25:08Z</time>
      </trkpt>
      <trkpt lat="48.53024" lon="2.22608">
        <ele>140.49</ele>
        <time>2014-01-08T10:25:24Z</time>
      </trkpt>
      <trkpt lat="48.53022" lon="2.22603">
        <ele>140.01</ele>
        <time>2014-01-08T10:25:36Z</time>
      </trkpt>
      <trkpt lat="48.53021" lon="2.22595">
        <ele>140.49</ele>
        <time>2014-01-08T10:25:48Z</time>
      </trkpt>
      <trkpt lat="48.53021" lon="2.22594">
        <ele>140.97</ele>
        <time>2014-01-08T10:26:04Z</time>
      </trkpt>
      <trkpt lat="48.53035" lon="2.22592">
        <ele>138.57</ele>
        <time>2014-01-08T10:26:20Z</time>
      </trkpt>
      <trkpt lat="48.53042" lon="2.22587">
        <ele>136.64</ele>
        <time>2014-01-08T10:26:33Z</time>
      </trkpt>
      <trkpt lat="48.53049" lon="2.22594">
        <ele>134.24</ele>
        <time>2014-01-08T10:26:51Z</time>
      </trkpt>
      <trkpt lat="48.53061" lon="2.22606">
        <ele>128.95</ele>
        <time>2014-01-08T10:27:08Z</time>
      </trkpt>
      <trkpt lat="48.53068" lon="2.22613">
        <ele>125.59</ele>
        <time>2014-01-08T10:27:17Z</time>
      </trkpt>
      <trkpt lat="48.53074" lon="2.22617">
        <ele>127.03</ele>
        <time>2014-01-08T10:27:21Z</time>
      </trkpt>
      <trkpt lat="48.53089" lon="2.22635">
        <ele>129.92</ele>
        <time>2014-01-08T10:27:38Z</time>
      </trkpt>
      <trkpt lat="48.53106" lon="2.22654">
        <ele>131.84</ele>
        <time>2014-01-08T10:27:57Z</time>
      </trkpt>
      <trkpt lat="48.53113" lon="2.22661">
        <ele>130.88</ele>
        <time>2014-01-08T10:28:13Z</time>
      </trkpt>
      <trkpt lat="48.53122" lon="2.22669">
        <ele>129.92</ele>
        <time>2014-01-08T10:28:30Z</time>
      </trkpt>
      <trkpt lat="48.53136" lon="2.2268">
        <ele>128.47</ele>
        <time>2014-01-08T10:28:47Z</time>
      </trkpt>
      <trkpt lat="48.53156" lon="2.22695">
        <ele>131.36</ele>
        <time>2014-01-08T10:29:08Z</time>
      </trkpt>
      <trkpt lat="48.53172" lon="2.22709">
        <ele>132.8</ele>
        <time>2014-01-08T10:29:25Z</time>
      </trkpt>
      <trkpt lat="48.53193" lon="2.22725">
        <ele>133.76</ele>
        <time>2014-01-08T10:29:46Z</time>
      </trkpt>
      <trkpt lat="48.5321" lon="2.22742">
        <ele>134.24</ele>
        <time>2014-01-08T10:30:05Z</time>
      </trkpt>
      <trkpt lat="48.53223" lon="2.2275">
        <ele>132.32</ele>
        <time>2014-01-08T10:30:20Z</time>
      </trkpt>
      <trkpt lat="48.53246" lon="2.22759">
        <ele>132.32</ele>
        <time>2014-01-08T10:30:41Z</time>
      </trkpt>
      <trkpt lat="48.53261" lon="2.22768">
        <ele>133.76</ele>
        <time>2014-01-08T10:30:57Z</time>
      </trkpt>
      <trkpt lat="48.53278" lon="2.22773">
        <ele>130.4</ele>
        <time>2014-01-08T10:31:16Z</time>
      </trkpt>
      <trkpt lat="48.53293" lon="2.22781">
        <ele>128.47</ele>
        <time>2014-01-08T10:31:31Z</time>
      </trkpt>
      <trkpt lat="48.5331" lon="2.22799">
        <ele>131.84</ele>
        <time>2014-01-08T10:31:49Z</time>
      </trkpt>
      <trkpt lat="48.53331" lon="2.22817">
        <ele>132.32</ele>
        <time>2014-01-08T10:32:11Z</time>
      </trkpt>
      <trkpt lat="48.5335" lon="2.22829">
        <ele>131.84</ele>
        <time>2014-01-08T10:32:30Z</time>
      </trkpt>
      <trkpt lat="48.53367" lon="2.22837">
        <ele>135.2</ele>
        <time>2014-01-08T10:32:49Z</time>
      </trkpt>
      <trkpt lat="48.5337" lon="2.22829">
        <ele>135.68</ele>
        <time>2014-01-08T10:33:03Z</time>
      </trkpt>
      <trkpt lat="48.53375" lon="2.22821">
        <ele>136.64</ele>
        <time>2014-01-08T10:33:19Z</time>
      </trkpt>
      <trkpt lat="48.53378" lon="2.22815">
        <ele>136.64</ele>
        <time>2014-01-08T10:33:23Z</time>
      </trkpt>
      <trkpt lat="48.53392" lon="2.22788">
        <ele>136.16</ele>
        <time>2014-01-08T10:33:43Z</time>
      </trkpt>
      <trkpt lat="48.53404" lon="2.22764">
        <ele>136.16</ele>
        <time>2014-01-08T10:34:02Z</time>
      </trkpt>
      <trkpt lat="48.53417" lon="2.22738">
        <ele>136.64</ele>
        <time>2014-01-08T10:34:22Z</time>
      </trkpt>
      <trkpt lat="48.53431" lon="2.22708">
        <ele>136.16</ele>
        <time>2014-01-08T10:34:43Z</time>
      </trkpt>
      <trkpt lat="48.53445" lon="2.22683">
        <ele>137.61</ele>
        <time>2014-01-08T10:35:04Z</time>
      </trkpt>
      <trkpt lat="48.53458" lon="2.22656">
        <ele>137.61</ele>
        <time>2014-01-08T10:35:23Z</time>
      </trkpt>
      <trkpt lat="48.53472" lon="2.2263">
        <ele>139.05</ele>
        <time>2014-01-08T10:35:43Z</time>
      </trkpt>
      <trkpt lat="48.53483" lon="2.22609">
        <ele>139.05</ele>
        <time>2014-01-08T10:35:59Z</time>
      </trkpt>
      <trkpt lat="48.53496" lon="2.22583">
        <ele>139.05</ele>
        <time>2014-01-08T10:36:18Z</time>
      </trkpt>
      <trkpt lat="48.53508" lon="2.22559">
        <ele>138.57</ele>
        <time>2014-01-08T10:36:36Z</time>
      </trkpt>
      <trkpt lat="48.53523" lon="2.22526">
        <ele>138.09</ele>
        <time>2014-01-08T10:36:58Z</time>
      </trkpt>
      <trkpt lat="48.53536" lon="2.22503">
        <ele>140.01</ele>
        <time>2014-01-08T10:37:16Z</time>
      </trkpt>
      <trkpt lat="48.5355" lon="2.22475">
        <ele>139.53</ele>
        <time>2014-01-08T10:37:36Z</time>
      </trkpt>
      <trkpt lat="48.53566" lon="2.22443">
        <ele>140.49</ele>
        <time>2014-01-08T10:37:59Z</time>
      </trkpt>
      <trkpt lat="48.53577" lon="2.22422">
        <ele>140.49</ele>
        <time>2014-01-08T10:38:14Z</time>
      </trkpt>
      <trkpt lat="48.53578" lon="2.22421">
        <ele>140.49</ele>
        <time>2014-01-08T10:38:15Z</time>
      </trkpt>
      <trkpt lat="48.53588" lon="2.22398">
        <ele>140.01</ele>
        <time>2014-01-08T10:38:31Z</time>
      </trkpt>
      <trkpt lat="48.53599" lon="2.22377">
        <ele>137.61</ele>
        <time>2014-01-08T10:38:48Z</time>
      </trkpt>
      <trkpt lat="48.53602" lon="2.22361">
        <ele>136.64</ele>
        <time>2014-01-08T10:39:00Z</time>
      </trkpt>
      <trkpt lat="48.536" lon="2.22353">
        <ele>136.64</ele>
        <time>2014-01-08T10:39:06Z</time>
      </trkpt>
      <trkpt lat="48.53587" lon="2.2234">
        <ele>137.61</ele>
        <time>2014-01-08T10:39:22Z</time>
      </trkpt>
      <trkpt lat="48.53572" lon="2.22326">
        <ele>138.57</ele>
        <time>2014-01-08T10:39:38Z</time>
      </trkpt>
      <trkpt lat="48.53568" lon="2.22314">
        <ele>138.09</ele>
        <time>2014-01-08T10:39:54Z</time>
      </trkpt>
      <trkpt lat="48.53569" lon="2.22309">
        <ele>138.09</ele>
        <time>2014-01-08T10:40:16Z</time>
      </trkpt>
      <trkpt lat="48.53569" lon="2.22308">
        <ele>138.09</ele>
        <time>2014-01-08T10:40:38Z</time>
      </trkpt>
      <trkpt lat="48.53575" lon="2.22309">
        <ele>137.13</ele>
        <time>2014-01-08T10:40:51Z</time>
      </trkpt>
      <trkpt lat="48.53584" lon="2.22315">
        <ele>133.76</ele>
        <time>2014-01-08T10:41:09Z</time>
      </trkpt>
      <trkpt lat="48.53595" lon="2.22321">
        <ele>128.47</ele>
        <time>2014-01-08T10:41:26Z</time>
      </trkpt>
      <trkpt lat="48.53615" lon="2.22328">
        <ele>123.67</ele>
        <time>2014-01-08T10:41:43Z</time>
      </trkpt>
      <trkpt lat="48.53627" lon="2.22337">
        <ele>123.67</ele>
        <time>2014-01-08T10:41:59Z</time>
      </trkpt>
      <trkpt lat="48.53642" lon="2.22348">
        <ele>123.19</ele>
        <time>2014-01-08T10:42:16Z</time>
      </trkpt>
      <trkpt lat="48.5366" lon="2.22357">
        <ele>123.67</ele>
        <time>2014-01-08T10:42:31Z</time>
      </trkpt>
      <trkpt lat="48.53673" lon="2.22363">
        <ele>123.19</ele>
        <time>2014-01-08T10:42:47Z</time>
      </trkpt>
      <trkpt lat="48.53675" lon="2.22364">
        <ele>122.71</ele>
        <time>2014-01-08T10:42:49Z</time>
      </trkpt>
      <trkpt lat="48.53692" lon="2.22371">
        <ele>120.78</ele>
        <time>2014-01-08T10:43:06Z</time>
      </trkpt>
      <trkpt lat="48.53706" lon="2.22373">
        <ele>116.94</ele>
        <time>2014-01-08T10:43:23Z</time>
      </trkpt>
      <trkpt lat="48.53714" lon="2.22373">
        <ele>115.01</ele>
        <time>2014-01-08T10:43:38Z</time>
      </trkpt>
      <trkpt lat="48.53722" lon="2.22375">
        <ele>112.13</ele>
        <time>2014-01-08T10:43:57Z</time>
      </trkpt>
      <trkpt lat="48.53733" lon="2.22375">
        <ele>112.13</ele>
        <time>2014-01-08T10:44:14Z</time>
      </trkpt>
      <trkpt lat="48.53736" lon="2.22377">
        <ele>109.73</ele>
        <time>2014-01-08T10:44:31Z</time>
      </trkpt>
      <trkpt lat="48.53747" lon="2.22383">
        <ele>105.4</ele>
        <time>2014-01-08T10:44:49Z</time>
      </trkpt>
      <trkpt lat="48.53752" lon="2.22387">
        <ele>104.44</ele>
        <time>2014-01-08T10:45:09Z</time>
      </trkpt>
      <trkpt lat="48.53755" lon="2.2239">
        <ele>102.52</ele>
        <time>2014-01-08T10:45:32Z</time>
      </trkpt>
      <trkpt lat="48.5376" lon="2.2239">
        <ele>102.04</ele>
        <time>2014-01-08T10:45:50Z</time>
      </trkpt>
      <trkpt lat="48.53761" lon="2.22391">
        <ele>101.08</ele>
        <time>2014-01-08T10:46:06Z</time>
      </trkpt>
      <trkpt lat="48.53777" lon="2.22396">
        <ele>101.56</ele>
        <time>2014-01-08T10:46:24Z</time>
      </trkpt>
      <trkpt lat="48.53787" lon="2.22403">
        <ele>97.23</ele>
        <time>2014-01-08T10:46:39Z</time>
      </trkpt>
      <trkpt lat="48.538" lon="2.22405">
        <ele>97.23</ele>
        <time>2014-01-08T10:46:52Z</time>
      </trkpt>
      <trkpt lat="48.53813" lon="2.22409">
        <ele>96.75</ele>
        <time>2014-01-08T10:47:08Z</time>
      </trkpt>
      <trkpt lat="48.53828" lon="2.22412">
        <ele>94.35</ele>
        <time>2014-01-08T10:47:24Z</time>
      </trkpt>
      <trkpt lat="48.53857" lon="2.22421">
        <ele>89.54</ele>
        <time>2014-01-08T10:47:42Z</time>
      </trkpt>
      <trkpt lat="48.53877" lon="2.22424">
        <ele>87.14</ele>
        <time>2014-01-08T10:47:59Z</time>
      </trkpt>
      <trkpt lat="48.53909" lon="2.22423">
        <ele>93.39</ele>
        <time>2014-01-08T10:48:17Z</time>
      </trkpt>
      <trkpt lat="48.53938" lon="2.22428">
        <ele>93.87</ele>
        <time>2014-01-08T10:48:36Z</time>
      </trkpt>
      <trkpt lat="48.53956" lon="2.22429">
        <ele>92.42</ele>
        <time>2014-01-08T10:48:51Z</time>
      </trkpt>
      <trkpt lat="48.53979" lon="2.22426">
        <ele>90.02</ele>
        <time>2014-01-08T10:49:09Z</time>
      </trkpt>
      <trkpt lat="48.54001" lon="2.22419">
        <ele>90.5</ele>
        <time>2014-01-08T10:49:27Z</time>
      </trkpt>
      <trkpt lat="48.5402" lon="2.2242">
        <ele>91.46</ele>
        <time>2014-01-08T10:49:43Z</time>
      </trkpt>
      <trkpt lat="48.54034" lon="2.2242">
        <ele>90.02</ele>
        <time>2014-01-08T10:49:55Z</time>
      </trkpt>
      <trkpt lat="48.54048" lon="2.22422">
        <ele>83.29</ele>
        <time>2014-01-08T10:50:11Z</time>
      </trkpt>
      <trkpt lat="48.54065" lon="2.22421">
        <ele>80.89</ele>
        <time>2014-01-08T10:50:29Z</time>
      </trkpt>
      <trkpt lat="48.54089" lon="2.22424">
        <ele>79.93</ele>
        <time>2014-01-08T10:50:46Z</time>
      </trkpt>
      <trkpt lat="48.54112" lon="2.22427">
        <ele>84.25</ele>
        <time>2014-01-08T10:51:00Z</time>
      </trkpt>
      <trkpt lat="48.54129" lon="2.22428">
        <ele>84.73</ele>
        <time>2014-01-08T10:51:16Z</time>
      </trkpt>
      <trkpt lat="48.54147" lon="2.22425">
        <ele>85.69</ele>
        <time>2014-01-08T10:51:32Z</time>
      </trkpt>
      <trkpt lat="48.54161" lon="2.22423">
        <ele>86.18</ele>
        <time>2014-01-08T10:51:48Z</time>
      </trkpt>
      <trkpt lat="48.54172" lon="2.22421">
        <ele>87.62</ele>
        <time>2014-01-08T10:52:03Z</time>
      </trkpt>
      <trkpt lat="48.54191" lon="2.2242">
        <ele>88.1</ele>
        <time>2014-01-08T10:52:23Z</time>
      </trkpt>
      <trkpt lat="48.54204" lon="2.22419">
        <ele>89.06</ele>
        <time>2014-01-08T10:52:40Z</time>
      </trkpt>
      <trkpt lat="48.54203" lon="2.2242">
        <ele>89.06</ele>
        <time>2014-01-08T10:52:55Z</time>
      </trkpt>
      <trkpt lat="48.54203" lon="2.22421">
        <ele>89.06</ele>
        <time>2014-01-08T10:53:21Z</time>
      </trkpt>
      <trkpt lat="48.54203" lon="2.2242">
        <ele>89.06</ele>
        <time>2014-01-08T10:53:48Z</time>
      </trkpt>
      <trkpt lat="48.54203" lon="2.2242">
        <ele>89.06</ele>
        <time>2014-01-08T10:54:13Z</time>
      </trkpt>
      <trkpt lat="48.54203" lon="2.2242">
        <ele>89.54</ele>
        <time>2014-01-08T10:54:42Z</time>
      </trkpt>
      <trkpt lat="48.54203" lon="2.2242">
        <ele>89.06</ele>
        <time>2014-01-08T10:55:06Z</time>
      </trkpt>
      <trkpt lat="48.54203" lon="2.2242">
        <ele>89.06</ele>
        <time>2014-01-08T10:55:21Z</time>
      </trkpt>
      <trkpt lat="48.54204" lon="2.22419">
        <ele>89.54</ele>
        <time>2014-01-08T10:55:46Z</time>
      </trkpt>
      <trkpt lat="48.54204" lon="2.22419">
        <ele>89.54</ele>
        <time>2014-01-08T10:56:04Z</time>
      </trkpt>
      <trkpt lat="48.54204" lon="2.22419">
        <ele>89.54</ele>
        <time>2014-01-08T10:56:23Z</time>
      </trkpt>
      <trkpt lat="48.54205" lon="2.22419">
        <ele>88.58</ele>
        <time>2014-01-08T10:56:47Z</time>
      </trkpt>
      <trkpt lat="48.54213" lon="2.22418">
        <ele>87.62</ele>
        <time>2014-01-08T10:57:03Z</time>
      </trkpt>
      <trkpt lat="48.54221" lon="2.22418">
        <ele>87.62</ele>
        <time>2014-01-08T10:57:15Z</time>
      </trkpt>
      <trkpt lat="48.54238" lon="2.22417">
        <ele>87.62</ele>
        <time>2014-01-08T10:57:32Z</time>
      </trkpt>
      <trkpt lat="48.54252" lon="2.22417">
        <ele>88.1</ele>
        <time>2014-01-08T10:57:47Z</time>
      </trkpt>
      <trkpt lat="48.5427" lon="2.22416">
        <ele>88.1</ele>
        <time>2014-01-08T10:58:05Z</time>
      </trkpt>
      <trkpt lat="48.54289" lon="2.22414">
        <ele>88.58</ele>
        <time>2014-01-08T10:58:24Z</time>
      </trkpt>
      <trkpt lat="48.54308" lon="2.22413">
        <ele>89.06</ele>
        <time>2014-01-08T10:58:42Z</time>
      </trkpt>
      <trkpt lat="48.54328" lon="2.22411">
        <ele>89.06</ele>
        <time>2014-01-08T10:59:00Z</time>
      </trkpt>
      <trkpt lat="48.54349" lon="2.2241">
        <ele>88.1</ele>
        <time>2014-01-08T10:59:19Z</time>
      </trkpt>
      <trkpt lat="48.54368" lon="2.22407">
        <ele>88.1</ele>
        <time>2014-01-08T10:59:36Z</time>
      </trkpt>
      <trkpt lat="48.5439" lon="2.22405">
        <ele>88.58</ele>
        <time>2014-01-08T10:59:55Z</time>
      </trkpt>
      <trkpt lat="48.5441" lon="2.22405">
        <ele>88.1</ele>
        <time>2014-01-08T11:00:14Z</time>
      </trkpt>
      <trkpt lat="48.54432" lon="2.22404">
        <ele>88.1</ele>
        <time>2014-01-08T11:00:33Z</time>
      </trkpt>
      <trkpt lat="48.54454" lon="2.22403">
        <ele>88.1</ele>
        <time>2014-01-08T11:00:53Z</time>
      </trkpt>
      <trkpt lat="48.54479" lon="2.224">
        <ele>88.1</ele>
        <time>2014-01-08T11:01:14Z</time>
      </trkpt>
      <trkpt lat="48.54498" lon="2.224">
        <ele>87.62</ele>
        <time>2014-01-08T11:01:30Z</time>
      </trkpt>
      <trkpt lat="48.54518" lon="2.22395">
        <ele>87.62</ele>
        <time>2014-01-08T11:01:50Z</time>
      </trkpt>
      <trkpt lat="48.5452" lon="2.22389">
        <ele>87.14</ele>
        <time>2014-01-08T11:01:55Z</time>
      </trkpt>
      <trkpt lat="48.54519" lon="2.22382">
        <ele>87.14</ele>
        <time>2014-01-08T11:02:00Z</time>
      </trkpt>
      <trkpt lat="48.54525" lon="2.22354">
        <ele>87.14</ele>
        <time>2014-01-08T11:02:19Z</time>
      </trkpt>
      <trkpt lat="48.54529" lon="2.22336">
        <ele>87.14</ele>
        <time>2014-01-08T11:02:33Z</time>
      </trkpt>
      <trkpt lat="48.54538" lon="2.22312">
        <ele>86.18</ele>
        <time>2014-01-08T11:02:50Z</time>
      </trkpt>
      <trkpt lat="48.54546" lon="2.22286">
        <ele>83.77</ele>
        <time>2014-01-08T11:03:07Z</time>
      </trkpt>
      <trkpt lat="48.54553" lon="2.2226">
        <ele>83.77</ele>
        <time>2014-01-08T11:03:22Z</time>
      </trkpt>
      <trkpt lat="48.54558" lon="2.22238">
        <ele>84.25</ele>
        <time>2014-01-08T11:03:36Z</time>
      </trkpt>
      <trkpt lat="48.54559" lon="2.22212">
        <ele>86.18</ele>
        <time>2014-01-08T11:03:52Z</time>
      </trkpt>
      <trkpt lat="48.5456" lon="2.22182">
        <ele>86.66</ele>
        <time>2014-01-08T11:04:09Z</time>
      </trkpt>
      <trkpt lat="48.54557" lon="2.22153">
        <ele>87.62</ele>
        <time>2014-01-08T11:04:25Z</time>
      </trkpt>
      <trkpt lat="48.54555" lon="2.22123">
        <ele>84.25</ele>
        <time>2014-01-08T11:04:43Z</time>
      </trkpt>
      <trkpt lat="48.54556" lon="2.22098">
        <ele>85.69</ele>
        <time>2014-01-08T11:04:58Z</time>
      </trkpt>
      <trkpt lat="48.54556" lon="2.22083">
        <ele>87.14</ele>
        <time>2014-01-08T11:05:11Z</time>
      </trkpt>
      <trkpt lat="48.54557" lon="2.22078">
        <ele>87.14</ele>
        <time>2014-01-08T11:05:28Z</time>
      </trkpt>
      <trkpt lat="48.54564" lon="2.22057">
        <ele>87.14</ele>
        <time>2014-01-08T11:05:45Z</time>
      </trkpt>
      <trkpt lat="48.54571" lon="2.2203">
        <ele>86.66</ele>
        <time>2014-01-08T11:06:00Z</time>
      </trkpt>
      <trkpt lat="48.5458" lon="2.22012">
        <ele>85.69</ele>
        <time>2014-01-08T11:06:14Z</time>
      </trkpt>
      <trkpt lat="48.54586" lon="2.22004">
        <ele>82.33</ele>
        <time>2014-01-08T11:06:26Z</time>
      </trkpt>
      <trkpt lat="48.54595" lon="2.21986">
        <ele>77.04</ele>
        <time>2014-01-08T11:06:39Z</time>
      </trkpt>
      <trkpt lat="48.54597" lon="2.21979">
        <ele>75.12</ele>
        <time>2014-01-08T11:06:43Z</time>
      </trkpt>
      <trkpt lat="48.54597" lon="2.21962">
        <ele>73.2</ele>
        <time>2014-01-08T11:06:48Z</time>
      </trkpt>
      <trkpt lat="48.54597" lon="2.2195">
        <ele>70.79</ele>
        <time>2014-01-08T11:06:53Z</time>
      </trkpt>
      <trkpt lat="48.54602" lon="2.2193">
        <ele>66.95</ele>
        <time>2014-01-08T11:07:03Z</time>
      </trkpt>
      <trkpt lat="48.54603" lon="2.21916">
        <ele>66.47</ele>
        <time>2014-01-08T11:07:09Z</time>
      </trkpt>
      <trkpt lat="48.5461" lon="2.21891">
        <ele>60.22</ele>
        <time>2014-01-08T11:07:24Z</time>
      </trkpt>
      <trkpt lat="48.54631" lon="2.21881">
        <ele>55.89</ele>
        <time>2014-01-08T11:07:39Z</time>
      </trkpt>
      <trkpt lat="48.54639" lon="2.21859">
        <ele>51.57</ele>
        <time>2014-01-08T11:07:55Z</time>
      </trkpt>
      <trkpt lat="48.54647" lon="2.21836">
        <ele>50.13</ele>
        <time>2014-01-08T11:08:10Z</time>
      </trkpt>
      <trkpt lat="48.54649" lon="2.2183">
        <ele>50.61</ele>
        <time>2014-01-08T11:08:14Z</time>
      </trkpt>
      <trkpt lat="48.5466" lon="2.21802">
        <ele>53.01</ele>
        <time>2014-01-08T11:08:32Z</time>
      </trkpt>
      <trkpt lat="48.54662" lon="2.21795">
        <ele>54.45</ele>
        <time>2014-01-08T11:08:36Z</time>
      </trkpt>
      <trkpt lat="48.54666" lon="2.21781">
        <ele>56.37</ele>
        <time>2014-01-08T11:08:45Z</time>
      </trkpt>
      <trkpt lat="48.54671" lon="2.2175">
        <ele>62.14</ele>
        <time>2014-01-08T11:09:01Z</time>
      </trkpt>
      <trkpt lat="48.54677" lon="2.21724">
        <ele>69.83</ele>
        <time>2014-01-08T11:09:17Z</time>
      </trkpt>
      <trkpt lat="48.54678" lon="2.21713">
        <ele>74.16</ele>
        <time>2014-01-08T11:09:22Z</time>
      </trkpt>
      <trkpt lat="48.54689" lon="2.21689">
        <ele>76.56</ele>
        <time>2014-01-08T11:09:39Z</time>
      </trkpt>
      <trkpt lat="48.54694" lon="2.21666">
        <ele>81.37</ele>
        <time>2014-01-08T11:09:53Z</time>
      </trkpt>
      <trkpt lat="48.547" lon="2.21645">
        <ele>78</ele>
        <time>2014-01-08T11:10:06Z</time>
      </trkpt>
      <trkpt lat="48.54718" lon="2.21627">
        <ele>73.68</ele>
        <time>2014-01-08T11:10:24Z</time>
      </trkpt>
      <trkpt lat="48.54729" lon="2.21625">
        <ele>82.33</ele>
        <time>2014-01-08T11:10:39Z</time>
      </trkpt>
      <trkpt lat="48.54731" lon="2.21628">
        <ele>82.81</ele>
        <time>2014-01-08T11:10:42Z</time>
      </trkpt>
      <trkpt lat="48.5474" lon="2.21635">
        <ele>87.62</ele>
        <time>2014-01-08T11:10:59Z</time>
      </trkpt>
      <trkpt lat="48.54751" lon="2.21606">
        <ele>90.5</ele>
        <time>2014-01-08T11:11:53Z</time>
      </trkpt>
      <trkpt lat="48.5475" lon="2.21605">
        <ele>90.5</ele>
        <time>2014-01-08T11:11:54Z</time>
      </trkpt>
      <trkpt lat="48.54735" lon="2.21593">
        <ele>89.06</ele>
        <time>2014-01-08T11:12:11Z</time>
      </trkpt>
      <trkpt lat="48.54726" lon="2.21582">
        <ele>87.14</ele>
        <time>2014-01-08T11:12:23Z</time>
      </trkpt>
      <trkpt lat="48.54724" lon="2.21574">
        <ele>84.73</ele>
        <time>2014-01-08T11:12:28Z</time>
      </trkpt>
      <trkpt lat="48.54733" lon="2.2154">
        <ele>78.48</ele>
        <time>2014-01-08T11:12:47Z</time>
      </trkpt>
      <trkpt lat="48.54743" lon="2.21517">
        <ele>72.72</ele>
        <time>2014-01-08T11:13:04Z</time>
      </trkpt>
      <trkpt lat="48.5475" lon="2.21489">
        <ele>75.12</ele>
        <time>2014-01-08T11:13:21Z</time>
      </trkpt>
      <trkpt lat="48.5476" lon="2.21465">
        <ele>71.27</ele>
        <time>2014-01-08T11:13:38Z</time>
      </trkpt>
      <trkpt lat="48.54769" lon="2.21436">
        <ele>69.35</ele>
        <time>2014-01-08T11:13:57Z</time>
      </trkpt>
      <trkpt lat="48.54779" lon="2.21409">
        <ele>67.43</ele>
        <time>2014-01-08T11:14:16Z</time>
      </trkpt>
      <trkpt lat="48.54789" lon="2.21381">
        <ele>70.31</ele>
        <time>2014-01-08T11:14:34Z</time>
      </trkpt>
      <trkpt lat="48.54795" lon="2.21348">
        <ele>78.97</ele>
        <time>2014-01-08T11:14:52Z</time>
      </trkpt>
      <trkpt lat="48.54797" lon="2.21345">
        <ele>77.52</ele>
        <time>2014-01-08T11:14:55Z</time>
      </trkpt>
      <trkpt lat="48.54804" lon="2.21322">
        <ele>74.16</ele>
        <time>2014-01-08T11:15:10Z</time>
      </trkpt>
      <trkpt lat="48.54811" lon="2.21299">
        <ele>76.08</ele>
        <time>2014-01-08T11:15:26Z</time>
      </trkpt>
      <trkpt lat="48.54819" lon="2.21276">
        <ele>72.72</ele>
        <time>2014-01-08T11:15:41Z</time>
      </trkpt>
      <trkpt lat="48.54826" lon="2.21254">
        <ele>70.79</ele>
        <time>2014-01-08T11:15:57Z</time>
      </trkpt>
      <trkpt lat="48.54833" lon="2.21228">
        <ele>79.45</ele>
        <time>2014-01-08T11:16:11Z</time>
      </trkpt>
      <trkpt lat="48.54836" lon="2.2122">
        <ele>81.85</ele>
        <time>2014-01-08T11:16:17Z</time>
      </trkpt>
      <trkpt lat="48.54843" lon="2.21209">
        <ele>80.41</ele>
        <time>2014-01-08T11:16:27Z</time>
      </trkpt>
      <trkpt lat="48.54849" lon="2.21191">
        <ele>79.93</ele>
        <time>2014-01-08T11:16:39Z</time>
      </trkpt>
      <trkpt lat="48.54854" lon="2.21162">
        <ele>81.37</ele>
        <time>2014-01-08T11:16:55Z</time>
      </trkpt>
      <trkpt lat="48.54864" lon="2.21142">
        <ele>80.89</ele>
        <time>2014-01-08T11:17:11Z</time>
      </trkpt>
      <trkpt lat="48.54869" lon="2.21121">
        <ele>75.6</ele>
        <time>2014-01-08T11:17:27Z</time>
      </trkpt>
      <trkpt lat="48.54868" lon="2.21105">
        <ele>76.08</ele>
        <time>2014-01-08T11:17:39Z</time>
      </trkpt>
      <trkpt lat="48.54857" lon="2.21093">
        <ele>70.31</ele>
        <time>2014-01-08T11:17:54Z</time>
      </trkpt>
      <trkpt lat="48.54843" lon="2.21086">
        <ele>68.39</ele>
        <time>2014-01-08T11:18:09Z</time>
      </trkpt>
      <trkpt lat="48.54822" lon="2.21068">
        <ele>72.72</ele>
        <time>2014-01-08T11:18:28Z</time>
      </trkpt>
      <trkpt lat="48.54799" lon="2.21051">
        <ele>80.41</ele>
        <time>2014-01-08T11:18:48Z</time>
      </trkpt>
      <trkpt lat="48.5478" lon="2.21035">
        <ele>79.45</ele>
        <time>2014-01-08T11:19:07Z</time>
      </trkpt>
      <trkpt lat="48.54759" lon="2.21017">
        <ele>83.77</ele>
        <time>2014-01-08T11:19:26Z</time>
      </trkpt>
      <trkpt lat="48.5474" lon="2.21005">
        <ele>82.33</ele>
        <time>2014-01-08T11:19:43Z</time>
      </trkpt>
      <trkpt lat="48.54722" lon="2.2099">
        <ele>78.48</ele>
        <time>2014-01-08T11:20:01Z</time>
      </trkpt>
      <trkpt lat="48.54705" lon="2.20979">
        <ele>80.41</ele>
        <time>2014-01-08T11:20:17Z</time>
      </trkpt>
      <trkpt lat="48.54686" lon="2.20966">
        <ele>78.97</ele>
        <time>2014-01-08T11:20:34Z</time>
      </trkpt>
      <trkpt lat="48.5467" lon="2.20951">
        <ele>79.93</ele>
        <time>2014-01-08T11:20:51Z</time>
      </trkpt>
      <trkpt lat="48.54651" lon="2.20936">
        <ele>83.77</ele>
        <time>2014-01-08T11:21:09Z</time>
      </trkpt>
      <trkpt lat="48.54627" lon="2.2092">
        <ele>86.66</ele>
        <time>2014-01-08T11:21:29Z</time>
      </trkpt>
      <trkpt lat="48.54611" lon="2.20904">
        <ele>84.25</ele>
        <time>2014-01-08T11:21:47Z</time>
      </trkpt>
      <trkpt lat="48.54591" lon="2.20891">
        <ele>81.37</ele>
        <time>2014-01-08T11:22:06Z</time>
      </trkpt>
      <trkpt lat="48.54573" lon="2.20877">
        <ele>81.37</ele>
        <time>2014-01-08T11:22:24Z</time>
      </trkpt>
      <trkpt lat="48.54556" lon="2.20862">
        <ele>84.25</ele>
        <time>2014-01-08T11:22:40Z</time>
      </trkpt>
      <trkpt lat="48.54534" lon="2.20847">
        <ele>86.66</ele>
        <time>2014-01-08T11:22:59Z</time>
      </trkpt>
      <trkpt lat="48.54512" lon="2.20829">
        <ele>85.69</ele>
        <time>2014-01-08T11:23:21Z</time>
      </trkpt>
      <trkpt lat="48.54489" lon="2.2081">
        <ele>86.18</ele>
        <time>2014-01-08T11:23:43Z</time>
      </trkpt>
      <trkpt lat="48.5447" lon="2.20795">
        <ele>87.62</ele>
        <time>2014-01-08T11:24:02Z</time>
      </trkpt>
      <trkpt lat="48.54467" lon="2.20793">
        <ele>87.62</ele>
        <time>2014-01-08T11:24:05Z</time>
      </trkpt>
      <trkpt lat="48.5445" lon="2.2078">
        <ele>87.62</ele>
        <time>2014-01-08T11:24:23Z</time>
      </trkpt>
      <trkpt lat="48.54433" lon="2.20765">
        <ele>89.06</ele>
        <time>2014-01-08T11:24:41Z</time>
      </trkpt>
      <trkpt lat="48.54427" lon="2.20744">
        <ele>88.58</ele>
        <time>2014-01-08T11:24:58Z</time>
      </trkpt>
      <trkpt lat="48.54428" lon="2.20741">
        <ele>88.58</ele>
        <time>2014-01-08T11:25:18Z</time>
      </trkpt>
      <trkpt lat="48.5443" lon="2.20736">
        <ele>89.06</ele>
        <time>2014-01-08T11:25:34Z</time>
      </trkpt>
      <trkpt lat="48.5443" lon="2.20737">
        <ele>89.06</ele>
        <time>2014-01-08T11:25:56Z</time>
      </trkpt>
      <trkpt lat="48.54432" lon="2.20733">
        <ele>89.54</ele>
        <time>2014-01-08T11:26:11Z</time>
      </trkpt>
      <trkpt lat="48.54447" lon="2.20703">
        <ele>90.02</ele>
        <time>2014-01-08T11:26:32Z</time>
      </trkpt>
      <trkpt lat="48.54449" lon="2.20701">
        <ele>90.5</ele>
        <time>2014-01-08T11:26:44Z</time>
      </trkpt>
      <trkpt lat="48.54451" lon="2.20702">
        <ele>90.98</ele>
        <time>2014-01-08T11:26:59Z</time>
      </trkpt>
      <trkpt lat="48.54463" lon="2.20684">
        <ele>89.54</ele>
        <time>2014-01-08T11:27:14Z</time>
      </trkpt>
      <trkpt lat="48.54473" lon="2.20669">
        <ele>90.02</ele>
        <time>2014-01-08T11:27:27Z</time>
      </trkpt>
      <trkpt lat="48.54489" lon="2.20649">
        <ele>92.42</ele>
        <time>2014-01-08T11:27:45Z</time>
      </trkpt>
      <trkpt lat="48.54505" lon="2.20624">
        <ele>91.46</ele>
        <time>2014-01-08T11:28:04Z</time>
      </trkpt>
      <trkpt lat="48.5452" lon="2.20605">
        <ele>91.94</ele>
        <time>2014-01-08T11:28:20Z</time>
      </trkpt>
      <trkpt lat="48.54533" lon="2.20583">
        <ele>89.54</ele>
        <time>2014-01-08T11:28:36Z</time>
      </trkpt>
      <trkpt lat="48.54549" lon="2.20566">
        <ele>88.1</ele>
        <time>2014-01-08T11:28:54Z</time>
      </trkpt>
      <trkpt lat="48.54554" lon="2.20549">
        <ele>88.1</ele>
        <time>2014-01-08T11:29:07Z</time>
      </trkpt>
      <trkpt lat="48.54565" lon="2.2053">
        <ele>90.02</ele>
        <time>2014-01-08T11:29:22Z</time>
      </trkpt>
      <trkpt lat="48.5458" lon="2.20512">
        <ele>91.94</ele>
        <time>2014-01-08T11:29:39Z</time>
      </trkpt>
      <trkpt lat="48.54592" lon="2.20496">
        <ele>94.83</ele>
        <time>2014-01-08T11:29:56Z</time>
      </trkpt>
      <trkpt lat="48.54606" lon="2.20478">
        <ele>95.31</ele>
        <time>2014-01-08T11:30:12Z</time>
      </trkpt>
      <trkpt lat="48.54616" lon="2.20461">
        <ele>95.79</ele>
        <time>2014-01-08T11:30:26Z</time>
      </trkpt>
      <trkpt lat="48.54626" lon="2.20446">
        <ele>94.83</ele>
        <time>2014-01-08T11:30:39Z</time>
      </trkpt>
      <trkpt lat="48.54635" lon="2.20448">
        <ele>92.9</ele>
        <time>2014-01-08T11:30:53Z</time>
      </trkpt>
      <trkpt lat="48.54636" lon="2.20449">
        <ele>91.46</ele>
        <time>2014-01-08T11:31:10Z</time>
      </trkpt>
      <trkpt lat="48.54647" lon="2.20432">
        <ele>85.21</ele>
        <time>2014-01-08T11:31:23Z</time>
      </trkpt>
      <trkpt lat="48.54651" lon="2.20406">
        <ele>84.25</ele>
        <time>2014-01-08T11:31:37Z</time>
      </trkpt>
      <trkpt lat="48.54658" lon="2.20377">
        <ele>84.73</ele>
        <time>2014-01-08T11:31:52Z</time>
      </trkpt>
      <trkpt lat="48.54666" lon="2.20343">
        <ele>86.66</ele>
        <time>2014-01-08T11:32:10Z</time>
      </trkpt>
      <trkpt lat="48.54672" lon="2.20317">
        <ele>87.14</ele>
        <time>2014-01-08T11:32:25Z</time>
      </trkpt>
      <trkpt lat="48.54683" lon="2.20289">
        <ele>90.02</ele>
        <time>2014-01-08T11:32:41Z</time>
      </trkpt>
      <trkpt lat="48.54698" lon="2.2027">
        <ele>94.35</ele>
        <time>2014-01-08T11:32:57Z</time>
      </trkpt>
      <trkpt lat="48.54714" lon="2.20253">
        <ele>94.83</ele>
        <time>2014-01-08T11:33:15Z</time>
      </trkpt>
      <trkpt lat="48.54729" lon="2.20236">
        <ele>93.87</ele>
        <time>2014-01-08T11:33:31Z</time>
      </trkpt>
      <trkpt lat="48.54745" lon="2.20223">
        <ele>90.98</ele>
        <time>2014-01-08T11:33:48Z</time>
      </trkpt>
      <trkpt lat="48.5476" lon="2.20209">
        <ele>91.94</ele>
        <time>2014-01-08T11:34:02Z</time>
      </trkpt>
      <trkpt lat="48.54775" lon="2.20192">
        <ele>94.35</ele>
        <time>2014-01-08T11:34:19Z</time>
      </trkpt>
      <trkpt lat="48.54792" lon="2.20177">
        <ele>97.23</ele>
        <time>2014-01-08T11:34:35Z</time>
      </trkpt>
      <trkpt lat="48.54782" lon="2.20164">
        <ele>97.23</ele>
        <time>2014-01-08T11:34:46Z</time>
      </trkpt>
      <trkpt lat="48.54767" lon="2.20157">
        <ele>96.75</ele>
        <time>2014-01-08T11:35:02Z</time>
      </trkpt>
      <trkpt lat="48.54752" lon="2.20146">
        <ele>96.27</ele>
        <time>2014-01-08T11:35:17Z</time>
      </trkpt>
      <trkpt lat="48.54731" lon="2.20126">
        <ele>94.35</ele>
        <time>2014-01-08T11:35:39Z</time>
      </trkpt>
      <trkpt lat="48.54716" lon="2.20111">
        <ele>94.83</ele>
        <time>2014-01-08T11:35:56Z</time>
      </trkpt>
      <trkpt lat="48.54704" lon="2.20097">
        <ele>95.79</ele>
        <time>2014-01-08T11:36:10Z</time>
      </trkpt>
      <trkpt lat="48.54699" lon="2.20094">
        <ele>96.27</ele>
        <time>2014-01-08T11:36:15Z</time>
      </trkpt>
      <trkpt lat="48.54684" lon="2.20082">
        <ele>97.23</ele>
        <time>2014-01-08T11:36:32Z</time>
      </trkpt>
      <trkpt lat="48.54668" lon="2.20069">
        <ele>97.71</ele>
        <time>2014-01-08T11:36:47Z</time>
      </trkpt>
      <trkpt lat="48.5466" lon="2.20064">
        <ele>97.23</ele>
        <time>2014-01-08T11:36:55Z</time>
      </trkpt>
      <trkpt lat="48.54646" lon="2.20051">
        <ele>97.71</ele>
        <time>2014-01-08T11:37:09Z</time>
      </trkpt>
      <trkpt lat="48.54645" lon="2.20049">
        <ele>97.23</ele>
        <time>2014-01-08T11:37:11Z</time>
      </trkpt>
      <trkpt lat="48.54636" lon="2.2004">
        <ele>95.79</ele>
        <time>2014-01-08T11:37:21Z</time>
      </trkpt>
      <trkpt lat="48.54623" lon="2.20029">
        <ele>94.35</ele>
        <time>2014-01-08T11:37:38Z</time>
      </trkpt>
      <trkpt lat="48.54613" lon="2.20019">
        <ele>92.42</ele>
        <time>2014-01-08T11:37:51Z</time>
      </trkpt>
      <trkpt lat="48.54594" lon="2.20004">
        <ele>97.71</ele>
        <time>2014-01-08T11:38:06Z</time>
      </trkpt>
      <trkpt lat="48.54581" lon="2.19991">
        <ele>98.67</ele>
        <time>2014-01-08T11:38:19Z</time>
      </trkpt>
      <trkpt lat="48.54573" lon="2.19983">
        <ele>99.63</ele>
        <time>2014-01-08T11:38:28Z</time>
      </trkpt>
      <trkpt lat="48.54557" lon="2.1997">
        <ele>101.08</ele>
        <time>2014-01-08T11:38:44Z</time>
      </trkpt>
      <trkpt lat="48.54553" lon="2.19968">
        <ele>100.6</ele>
        <time>2014-01-08T11:38:48Z</time>
      </trkpt>
      <trkpt lat="48.54549" lon="2.19962">
        <ele>99.63</ele>
        <time>2014-01-08T11:38:54Z</time>
      </trkpt>
      <trkpt lat="48.5454" lon="2.19954">
        <ele>97.23</ele>
        <time>2014-01-08T11:39:09Z</time>
      </trkpt>
      <trkpt lat="48.5453" lon="2.19938">
        <ele>93.87</ele>
        <time>2014-01-08T11:39:25Z</time>
      </trkpt>
      <trkpt lat="48.54523" lon="2.19928">
        <ele>92.9</ele>
        <time>2014-01-08T11:39:39Z</time>
      </trkpt>
      <trkpt lat="48.54511" lon="2.19918">
        <ele>92.9</ele>
        <time>2014-01-08T11:39:55Z</time>
      </trkpt>
      <trkpt lat="48.54499" lon="2.19904">
        <ele>96.75</ele>
        <time>2014-01-08T11:40:11Z</time>
      </trkpt>
      <trkpt lat="48.54486" lon="2.19893">
        <ele>97.71</ele>
        <time>2014-01-08T11:40:25Z</time>
      </trkpt>
      <trkpt lat="48.54474" lon="2.1988">
        <ele>99.63</ele>
        <time>2014-01-08T11:40:40Z</time>
      </trkpt>
      <trkpt lat="48.54464" lon="2.19871">
        <ele>101.08</ele>
        <time>2014-01-08T11:40:53Z</time>
      </trkpt>
      <trkpt lat="48.54454" lon="2.19859">
        <ele>101.08</ele>
        <time>2014-01-08T11:41:09Z</time>
      </trkpt>
      <trkpt lat="48.54447" lon="2.19853">
        <ele>102.04</ele>
        <time>2014-01-08T11:41:22Z</time>
      </trkpt>
      <trkpt lat="48.54442" lon="2.19849">
        <ele>102.52</ele>
        <time>2014-01-08T11:41:38Z</time>
      </trkpt>
      <trkpt lat="48.54436" lon="2.19844">
        <ele>103.96</ele>
        <time>2014-01-08T11:41:55Z</time>
      </trkpt>
      <trkpt lat="48.54428" lon="2.1983">
        <ele>105.4</ele>
        <time>2014-01-08T11:42:12Z</time>
      </trkpt>
      <trkpt lat="48.54417" lon="2.19816">
        <ele>108.29</ele>
        <time>2014-01-08T11:42:27Z</time>
      </trkpt>
      <trkpt lat="48.54401" lon="2.19797">
        <ele>113.57</ele>
        <time>2014-01-08T11:42:45Z</time>
      </trkpt>
      <trkpt lat="48.54396" lon="2.19788">
        <ele>115.98</ele>
        <time>2014-01-08T11:43:03Z</time>
      </trkpt>
      <trkpt lat="48.54389" lon="2.19779">
        <ele>116.94</ele>
        <time>2014-01-08T11:43:20Z</time>
      </trkpt>
      <trkpt lat="48.54375" lon="2.19755">
        <ele>120.3</ele>
        <time>2014-01-08T11:43:38Z</time>
      </trkpt>
      <trkpt lat="48.54365" lon="2.19742">
        <ele>119.82</ele>
        <time>2014-01-08T11:43:57Z</time>
      </trkpt>
      <trkpt lat="48.54353" lon="2.19715">
        <ele>127.03</ele>
        <time>2014-01-08T11:44:13Z</time>
      </trkpt>
      <trkpt lat="48.5435" lon="2.19688">
        <ele>134.24</ele>
        <time>2014-01-08T11:44:29Z</time>
      </trkpt>
      <trkpt lat="48.54353" lon="2.19682">
        <ele>134.24</ele>
        <time>2014-01-08T11:44:50Z</time>
      </trkpt>
      <trkpt lat="48.54352" lon="2.19674">
        <ele>132.32</ele>
        <time>2014-01-08T11:45:07Z</time>
      </trkpt>
      <trkpt lat="48.54351" lon="2.19661">
        <ele>130.4</ele>
        <time>2014-01-08T11:45:25Z</time>
      </trkpt>
      <trkpt lat="48.54346" lon="2.19644">
        <ele>131.84</ele>
        <time>2014-01-08T11:45:45Z</time>
      </trkpt>
      <trkpt lat="48.54337" lon="2.19626">
        <ele>136.64</ele>
        <time>2014-01-08T11:46:04Z</time>
      </trkpt>
      <trkpt lat="48.54324" lon="2.19605">
        <ele>142.89</ele>
        <time>2014-01-08T11:46:21Z</time>
      </trkpt>
      <trkpt lat="48.54316" lon="2.19598">
        <ele>142.89</ele>
        <time>2014-01-08T11:46:35Z</time>
      </trkpt>
      <trkpt lat="48.54314" lon="2.19596">
        <ele>141.45</ele>
        <time>2014-01-08T11:46:56Z</time>
      </trkpt>
      <trkpt lat="48.54314" lon="2.19593">
        <ele>140.97</ele>
        <time>2014-01-08T11:47:23Z</time>
      </trkpt>
      <trkpt lat="48.54313" lon="2.19588">
        <ele>140.49</ele>
        <time>2014-01-08T11:47:41Z</time>
      </trkpt>
      <trkpt lat="48.54312" lon="2.1957">
        <ele>139.05</ele>
        <time>2014-01-08T11:47:54Z</time>
      </trkpt>
      <trkpt lat="48.54312" lon="2.19544">
        <ele>141.45</ele>
        <time>2014-01-08T11:48:09Z</time>
      </trkpt>
      <trkpt lat="48.54317" lon="2.1952">
        <ele>141.93</ele>
        <time>2014-01-08T11:48:26Z</time>
      </trkpt>
      <trkpt lat="48.54321" lon="2.19501">
        <ele>140.97</ele>
        <time>2014-01-08T11:48:41Z</time>
      </trkpt>
      <trkpt lat="48.54332" lon="2.19484">
        <ele>143.37</ele>
        <time>2014-01-08T11:48:56Z</time>
      </trkpt>
      <trkpt lat="48.54341" lon="2.19467">
        <ele>143.85</ele>
        <time>2014-01-08T11:49:12Z</time>
      </trkpt>
      <trkpt lat="48.54333" lon="2.1946">
        <ele>141.93</ele>
        <time>2014-01-08T11:49:28Z</time>
      </trkpt>
      <trkpt lat="48.54328" lon="2.19457">
        <ele>142.41</ele>
        <time>2014-01-08T11:49:45Z</time>
      </trkpt>
      <trkpt lat="48.54325" lon="2.19451">
        <ele>140.49</ele>
        <time>2014-01-08T11:50:02Z</time>
      </trkpt>
      <trkpt lat="48.54318" lon="2.19449">
        <ele>140.97</ele>
        <time>2014-01-08T11:50:18Z</time>
      </trkpt>
      <trkpt lat="48.54304" lon="2.19438">
        <ele>138.57</ele>
        <time>2014-01-08T11:50:35Z</time>
      </trkpt>
      <trkpt lat="48.54297" lon="2.19413">
        <ele>139.05</ele>
        <time>2014-01-08T11:50:51Z</time>
      </trkpt>
      <trkpt lat="48.54291" lon="2.19402">
        <ele>138.57</ele>
        <time>2014-01-08T11:51:06Z</time>
      </trkpt>
      <trkpt lat="48.54275" lon="2.1938">
        <ele>137.61</ele>
        <time>2014-01-08T11:51:24Z</time>
      </trkpt>
      <trkpt lat="48.5427" lon="2.19364">
        <ele>136.16</ele>
        <time>2014-01-08T11:51:38Z</time>
      </trkpt>
      <trkpt lat="48.54268" lon="2.19349">
        <ele>134.72</ele>
        <time>2014-01-08T11:51:53Z</time>
      </trkpt>
      <trkpt lat="48.54264" lon="2.19335">
        <ele>131.84</ele>
        <time>2014-01-08T11:52:11Z</time>
      </trkpt>
      <trkpt lat="48.54257" lon="2.19313">
        <ele>133.28</ele>
        <time>2014-01-08T11:52:25Z</time>
      </trkpt>
      <trkpt lat="48.54248" lon="2.19298">
        <ele>135.2</ele>
        <time>2014-01-08T11:52:39Z</time>
      </trkpt>
      <trkpt lat="48.54235" lon="2.1928">
        <ele>139.53</ele>
        <time>2014-01-08T11:52:53Z</time>
      </trkpt>
      <trkpt lat="48.54228" lon="2.19259">
        <ele>136.16</ele>
        <time>2014-01-08T11:53:07Z</time>
      </trkpt>
      <trkpt lat="48.54219" lon="2.19243">
        <ele>135.2</ele>
        <time>2014-01-08T11:53:22Z</time>
      </trkpt>
      <trkpt lat="48.54212" lon="2.1923">
        <ele>137.13</ele>
        <time>2014-01-08T11:53:36Z</time>
      </trkpt>
      <trkpt lat="48.54202" lon="2.19228">
        <ele>140.01</ele>
        <time>2014-01-08T11:53:50Z</time>
      </trkpt>
      <trkpt lat="48.54194" lon="2.1922">
        <ele>140.49</ele>
        <time>2014-01-08T11:54:04Z</time>
      </trkpt>
      <trkpt lat="48.54191" lon="2.19209">
        <ele>138.57</ele>
        <time>2014-01-08T11:54:21Z</time>
      </trkpt>
      <trkpt lat="48.54189" lon="2.19183">
        <ele>141.93</ele>
        <time>2014-01-08T11:54:34Z</time>
      </trkpt>
      <trkpt lat="48.54196" lon="2.19155">
        <ele>143.37</ele>
        <time>2014-01-08T11:54:51Z</time>
      </trkpt>
      <trkpt lat="48.54198" lon="2.1914">
        <ele>147.22</ele>
        <time>2014-01-08T11:55:08Z</time>
      </trkpt>
      <trkpt lat="48.54194" lon="2.19138">
        <ele>146.26</ele>
        <time>2014-01-08T11:55:22Z</time>
      </trkpt>
      <trkpt lat="48.54192" lon="2.19131">
        <ele>144.82</ele>
        <time>2014-01-08T11:55:38Z</time>
      </trkpt>
      <trkpt lat="48.54182" lon="2.19116">
        <ele>143.85</ele>
        <time>2014-01-08T11:55:53Z</time>
      </trkpt>
      <trkpt lat="48.54175" lon="2.19096">
        <ele>144.34</ele>
        <time>2014-01-08T11:56:09Z</time>
      </trkpt>
      <trkpt lat="48.54167" lon="2.19086">
        <ele>143.37</ele>
        <time>2014-01-08T11:56:26Z</time>
      </trkpt>
      <trkpt lat="48.54165" lon="2.19071">
        <ele>141.93</ele>
        <time>2014-01-08T11:56:40Z</time>
      </trkpt>
      <trkpt lat="48.54162" lon="2.19054">
        <ele>140.97</ele>
        <time>2014-01-08T11:56:54Z</time>
      </trkpt>
      <trkpt lat="48.54146" lon="2.19029">
        <ele>143.85</ele>
        <time>2014-01-08T11:57:12Z</time>
      </trkpt>
      <trkpt lat="48.54137" lon="2.19001">
        <ele>142.89</ele>
        <time>2014-01-08T11:57:29Z</time>
      </trkpt>
      <trkpt lat="48.54133" lon="2.18974">
        <ele>143.37</ele>
        <time>2014-01-08T11:57:47Z</time>
      </trkpt>
      <trkpt lat="48.54123" lon="2.18944">
        <ele>143.37</ele>
        <time>2014-01-08T11:58:06Z</time>
      </trkpt>
      <trkpt lat="48.54115" lon="2.18925">
        <ele>143.37</ele>
        <time>2014-01-08T11:58:22Z</time>
      </trkpt>
      <trkpt lat="48.54108" lon="2.18907">
        <ele>141.93</ele>
        <time>2014-01-08T11:58:39Z</time>
      </trkpt>
      <trkpt lat="48.541" lon="2.18884">
        <ele>140.49</ele>
        <time>2014-01-08T11:58:57Z</time>
      </trkpt>
      <trkpt lat="48.54094" lon="2.18849">
        <ele>142.41</ele>
        <time>2014-01-08T11:59:15Z</time>
      </trkpt>
      <trkpt lat="48.5409" lon="2.18827">
        <ele>140.97</ele>
        <time>2014-01-08T11:59:33Z</time>
      </trkpt>
      <trkpt lat="48.54089" lon="2.18805">
        <ele>141.45</ele>
        <time>2014-01-08T11:59:51Z</time>
      </trkpt>
      <trkpt lat="48.54086" lon="2.18779">
        <ele>140.49</ele>
        <time>2014-01-08T12:00:06Z</time>
      </trkpt>
      <trkpt lat="48.54085" lon="2.18748">
        <ele>140.49</ele>
        <time>2014-01-08T12:00:26Z</time>
      </trkpt>
      <trkpt lat="48.54083" lon="2.18723">
        <ele>140.01</ele>
        <time>2014-01-08T12:00:44Z</time>
      </trkpt>
      <trkpt lat="48.54085" lon="2.18692">
        <ele>139.53</ele>
        <time>2014-01-08T12:01:05Z</time>
      </trkpt>
      <trkpt lat="48.54084" lon="2.18672">
        <ele>139.53</ele>
        <time>2014-01-08T12:01:21Z</time>
      </trkpt>
      <trkpt lat="48.54087" lon="2.18651">
        <ele>138.57</ele>
        <time>2014-01-08T12:01:41Z</time>
      </trkpt>
      <trkpt lat="48.54086" lon="2.18641">
        <ele>137.61</ele>
        <time>2014-01-08T12:02:00Z</time>
      </trkpt>
      <trkpt lat="48.54087" lon="2.18628">
        <ele>135.68</ele>
        <time>2014-01-08T12:02:19Z</time>
      </trkpt>
      <trkpt lat="48.54088" lon="2.18618">
        <ele>134.24</ele>
        <time>2014-01-08T12:02:38Z</time>
      </trkpt>
      <trkpt lat="48.54089" lon="2.18608">
        <ele>131.84</ele>
        <time>2014-01-08T12:03:00Z</time>
      </trkpt>
      <trkpt lat="48.54091" lon="2.1858">
        <ele>127.99</ele>
        <time>2014-01-08T12:03:23Z</time>
      </trkpt>
      <trkpt lat="48.5409" lon="2.18568">
        <ele>126.55</ele>
        <time>2014-01-08T12:03:43Z</time>
      </trkpt>
      <trkpt lat="48.54091" lon="2.18555">
        <ele>123.67</ele>
        <time>2014-01-08T12:03:58Z</time>
      </trkpt>
      <trkpt lat="48.54091" lon="2.18546">
        <ele>120.78</ele>
        <time>2014-01-08T12:04:15Z</time>
      </trkpt>
      <trkpt lat="48.54092" lon="2.18526">
        <ele>116.94</ele>
        <time>2014-01-08T12:04:37Z</time>
      </trkpt>
      <trkpt lat="48.54097" lon="2.18506">
        <ele>110.69</ele>
        <time>2014-01-08T12:04:55Z</time>
      </trkpt>
      <trkpt lat="48.54102" lon="2.18493">
        <ele>107.32</ele>
        <time>2014-01-08T12:05:10Z</time>
      </trkpt>
      <trkpt lat="48.54106" lon="2.18483">
        <ele>105.4</ele>
        <time>2014-01-08T12:05:23Z</time>
      </trkpt>
      <trkpt lat="48.54108" lon="2.18478">
        <ele>106.36</ele>
        <time>2014-01-08T12:05:39Z</time>
      </trkpt>
      <trkpt lat="48.54107" lon="2.18476">
        <ele>105.4</ele>
        <time>2014-01-08T12:05:55Z</time>
      </trkpt>
      <trkpt lat="48.54107" lon="2.18476">
        <ele>104.92</ele>
        <time>2014-01-08T12:06:11Z</time>
      </trkpt>
      <trkpt lat="48.54107" lon="2.18476">
        <ele>104.92</ele>
        <time>2014-01-08T12:06:38Z</time>
      </trkpt>
      <trkpt lat="48.54107" lon="2.18476">
        <ele>104.92</ele>
        <time>2014-01-08T12:07:05Z</time>
      </trkpt>
      <trkpt lat="48.54107" lon="2.18476">
        <ele>104.44</ele>
        <time>2014-01-08T12:07:20Z</time>
      </trkpt>
      <trkpt lat="48.54106" lon="2.18476">
        <ele>104.92</ele>
        <time>2014-01-08T12:07:54Z</time>
      </trkpt>
      <trkpt lat="48.54106" lon="2.18475">
        <ele>104.44</ele>
        <time>2014-01-08T12:08:26Z</time>
      </trkpt>
      <trkpt lat="48.54107" lon="2.18475">
        <ele>104.92</ele>
        <time>2014-01-08T12:08:57Z</time>
      </trkpt>
      <trkpt lat="48.54107" lon="2.18475">
        <ele>105.88</ele>
        <time>2014-01-08T12:09:25Z</time>
      </trkpt>
      <trkpt lat="48.54106" lon="2.18476">
        <ele>107.81</ele>
        <time>2014-01-08T12:10:07Z</time>
      </trkpt>
      <trkpt lat="48.54107" lon="2.18476">
        <ele>107.81</ele>
        <time>2014-01-08T12:10:37Z</time>
      </trkpt>
      <trkpt lat="48.54107" lon="2.18476">
        <ele>108.77</ele>
        <time>2014-01-08T12:11:10Z</time>
      </trkpt>
      <trkpt lat="48.54108" lon="2.18476">
        <ele>107.81</ele>
        <time>2014-01-08T12:11:41Z</time>
      </trkpt>
      <trkpt lat="48.54109" lon="2.18475">
        <ele>107.32</ele>
        <time>2014-01-08T12:12:13Z</time>
      </trkpt>
      <trkpt lat="48.54109" lon="2.18476">
        <ele>106.84</ele>
        <time>2014-01-08T12:12:41Z</time>
      </trkpt>
      <trkpt lat="48.54109" lon="2.18477">
        <ele>105.4</ele>
        <time>2014-01-08T12:13:10Z</time>
      </trkpt>
      <trkpt lat="48.54108" lon="2.18477">
        <ele>105.4</ele>
        <time>2014-01-08T12:13:41Z</time>
      </trkpt>
      <trkpt lat="48.54109" lon="2.18477">
        <ele>103.96</ele>
        <time>2014-01-08T12:14:13Z</time>
      </trkpt>
      <trkpt lat="48.54108" lon="2.18476">
        <ele>103.96</ele>
        <time>2014-01-08T12:14:54Z</time>
      </trkpt>
      <trkpt lat="48.54107" lon="2.18475">
        <ele>103.96</ele>
        <time>2014-01-08T12:15:25Z</time>
      </trkpt>
      <trkpt lat="48.54107" lon="2.18475">
        <ele>104.44</ele>
        <time>2014-01-08T12:16:00Z</time>
      </trkpt>
      <trkpt lat="48.54107" lon="2.18475">
        <ele>104.44</ele>
        <time>2014-01-08T12:16:30Z</time>
      </trkpt>
      <trkpt lat="48.54107" lon="2.18474">
        <ele>103.96</ele>
        <time>2014-01-08T12:16:56Z</time>
      </trkpt>
      <trkpt lat="48.54107" lon="2.18475">
        <ele>103.48</ele>
        <time>2014-01-08T12:17:30Z</time>
      </trkpt>
      <trkpt lat="48.54107" lon="2.18475">
        <ele>103</ele>
        <time>2014-01-08T12:17:55Z</time>
      </trkpt>
      <trkpt lat="48.54106" lon="2.18475">
        <ele>103</ele>
        <time>2014-01-08T12:18:31Z</time>
      </trkpt>
      <trkpt lat="48.54106" lon="2.18474">
        <ele>103.96</ele>
        <time>2014-01-08T12:19:01Z</time>
      </trkpt>
      <trkpt lat="48.54106" lon="2.18475">
        <ele>103.96</ele>
        <time>2014-01-08T12:19:31Z</time>
      </trkpt>
      <trkpt lat="48.54106" lon="2.18474">
        <ele>105.4</ele>
        <time>2014-01-08T12:19:54Z</time>
      </trkpt>
      <trkpt lat="48.54105" lon="2.18474">
        <ele>104.92</ele>
        <time>2014-01-08T12:20:27Z</time>
      </trkpt>
      <trkpt lat="48.54104" lon="2.18472">
        <ele>104.92</ele>
        <time>2014-01-08T12:20:51Z</time>
      </trkpt>
      <trkpt lat="48.54104" lon="2.18472">
        <ele>104.44</ele>
        <time>2014-01-08T12:21:24Z</time>
      </trkpt>
      <trkpt lat="48.54105" lon="2.18475">
        <ele>104.44</ele>
        <time>2014-01-08T12:21:46Z</time>
      </trkpt>
      <trkpt lat="48.54105" lon="2.18474">
        <ele>104.44</ele>
        <time>2014-01-08T12:22:20Z</time>
      </trkpt>
      <trkpt lat="48.54105" lon="2.18474">
        <ele>104.44</ele>
        <time>2014-01-08T12:22:43Z</time>
      </trkpt>
      <trkpt lat="48.54105" lon="2.18473">
        <ele>104.44</ele>
        <time>2014-01-08T12:23:04Z</time>
      </trkpt>
      <trkpt lat="48.54106" lon="2.18474">
        <ele>104.44</ele>
        <time>2014-01-08T12:23:40Z</time>
      </trkpt>
      <trkpt lat="48.54105" lon="2.18474">
        <ele>104.92</ele>
        <time>2014-01-08T12:24:16Z</time>
      </trkpt>
      <trkpt lat="48.54105" lon="2.18474">
        <ele>104.92</ele>
        <time>2014-01-08T12:24:51Z</time>
      </trkpt>
      <trkpt lat="48.54105" lon="2.18475">
        <ele>104.44</ele>
        <time>2014-01-08T12:25:22Z</time>
      </trkpt>
      <trkpt lat="48.54104" lon="2.18475">
        <ele>104.44</ele>
        <time>2014-01-08T12:25:58Z</time>
      </trkpt>
      <trkpt lat="48.54105" lon="2.18476">
        <ele>103.96</ele>
        <time>2014-01-08T12:26:21Z</time>
      </trkpt>
      <trkpt lat="48.54105" lon="2.18476">
        <ele>104.44</ele>
        <time>2014-01-08T12:26:53Z</time>
      </trkpt>
      <trkpt lat="48.54106" lon="2.18477">
        <ele>104.44</ele>
        <time>2014-01-08T12:27:34Z</time>
      </trkpt>
      <trkpt lat="48.54106" lon="2.18478">
        <ele>104.44</ele>
        <time>2014-01-08T12:28:01Z</time>
      </trkpt>
      <trkpt lat="48.54106" lon="2.18477">
        <ele>103.96</ele>
        <time>2014-01-08T12:28:36Z</time>
      </trkpt>
      <trkpt lat="48.54106" lon="2.18475">
        <ele>104.44</ele>
        <time>2014-01-08T12:29:09Z</time>
      </trkpt>
      <trkpt lat="48.54106" lon="2.18474">
        <ele>105.88</ele>
        <time>2014-01-08T12:29:47Z</time>
      </trkpt>
      <trkpt lat="48.54105" lon="2.18474">
        <ele>105.88</ele>
        <time>2014-01-08T12:30:15Z</time>
      </trkpt>
      <trkpt lat="48.54105" lon="2.18474">
        <ele>105.88</ele>
        <time>2014-01-08T12:30:49Z</time>
      </trkpt>
      <trkpt lat="48.54105" lon="2.18475">
        <ele>105.88</ele>
        <time>2014-01-08T12:31:17Z</time>
      </trkpt>
      <trkpt lat="48.54106" lon="2.18476">
        <ele>106.36</ele>
        <time>2014-01-08T12:31:47Z</time>
      </trkpt>
      <trkpt lat="48.54105" lon="2.18475">
        <ele>106.84</ele>
        <time>2014-01-08T12:32:25Z</time>
      </trkpt>
      <trkpt lat="48.54105" lon="2.18475">
        <ele>106.36</ele>
        <time>2014-01-08T12:32:53Z</time>
      </trkpt>
      <trkpt lat="48.54106" lon="2.18474">
        <ele>106.36</ele>
        <time>2014-01-08T12:33:27Z</time>
      </trkpt>
      <trkpt lat="48.54105" lon="2.18475">
        <ele>106.36</ele>
        <time>2014-01-08T12:34:00Z</time>
      </trkpt>
      <trkpt lat="48.54105" lon="2.18474">
        <ele>105.88</ele>
        <time>2014-01-08T12:34:30Z</time>
      </trkpt>
      <trkpt lat="48.54105" lon="2.18474">
        <ele>105.4</ele>
        <time>2014-01-08T12:35:03Z</time>
      </trkpt>
      <trkpt lat="48.54105" lon="2.18474">
        <ele>104.92</ele>
        <time>2014-01-08T12:35:38Z</time>
      </trkpt>
      <trkpt lat="48.54105" lon="2.18474">
        <ele>105.4</ele>
        <time>2014-01-08T12:36:18Z</time>
      </trkpt>
      <trkpt lat="48.54106" lon="2.18475">
        <ele>104.92</ele>
        <time>2014-01-08T12:36:43Z</time>
      </trkpt>
      <trkpt lat="48.54106" lon="2.18475">
        <ele>105.4</ele>
        <time>2014-01-08T12:37:27Z</time>
      </trkpt>
      <trkpt lat="48.54106" lon="2.18475">
        <ele>104.92</ele>
        <time>2014-01-08T12:38:05Z</time>
      </trkpt>
      <trkpt lat="48.54106" lon="2.18475">
        <ele>104.92</ele>
        <time>2014-01-08T12:38:23Z</time>
      </trkpt>
      <trkpt lat="48.54106" lon="2.18474">
        <ele>104.92</ele>
        <time>2014-01-08T12:38:55Z</time>
      </trkpt>
      <trkpt lat="48.54106" lon="2.18475">
        <ele>104.44</ele>
        <time>2014-01-08T12:39:17Z</time>
      </trkpt>
      <trkpt lat="48.54107" lon="2.18474">
        <ele>104.44</ele>
        <time>2014-01-08T12:39:43Z</time>
      </trkpt>
      <trkpt lat="48.54106" lon="2.18474">
        <ele>104.44</ele>
        <time>2014-01-08T12:40:07Z</time>
      </trkpt>
      <trkpt lat="48.54106" lon="2.18473">
        <ele>104.44</ele>
        <time>2014-01-08T12:40:37Z</time>
      </trkpt>
      <trkpt lat="48.54106" lon="2.18473">
        <ele>104.92</ele>
        <time>2014-01-08T12:41:12Z</time>
      </trkpt>
      <trkpt lat="48.54106" lon="2.18473">
        <ele>105.4</ele>
        <time>2014-01-08T12:41:47Z</time>
      </trkpt>
      <trkpt lat="48.54106" lon="2.18474">
        <ele>105.88</ele>
        <time>2014-01-08T12:42:18Z</time>
      </trkpt>
      <trkpt lat="48.54106" lon="2.18474">
        <ele>105.88</ele>
        <time>2014-01-08T12:42:47Z</time>
      </trkpt>
      <trkpt lat="48.54106" lon="2.18474">
        <ele>105.88</ele>
        <time>2014-01-08T12:43:09Z</time>
      </trkpt>
      <trkpt lat="48.54106" lon="2.18474">
        <ele>106.36</ele>
        <time>2014-01-08T12:43:44Z</time>
      </trkpt>
      <trkpt lat="48.54106" lon="2.18474">
        <ele>106.36</ele>
        <time>2014-01-08T12:44:08Z</time>
      </trkpt>
      <trkpt lat="48.54105" lon="2.18473">
        <ele>106.36</ele>
        <time>2014-01-08T12:44:21Z</time>
      </trkpt>
      <trkpt lat="48.54104" lon="2.18473">
        <ele>106.36</ele>
        <time>2014-01-08T12:44:42Z</time>
      </trkpt>
      <trkpt lat="48.54104" lon="2.18473">
        <ele>106.36</ele>
        <time>2014-01-08T12:44:46Z</time>
      </trkpt>
      <trkpt lat="48.54105" lon="2.18473">
        <ele>105.88</ele>
        <time>2014-01-08T12:44:55Z</time>
      </trkpt>
      <trkpt lat="48.54105" lon="2.18475">
        <ele>105.88</ele>
        <time>2014-01-08T12:45:21Z</time>
      </trkpt>
      <trkpt lat="48.54105" lon="2.18475">
        <ele>105.88</ele>
        <time>2014-01-08T12:45:42Z</time>
      </trkpt>
      <trkpt lat="48.54105" lon="2.18475">
        <ele>105.4</ele>
        <time>2014-01-08T12:46:10Z</time>
      </trkpt>
      <trkpt lat="48.54108" lon="2.18471">
        <ele>103.96</ele>
        <time>2014-01-08T12:46:31Z</time>
      </trkpt>
      <trkpt lat="48.54109" lon="2.18452">
        <ele>101.56</ele>
        <time>2014-01-08T12:46:47Z</time>
      </trkpt>
      <trkpt lat="48.54109" lon="2.18451">
        <ele>101.56</ele>
        <time>2014-01-08T12:46:48Z</time>
      </trkpt>
      <trkpt lat="48.54109" lon="2.18445">
        <ele>100.6</ele>
        <time>2014-01-08T12:46:53Z</time>
      </trkpt>
      <trkpt lat="48.54109" lon="2.18421">
        <ele>97.23</ele>
        <time>2014-01-08T12:47:10Z</time>
      </trkpt>
      <trkpt lat="48.54108" lon="2.18411">
        <ele>94.35</ele>
        <time>2014-01-08T12:47:19Z</time>
      </trkpt>
      <trkpt lat="48.54109" lon="2.18399">
        <ele>92.9</ele>
        <time>2014-01-08T12:47:27Z</time>
      </trkpt>
      <trkpt lat="48.54109" lon="2.18369">
        <ele>89.54</ele>
        <time>2014-01-08T12:47:46Z</time>
      </trkpt>
      <trkpt lat="48.5411" lon="2.18339">
        <ele>87.62</ele>
        <time>2014-01-08T12:48:05Z</time>
      </trkpt>
      <trkpt lat="48.54109" lon="2.18315">
        <ele>85.21</ele>
        <time>2014-01-08T12:48:22Z</time>
      </trkpt>
      <trkpt lat="48.54109" lon="2.18293">
        <ele>83.29</ele>
        <time>2014-01-08T12:48:35Z</time>
      </trkpt>
      <trkpt lat="48.54107" lon="2.18271">
        <ele>81.37</ele>
        <time>2014-01-08T12:48:50Z</time>
      </trkpt>
      <trkpt lat="48.54105" lon="2.18252">
        <ele>78.48</ele>
        <time>2014-01-08T12:49:03Z</time>
      </trkpt>
      <trkpt lat="48.54104" lon="2.18221">
        <ele>76.56</ele>
        <time>2014-01-08T12:49:21Z</time>
      </trkpt>
      <trkpt lat="48.54103" lon="2.18196">
        <ele>76.56</ele>
        <time>2014-01-08T12:49:37Z</time>
      </trkpt>
      <trkpt lat="48.54101" lon="2.18164">
        <ele>75.6</ele>
        <time>2014-01-08T12:49:55Z</time>
      </trkpt>
      <trkpt lat="48.54101" lon="2.18141">
        <ele>72.24</ele>
        <time>2014-01-08T12:50:11Z</time>
      </trkpt>
      <trkpt lat="48.54099" lon="2.18115">
        <ele>73.2</ele>
        <time>2014-01-08T12:50:28Z</time>
      </trkpt>
      <trkpt lat="48.541" lon="2.18113">
        <ele>73.2</ele>
        <time>2014-01-08T12:50:29Z</time>
      </trkpt>
      <trkpt lat="48.54113" lon="2.18085">
        <ele>73.68</ele>
        <time>2014-01-08T12:50:49Z</time>
      </trkpt>
      <trkpt lat="48.54125" lon="2.18064">
        <ele>76.08</ele>
        <time>2014-01-08T12:51:05Z</time>
      </trkpt>
      <trkpt lat="48.54129" lon="2.1804">
        <ele>78</ele>
        <time>2014-01-08T12:51:20Z</time>
      </trkpt>
      <trkpt lat="48.54138" lon="2.1801">
        <ele>81.37</ele>
        <time>2014-01-08T12:51:39Z</time>
      </trkpt>
      <trkpt lat="48.54139" lon="2.17987">
        <ele>82.33</ele>
        <time>2014-01-08T12:51:54Z</time>
      </trkpt>
      <trkpt lat="48.54147" lon="2.17969">
        <ele>82.33</ele>
        <time>2014-01-08T12:52:08Z</time>
      </trkpt>
      <trkpt lat="48.5415" lon="2.17953">
        <ele>82.81</ele>
        <time>2014-01-08T12:52:19Z</time>
      </trkpt>
      <trkpt lat="48.54138" lon="2.17935">
        <ele>84.73</ele>
        <time>2014-01-08T12:52:32Z</time>
      </trkpt>
      <trkpt lat="48.54137" lon="2.17927">
        <ele>83.29</ele>
        <time>2014-01-08T12:52:37Z</time>
      </trkpt>
      <trkpt lat="48.54135" lon="2.17918">
        <ele>81.37</ele>
        <time>2014-01-08T12:52:42Z</time>
      </trkpt>
      <trkpt lat="48.54132" lon="2.17901">
        <ele>76.56</ele>
        <time>2014-01-08T12:52:56Z</time>
      </trkpt>
      <trkpt lat="48.5412" lon="2.17888">
        <ele>74.16</ele>
        <time>2014-01-08T12:53:10Z</time>
      </trkpt>
      <trkpt lat="48.5412" lon="2.17885">
        <ele>72.72</ele>
        <time>2014-01-08T12:53:22Z</time>
      </trkpt>
      <trkpt lat="48.5413" lon="2.17888">
        <ele>71.76</ele>
        <time>2014-01-08T12:53:46Z</time>
      </trkpt>
      <trkpt lat="48.54135" lon="2.17889">
        <ele>72.24</ele>
        <time>2014-01-08T12:54:09Z</time>
      </trkpt>
      <trkpt lat="48.5414" lon="2.179">
        <ele>70.31</ele>
        <time>2014-01-08T12:54:32Z</time>
      </trkpt>
      <trkpt lat="48.54145" lon="2.17891">
        <ele>67.43</ele>
        <time>2014-01-08T12:55:15Z</time>
      </trkpt>
      <trkpt lat="48.5415" lon="2.1788">
        <ele>67.43</ele>
        <time>2014-01-08T12:55:45Z</time>
      </trkpt>
      <trkpt lat="48.54146" lon="2.17906">
        <ele>67.91</ele>
        <time>2014-01-08T12:56:27Z</time>
      </trkpt>
      <trkpt lat="48.54139" lon="2.17906">
        <ele>75.12</ele>
        <time>2014-01-08T12:56:54Z</time>
      </trkpt>
      <trkpt lat="48.54135" lon="2.17904">
        <ele>75.12</ele>
        <time>2014-01-08T12:57:11Z</time>
      </trkpt>
      <trkpt lat="48.54132" lon="2.17913">
        <ele>74.64</ele>
        <time>2014-01-08T12:57:24Z</time>
      </trkpt>
      <trkpt lat="48.54119" lon="2.17922">
        <ele>71.76</ele>
        <time>2014-01-08T12:57:45Z</time>
      </trkpt>
      <trkpt lat="48.54138" lon="2.17916">
        <ele>70.79</ele>
        <time>2014-01-08T12:57:59Z</time>
      </trkpt>
      <trkpt lat="48.54141" lon="2.17912">
        <ele>71.76</ele>
        <time>2014-01-08T12:58:19Z</time>
      </trkpt>
      <trkpt lat="48.54143" lon="2.17913">
        <ele>72.72</ele>
        <time>2014-01-08T12:58:43Z</time>
      </trkpt>
      <trkpt lat="48.54134" lon="2.179">
        <ele>78.48</ele>
        <time>2014-01-08T12:59:03Z</time>
      </trkpt>
      <trkpt lat="48.54137" lon="2.17903">
        <ele>77.52</ele>
        <time>2014-01-08T12:59:28Z</time>
      </trkpt>
      <trkpt lat="48.54126" lon="2.17894">
        <ele>78.48</ele>
        <time>2014-01-08T12:59:48Z</time>
      </trkpt>
      <trkpt lat="48.54122" lon="2.17894">
        <ele>78.48</ele>
        <time>2014-01-08T13:00:11Z</time>
      </trkpt>
      <trkpt lat="48.54117" lon="2.17894">
        <ele>75.12</ele>
        <time>2014-01-08T13:00:35Z</time>
      </trkpt>
      <trkpt lat="48.54121" lon="2.17889">
        <ele>75.6</ele>
        <time>2014-01-08T13:01:02Z</time>
      </trkpt>
      <trkpt lat="48.54117" lon="2.1789">
        <ele>70.31</ele>
        <time>2014-01-08T13:01:22Z</time>
      </trkpt>
      <trkpt lat="48.54117" lon="2.17881">
        <ele>74.64</ele>
        <time>2014-01-08T13:01:37Z</time>
      </trkpt>
      <trkpt lat="48.54115" lon="2.17867">
        <ele>77.52</ele>
        <time>2014-01-08T13:01:52Z</time>
      </trkpt>
      <trkpt lat="48.54114" lon="2.17869">
        <ele>79.45</ele>
        <time>2014-01-08T13:02:08Z</time>
      </trkpt>
      <trkpt lat="48.54118" lon="2.17867">
        <ele>78.97</ele>
        <time>2014-01-08T13:02:22Z</time>
      </trkpt>
      <trkpt lat="48.54119" lon="2.17868">
        <ele>80.41</ele>
        <time>2014-01-08T13:02:37Z</time>
      </trkpt>
      <trkpt lat="48.5412" lon="2.17866">
        <ele>80.89</ele>
        <time>2014-01-08T13:02:59Z</time>
      </trkpt>
      <trkpt lat="48.54121" lon="2.17855">
        <ele>80.41</ele>
        <time>2014-01-08T13:03:13Z</time>
      </trkpt>
      <trkpt lat="48.54123" lon="2.17842">
        <ele>80.89</ele>
        <time>2014-01-08T13:03:29Z</time>
      </trkpt>
      <trkpt lat="48.54125" lon="2.17844">
        <ele>81.85</ele>
        <time>2014-01-08T13:03:44Z</time>
      </trkpt>
      <trkpt lat="48.54125" lon="2.17843">
        <ele>81.85</ele>
        <time>2014-01-08T13:04:00Z</time>
      </trkpt>
      <trkpt lat="48.54128" lon="2.17845">
        <ele>82.33</ele>
        <time>2014-01-08T13:04:21Z</time>
      </trkpt>
      <trkpt lat="48.54137" lon="2.17852">
        <ele>83.77</ele>
        <time>2014-01-08T13:04:36Z</time>
      </trkpt>
      <trkpt lat="48.54145" lon="2.17851">
        <ele>82.81</ele>
        <time>2014-01-08T13:04:48Z</time>
      </trkpt>
      <trkpt lat="48.5415" lon="2.17853">
        <ele>81.37</ele>
        <time>2014-01-08T13:05:08Z</time>
      </trkpt>
      <trkpt lat="48.5415" lon="2.17854">
        <ele>81.37</ele>
        <time>2014-01-08T13:05:14Z</time>
      </trkpt>
      <trkpt lat="48.54156" lon="2.17859">
        <ele>78.97</ele>
        <time>2014-01-08T13:05:26Z</time>
      </trkpt>
      <trkpt lat="48.54161" lon="2.17872">
        <ele>74.64</ele>
        <time>2014-01-08T13:05:40Z</time>
      </trkpt>
      <trkpt lat="48.54162" lon="2.17888">
        <ele>72.24</ele>
        <time>2014-01-08T13:05:53Z</time>
      </trkpt>
      <trkpt lat="48.54171" lon="2.17902">
        <ele>74.64</ele>
        <time>2014-01-08T13:06:07Z</time>
      </trkpt>
      <trkpt lat="48.54178" lon="2.17908">
        <ele>75.6</ele>
        <time>2014-01-08T13:06:20Z</time>
      </trkpt>
      <trkpt lat="48.54189" lon="2.17916">
        <ele>76.56</ele>
        <time>2014-01-08T13:06:36Z</time>
      </trkpt>
      <trkpt lat="48.54208" lon="2.17926">
        <ele>74.64</ele>
        <time>2014-01-08T13:06:51Z</time>
      </trkpt>
      <trkpt lat="48.54221" lon="2.17936">
        <ele>72.72</ele>
        <time>2014-01-08T13:07:08Z</time>
      </trkpt>
      <trkpt lat="48.5423" lon="2.17942">
        <ele>73.2</ele>
        <time>2014-01-08T13:07:23Z</time>
      </trkpt>
      <trkpt lat="48.54234" lon="2.17944">
        <ele>73.2</ele>
        <time>2014-01-08T13:07:26Z</time>
      </trkpt>
      <trkpt lat="48.54251" lon="2.17954">
        <ele>78.97</ele>
        <time>2014-01-08T13:07:41Z</time>
      </trkpt>
      <trkpt lat="48.54257" lon="2.17964">
        <ele>81.37</ele>
        <time>2014-01-08T13:07:55Z</time>
      </trkpt>
      <trkpt lat="48.54273" lon="2.17979">
        <ele>80.89</ele>
        <time>2014-01-08T13:08:09Z</time>
      </trkpt>
      <trkpt lat="48.54293" lon="2.17997">
        <ele>81.37</ele>
        <time>2014-01-08T13:08:26Z</time>
      </trkpt>
      <trkpt lat="48.54303" lon="2.18009">
        <ele>79.45</ele>
        <time>2014-01-08T13:08:40Z</time>
      </trkpt>
      <trkpt lat="48.54323" lon="2.18033">
        <ele>77.04</ele>
        <time>2014-01-08T13:08:59Z</time>
      </trkpt>
      <trkpt lat="48.54345" lon="2.18052">
        <ele>76.56</ele>
        <time>2014-01-08T13:09:19Z</time>
      </trkpt>
      <trkpt lat="48.54355" lon="2.18065">
        <ele>72.72</ele>
        <time>2014-01-08T13:09:33Z</time>
      </trkpt>
      <trkpt lat="48.54368" lon="2.18079">
        <ele>72.72</ele>
        <time>2014-01-08T13:09:50Z</time>
      </trkpt>
      <trkpt lat="48.54376" lon="2.18089">
        <ele>70.31</ele>
        <time>2014-01-08T13:10:06Z</time>
      </trkpt>
      <trkpt lat="48.54382" lon="2.18095">
        <ele>70.31</ele>
        <time>2014-01-08T13:10:20Z</time>
      </trkpt>
      <trkpt lat="48.54389" lon="2.18102">
        <ele>70.79</ele>
        <time>2014-01-08T13:10:41Z</time>
      </trkpt>
      <trkpt lat="48.54394" lon="2.18106">
        <ele>70.31</ele>
        <time>2014-01-08T13:10:46Z</time>
      </trkpt>
      <trkpt lat="48.54416" lon="2.18105">
        <ele>73.2</ele>
        <time>2014-01-08T13:11:01Z</time>
      </trkpt>
      <trkpt lat="48.54431" lon="2.181">
        <ele>71.76</ele>
        <time>2014-01-08T13:11:14Z</time>
      </trkpt>
      <trkpt lat="48.5444" lon="2.18093">
        <ele>68.39</ele>
        <time>2014-01-08T13:11:24Z</time>
      </trkpt>
      <trkpt lat="48.54446" lon="2.18092">
        <ele>68.39</ele>
        <time>2014-01-08T13:11:29Z</time>
      </trkpt>
      <trkpt lat="48.54453" lon="2.18098">
        <ele>68.87</ele>
        <time>2014-01-08T13:11:41Z</time>
      </trkpt>
      <trkpt lat="48.54459" lon="2.18111">
        <ele>67.43</ele>
        <time>2014-01-08T13:11:54Z</time>
      </trkpt>
      <trkpt lat="48.54466" lon="2.18127">
        <ele>65.03</ele>
        <time>2014-01-08T13:12:08Z</time>
      </trkpt>
      <trkpt lat="48.54471" lon="2.18149">
        <ele>65.03</ele>
        <time>2014-01-08T13:12:24Z</time>
      </trkpt>
      <trkpt lat="48.54477" lon="2.18165">
        <ele>66.47</ele>
        <time>2014-01-08T13:12:39Z</time>
      </trkpt>
      <trkpt lat="48.54479" lon="2.18181">
        <ele>65.99</ele>
        <time>2014-01-08T13:12:55Z</time>
      </trkpt>
      <trkpt lat="48.54484" lon="2.18204">
        <ele>64.55</ele>
        <time>2014-01-08T13:13:09Z</time>
      </trkpt>
      <trkpt lat="48.54487" lon="2.1822">
        <ele>63.1</ele>
        <time>2014-01-08T13:13:22Z</time>
      </trkpt>
      <trkpt lat="48.54491" lon="2.18234">
        <ele>59.74</ele>
        <time>2014-01-08T13:13:36Z</time>
      </trkpt>
      <trkpt lat="48.54497" lon="2.18252">
        <ele>58.3</ele>
        <time>2014-01-08T13:13:49Z</time>
      </trkpt>
      <trkpt lat="48.54498" lon="2.18267">
        <ele>61.66</ele>
        <time>2014-01-08T13:14:01Z</time>
      </trkpt>
      <trkpt lat="48.54501" lon="2.18283">
        <ele>71.27</ele>
        <time>2014-01-08T13:14:15Z</time>
      </trkpt>
      <trkpt lat="48.5451" lon="2.18293">
        <ele>78</ele>
        <time>2014-01-08T13:14:29Z</time>
      </trkpt>
      <trkpt lat="48.54515" lon="2.18295">
        <ele>78</ele>
        <time>2014-01-08T13:14:42Z</time>
      </trkpt>
      <trkpt lat="48.54522" lon="2.183">
        <ele>79.93</ele>
        <time>2014-01-08T13:14:55Z</time>
      </trkpt>
      <trkpt lat="48.54528" lon="2.18311">
        <ele>82.33</ele>
        <time>2014-01-08T13:15:09Z</time>
      </trkpt>
      <trkpt lat="48.54533" lon="2.18313">
        <ele>83.77</ele>
        <time>2014-01-08T13:15:11Z</time>
      </trkpt>
      <trkpt lat="48.54547" lon="2.18329">
        <ele>90.98</ele>
        <time>2014-01-08T13:15:23Z</time>
      </trkpt>
      <trkpt lat="48.54555" lon="2.18341">
        <ele>92.42</ele>
        <time>2014-01-08T13:15:34Z</time>
      </trkpt>
      <trkpt lat="48.54561" lon="2.18351">
        <ele>91.46</ele>
        <time>2014-01-08T13:15:46Z</time>
      </trkpt>
      <trkpt lat="48.54564" lon="2.18361">
        <ele>90.02</ele>
        <time>2014-01-08T13:15:57Z</time>
      </trkpt>
      <trkpt lat="48.54572" lon="2.18379">
        <ele>87.62</ele>
        <time>2014-01-08T13:16:11Z</time>
      </trkpt>
      <trkpt lat="48.54583" lon="2.18398">
        <ele>92.42</ele>
        <time>2014-01-08T13:16:24Z</time>
      </trkpt>
      <trkpt lat="48.54587" lon="2.18411">
        <ele>92.42</ele>
        <time>2014-01-08T13:16:37Z</time>
      </trkpt>
      <trkpt lat="48.54597" lon="2.18423">
        <ele>91.94</ele>
        <time>2014-01-08T13:16:48Z</time>
      </trkpt>
      <trkpt lat="48.54603" lon="2.18433">
        <ele>92.42</ele>
        <time>2014-01-08T13:17:02Z</time>
      </trkpt>
      <trkpt lat="48.54604" lon="2.18445">
        <ele>91.46</ele>
        <time>2014-01-08T13:17:17Z</time>
      </trkpt>
      <trkpt lat="48.5461" lon="2.18464">
        <ele>91.46</ele>
        <time>2014-01-08T13:17:30Z</time>
      </trkpt>
      <trkpt lat="48.54617" lon="2.1848">
        <ele>88.1</ele>
        <time>2014-01-08T13:17:44Z</time>
      </trkpt>
      <trkpt lat="48.54626" lon="2.18507">
        <ele>90.98</ele>
        <time>2014-01-08T13:18:00Z</time>
      </trkpt>
      <trkpt lat="48.54626" lon="2.18521">
        <ele>92.42</ele>
        <time>2014-01-08T13:18:13Z</time>
      </trkpt>
      <trkpt lat="48.54629" lon="2.18533">
        <ele>93.87</ele>
        <time>2014-01-08T13:18:26Z</time>
      </trkpt>
      <trkpt lat="48.54628" lon="2.18536">
        <ele>94.35</ele>
        <time>2014-01-08T13:18:30Z</time>
      </trkpt>
      <trkpt lat="48.54638" lon="2.18559">
        <ele>99.63</ele>
        <time>2014-01-08T13:18:45Z</time>
      </trkpt>
      <trkpt lat="48.54638" lon="2.18573">
        <ele>104.44</ele>
        <time>2014-01-08T13:18:58Z</time>
      </trkpt>
      <trkpt lat="48.54637" lon="2.18592">
        <ele>111.17</ele>
        <time>2014-01-08T13:19:12Z</time>
      </trkpt>
      <trkpt lat="48.54629" lon="2.18602">
        <ele>113.57</ele>
        <time>2014-01-08T13:19:26Z</time>
      </trkpt>
      <trkpt lat="48.54629" lon="2.18613">
        <ele>113.09</ele>
        <time>2014-01-08T13:19:38Z</time>
      </trkpt>
      <trkpt lat="48.5463" lon="2.18626">
        <ele>117.42</ele>
        <time>2014-01-08T13:19:53Z</time>
      </trkpt>
      <trkpt lat="48.54632" lon="2.18631">
        <ele>117.9</ele>
        <time>2014-01-08T13:20:08Z</time>
      </trkpt>
      <trkpt lat="48.54634" lon="2.18647">
        <ele>120.3</ele>
        <time>2014-01-08T13:20:21Z</time>
      </trkpt>
      <trkpt lat="48.54636" lon="2.18665">
        <ele>120.3</ele>
        <time>2014-01-08T13:20:37Z</time>
      </trkpt>
      <trkpt lat="48.54638" lon="2.18678">
        <ele>123.19</ele>
        <time>2014-01-08T13:20:51Z</time>
      </trkpt>
      <trkpt lat="48.54636" lon="2.18687">
        <ele>127.03</ele>
        <time>2014-01-08T13:21:03Z</time>
      </trkpt>
      <trkpt lat="48.5464" lon="2.18699">
        <ele>129.92</ele>
        <time>2014-01-08T13:21:15Z</time>
      </trkpt>
      <trkpt lat="48.54641" lon="2.18712">
        <ele>131.36</ele>
        <time>2014-01-08T13:21:30Z</time>
      </trkpt>
      <trkpt lat="48.54646" lon="2.18718">
        <ele>129.43</ele>
        <time>2014-01-08T13:21:45Z</time>
      </trkpt>
      <trkpt lat="48.54648" lon="2.18719">
        <ele>130.4</ele>
        <time>2014-01-08T13:22:04Z</time>
      </trkpt>
      <trkpt lat="48.54649" lon="2.1872">
        <ele>131.36</ele>
        <time>2014-01-08T13:22:26Z</time>
      </trkpt>
      <trkpt lat="48.54648" lon="2.18724">
        <ele>130.4</ele>
        <time>2014-01-08T13:22:39Z</time>
      </trkpt>
      <trkpt lat="48.54652" lon="2.18735">
        <ele>129.43</ele>
        <time>2014-01-08T13:22:51Z</time>
      </trkpt>
      <trkpt lat="48.54659" lon="2.18749">
        <ele>131.84</ele>
        <time>2014-01-08T13:23:06Z</time>
      </trkpt>
      <trkpt lat="48.54665" lon="2.18758">
        <ele>135.2</ele>
        <time>2014-01-08T13:23:23Z</time>
      </trkpt>
      <trkpt lat="48.54671" lon="2.18766">
        <ele>135.68</ele>
        <time>2014-01-08T13:23:40Z</time>
      </trkpt>
      <trkpt lat="48.54674" lon="2.1878">
        <ele>138.09</ele>
        <time>2014-01-08T13:23:54Z</time>
      </trkpt>
      <trkpt lat="48.54677" lon="2.1879">
        <ele>139.05</ele>
        <time>2014-01-08T13:24:05Z</time>
      </trkpt>
      <trkpt lat="48.54684" lon="2.18799">
        <ele>138.09</ele>
        <time>2014-01-08T13:24:18Z</time>
      </trkpt>
      <trkpt lat="48.54686" lon="2.18802">
        <ele>138.09</ele>
        <time>2014-01-08T13:24:35Z</time>
      </trkpt>
      <trkpt lat="48.54688" lon="2.1881">
        <ele>138.57</ele>
        <time>2014-01-08T13:24:53Z</time>
      </trkpt>
      <trkpt lat="48.54702" lon="2.1881">
        <ele>135.2</ele>
        <time>2014-01-08T13:25:09Z</time>
      </trkpt>
      <trkpt lat="48.54712" lon="2.18801">
        <ele>131.36</ele>
        <time>2014-01-08T13:25:23Z</time>
      </trkpt>
      <trkpt lat="48.5472" lon="2.188">
        <ele>131.84</ele>
        <time>2014-01-08T13:25:37Z</time>
      </trkpt>
      <trkpt lat="48.54727" lon="2.18805">
        <ele>134.24</ele>
        <time>2014-01-08T13:25:46Z</time>
      </trkpt>
      <trkpt lat="48.54738" lon="2.18813">
        <ele>134.24</ele>
        <time>2014-01-08T13:26:00Z</time>
      </trkpt>
      <trkpt lat="48.54747" lon="2.18821">
        <ele>133.76</ele>
        <time>2014-01-08T13:26:16Z</time>
      </trkpt>
      <trkpt lat="48.54752" lon="2.18826">
        <ele>133.76</ele>
        <time>2014-01-08T13:26:28Z</time>
      </trkpt>
      <trkpt lat="48.54762" lon="2.18832">
        <ele>131.36</ele>
        <time>2014-01-08T13:26:39Z</time>
      </trkpt>
      <trkpt lat="48.54783" lon="2.18837">
        <ele>131.84</ele>
        <time>2014-01-08T13:26:52Z</time>
      </trkpt>
      <trkpt lat="48.54798" lon="2.18842">
        <ele>128.47</ele>
        <time>2014-01-08T13:27:05Z</time>
      </trkpt>
      <trkpt lat="48.54806" lon="2.18846">
        <ele>128.95</ele>
        <time>2014-01-08T13:27:18Z</time>
      </trkpt>
      <trkpt lat="48.54815" lon="2.18854">
        <ele>130.88</ele>
        <time>2014-01-08T13:27:32Z</time>
      </trkpt>
      <trkpt lat="48.54821" lon="2.18858">
        <ele>131.36</ele>
        <time>2014-01-08T13:27:43Z</time>
      </trkpt>
      <trkpt lat="48.54829" lon="2.18868">
        <ele>131.36</ele>
        <time>2014-01-08T13:27:56Z</time>
      </trkpt>
      <trkpt lat="48.54836" lon="2.18875">
        <ele>131.36</ele>
        <time>2014-01-08T13:28:10Z</time>
      </trkpt>
      <trkpt lat="48.5484" lon="2.18888">
        <ele>128.95</ele>
        <time>2014-01-08T13:28:21Z</time>
      </trkpt>
      <trkpt lat="48.54858" lon="2.18914">
        <ele>124.15</ele>
        <time>2014-01-08T13:28:34Z</time>
      </trkpt>
      <trkpt lat="48.54859" lon="2.18916">
        <ele>123.67</ele>
        <time>2014-01-08T13:28:35Z</time>
      </trkpt>
      <trkpt lat="48.54862" lon="2.18929">
        <ele>124.63</ele>
        <time>2014-01-08T13:28:42Z</time>
      </trkpt>
      <trkpt lat="48.54873" lon="2.18944">
        <ele>121.74</ele>
        <time>2014-01-08T13:28:55Z</time>
      </trkpt>
      <trkpt lat="48.54888" lon="2.18956">
        <ele>121.26</ele>
        <time>2014-01-08T13:29:10Z</time>
      </trkpt>
      <trkpt lat="48.54901" lon="2.18968">
        <ele>120.3</ele>
        <time>2014-01-08T13:29:26Z</time>
      </trkpt>
      <trkpt lat="48.54915" lon="2.18978">
        <ele>118.86</ele>
        <time>2014-01-08T13:29:41Z</time>
      </trkpt>
      <trkpt lat="48.54933" lon="2.18995">
        <ele>119.34</ele>
        <time>2014-01-08T13:29:58Z</time>
      </trkpt>
      <trkpt lat="48.54941" lon="2.19012">
        <ele>115.5</ele>
        <time>2014-01-08T13:30:11Z</time>
      </trkpt>
      <trkpt lat="48.54951" lon="2.19024">
        <ele>114.53</ele>
        <time>2014-01-08T13:30:26Z</time>
      </trkpt>
      <trkpt lat="48.54953" lon="2.19022">
        <ele>113.57</ele>
        <time>2014-01-08T13:30:48Z</time>
      </trkpt>
      <trkpt lat="48.54957" lon="2.19027">
        <ele>114.05</ele>
        <time>2014-01-08T13:31:02Z</time>
      </trkpt>
      <trkpt lat="48.54971" lon="2.19031">
        <ele>113.09</ele>
        <time>2014-01-08T13:31:15Z</time>
      </trkpt>
      <trkpt lat="48.54988" lon="2.19028">
        <ele>111.17</ele>
        <time>2014-01-08T13:31:28Z</time>
      </trkpt>
      <trkpt lat="48.54997" lon="2.19029">
        <ele>110.69</ele>
        <time>2014-01-08T13:31:40Z</time>
      </trkpt>
      <trkpt lat="48.5501" lon="2.19039">
        <ele>110.69</ele>
        <time>2014-01-08T13:31:52Z</time>
      </trkpt>
      <trkpt lat="48.55019" lon="2.19045">
        <ele>111.65</ele>
        <time>2014-01-08T13:32:05Z</time>
      </trkpt>
      <trkpt lat="48.55032" lon="2.19054">
        <ele>112.13</ele>
        <time>2014-01-08T13:32:16Z</time>
      </trkpt>
      <trkpt lat="48.55049" lon="2.19065">
        <ele>111.65</ele>
        <time>2014-01-08T13:32:28Z</time>
      </trkpt>
      <trkpt lat="48.55056" lon="2.19066">
        <ele>112.13</ele>
        <time>2014-01-08T13:32:34Z</time>
      </trkpt>
      <trkpt lat="48.55078" lon="2.19076">
        <ele>112.61</ele>
        <time>2014-01-08T13:32:52Z</time>
      </trkpt>
      <trkpt lat="48.55091" lon="2.19081">
        <ele>115.01</ele>
        <time>2014-01-08T13:33:05Z</time>
      </trkpt>
      <trkpt lat="48.55103" lon="2.19089">
        <ele>116.46</ele>
        <time>2014-01-08T13:33:18Z</time>
      </trkpt>
      <trkpt lat="48.55118" lon="2.19091">
        <ele>116.46</ele>
        <time>2014-01-08T13:33:33Z</time>
      </trkpt>
      <trkpt lat="48.55135" lon="2.19097">
        <ele>114.53</ele>
        <time>2014-01-08T13:33:47Z</time>
      </trkpt>
      <trkpt lat="48.55152" lon="2.19105">
        <ele>113.09</ele>
        <time>2014-01-08T13:34:04Z</time>
      </trkpt>
      <trkpt lat="48.55162" lon="2.19108">
        <ele>112.61</ele>
        <time>2014-01-08T13:34:17Z</time>
      </trkpt>
      <trkpt lat="48.55164" lon="2.19115">
        <ele>113.09</ele>
        <time>2014-01-08T13:34:33Z</time>
      </trkpt>
      <trkpt lat="48.55165" lon="2.19122">
        <ele>111.17</ele>
        <time>2014-01-08T13:34:46Z</time>
      </trkpt>
      <trkpt lat="48.55164" lon="2.19133">
        <ele>112.13</ele>
        <time>2014-01-08T13:35:03Z</time>
      </trkpt>
      <trkpt lat="48.55165" lon="2.19135">
        <ele>112.61</ele>
        <time>2014-01-08T13:35:04Z</time>
      </trkpt>
      <trkpt lat="48.55168" lon="2.19161">
        <ele>111.17</ele>
        <time>2014-01-08T13:35:18Z</time>
      </trkpt>
      <trkpt lat="48.55164" lon="2.19183">
        <ele>111.65</ele>
        <time>2014-01-08T13:35:31Z</time>
      </trkpt>
      <trkpt lat="48.55161" lon="2.19198">
        <ele>111.65</ele>
        <time>2014-01-08T13:35:42Z</time>
      </trkpt>
      <trkpt lat="48.55163" lon="2.19208">
        <ele>109.73</ele>
        <time>2014-01-08T13:35:50Z</time>
      </trkpt>
      <trkpt lat="48.55166" lon="2.19223">
        <ele>102.52</ele>
        <time>2014-01-08T13:36:04Z</time>
      </trkpt>
      <trkpt lat="48.55169" lon="2.19245">
        <ele>96.27</ele>
        <time>2014-01-08T13:36:16Z</time>
      </trkpt>
      <trkpt lat="48.55168" lon="2.19253">
        <ele>94.35</ele>
        <time>2014-01-08T13:36:21Z</time>
      </trkpt>
      <trkpt lat="48.55163" lon="2.19284">
        <ele>97.23</ele>
        <time>2014-01-08T13:36:34Z</time>
      </trkpt>
      <trkpt lat="48.55158" lon="2.19302">
        <ele>98.67</ele>
        <time>2014-01-08T13:36:48Z</time>
      </trkpt>
      <trkpt lat="48.55158" lon="2.19305">
        <ele>98.67</ele>
        <time>2014-01-08T13:36:58Z</time>
      </trkpt>
      <trkpt lat="48.55152" lon="2.19318">
        <ele>96.75</ele>
        <time>2014-01-08T13:37:11Z</time>
      </trkpt>
      <trkpt lat="48.55152" lon="2.19332">
        <ele>92.9</ele>
        <time>2014-01-08T13:37:27Z</time>
      </trkpt>
      <trkpt lat="48.55154" lon="2.19346">
        <ele>86.66</ele>
        <time>2014-01-08T13:37:41Z</time>
      </trkpt>
      <trkpt lat="48.55156" lon="2.1936">
        <ele>81.37</ele>
        <time>2014-01-08T13:37:51Z</time>
      </trkpt>
      <trkpt lat="48.55158" lon="2.19391">
        <ele>84.25</ele>
        <time>2014-01-08T13:38:04Z</time>
      </trkpt>
      <trkpt lat="48.55161" lon="2.19414">
        <ele>91.46</ele>
        <time>2014-01-08T13:38:16Z</time>
      </trkpt>
      <trkpt lat="48.55168" lon="2.19428">
        <ele>93.39</ele>
        <time>2014-01-08T13:38:31Z</time>
      </trkpt>
      <trkpt lat="48.55169" lon="2.1943">
        <ele>94.35</ele>
        <time>2014-01-08T13:38:33Z</time>
      </trkpt>
      <trkpt lat="48.55179" lon="2.19442">
        <ele>97.23</ele>
        <time>2014-01-08T13:38:45Z</time>
      </trkpt>
      <trkpt lat="48.55188" lon="2.19458">
        <ele>100.11</ele>
        <time>2014-01-08T13:38:59Z</time>
      </trkpt>
      <trkpt lat="48.55195" lon="2.19465">
        <ele>100.6</ele>
        <time>2014-01-08T13:39:10Z</time>
      </trkpt>
      <trkpt lat="48.55208" lon="2.19483">
        <ele>100.11</ele>
        <time>2014-01-08T13:39:24Z</time>
      </trkpt>
      <trkpt lat="48.55217" lon="2.19496">
        <ele>100.11</ele>
        <time>2014-01-08T13:39:36Z</time>
      </trkpt>
      <trkpt lat="48.55231" lon="2.19514">
        <ele>99.15</ele>
        <time>2014-01-08T13:39:49Z</time>
      </trkpt>
      <trkpt lat="48.55242" lon="2.19526">
        <ele>99.63</ele>
        <time>2014-01-08T13:40:02Z</time>
      </trkpt>
      <trkpt lat="48.5525" lon="2.1954">
        <ele>99.15</ele>
        <time>2014-01-08T13:40:16Z</time>
      </trkpt>
      <trkpt lat="48.55258" lon="2.19553">
        <ele>99.15</ele>
        <time>2014-01-08T13:40:29Z</time>
      </trkpt>
      <trkpt lat="48.55265" lon="2.19566">
        <ele>97.71</ele>
        <time>2014-01-08T13:40:41Z</time>
      </trkpt>
      <trkpt lat="48.55277" lon="2.19585">
        <ele>99.15</ele>
        <time>2014-01-08T13:40:53Z</time>
      </trkpt>
      <trkpt lat="48.55285" lon="2.19597">
        <ele>97.23</ele>
        <time>2014-01-08T13:41:04Z</time>
      </trkpt>
      <trkpt lat="48.55295" lon="2.19611">
        <ele>98.67</ele>
        <time>2014-01-08T13:41:17Z</time>
      </trkpt>
      <trkpt lat="48.55301" lon="2.19626">
        <ele>98.67</ele>
        <time>2014-01-08T13:41:29Z</time>
      </trkpt>
      <trkpt lat="48.55309" lon="2.19636">
        <ele>98.19</ele>
        <time>2014-01-08T13:41:41Z</time>
      </trkpt>
      <trkpt lat="48.55323" lon="2.19657">
        <ele>98.19</ele>
        <time>2014-01-08T13:41:57Z</time>
      </trkpt>
      <trkpt lat="48.5533" lon="2.19669">
        <ele>97.23</ele>
        <time>2014-01-08T13:42:08Z</time>
      </trkpt>
      <trkpt lat="48.55334" lon="2.19681">
        <ele>97.23</ele>
        <time>2014-01-08T13:42:20Z</time>
      </trkpt>
      <trkpt lat="48.55338" lon="2.19688">
        <ele>96.27</ele>
        <time>2014-01-08T13:42:31Z</time>
      </trkpt>
      <trkpt lat="48.55345" lon="2.19717">
        <ele>92.9</ele>
        <time>2014-01-08T13:42:43Z</time>
      </trkpt>
      <trkpt lat="48.55352" lon="2.19735">
        <ele>93.87</ele>
        <time>2014-01-08T13:42:55Z</time>
      </trkpt>
      <trkpt lat="48.55356" lon="2.19739">
        <ele>94.35</ele>
        <time>2014-01-08T13:43:06Z</time>
      </trkpt>
      <trkpt lat="48.55363" lon="2.19743">
        <ele>95.31</ele>
        <time>2014-01-08T13:43:14Z</time>
      </trkpt>
      <trkpt lat="48.55379" lon="2.19747">
        <ele>94.35</ele>
        <time>2014-01-08T13:43:28Z</time>
      </trkpt>
      <trkpt lat="48.5539" lon="2.19747">
        <ele>93.39</ele>
        <time>2014-01-08T13:43:37Z</time>
      </trkpt>
      <trkpt lat="48.55404" lon="2.19747">
        <ele>91.94</ele>
        <time>2014-01-08T13:43:50Z</time>
      </trkpt>
      <trkpt lat="48.55418" lon="2.19746">
        <ele>90.98</ele>
        <time>2014-01-08T13:44:03Z</time>
      </trkpt>
      <trkpt lat="48.55426" lon="2.19744">
        <ele>91.46</ele>
        <time>2014-01-08T13:44:14Z</time>
      </trkpt>
      <trkpt lat="48.55441" lon="2.19745">
        <ele>93.87</ele>
        <time>2014-01-08T13:44:30Z</time>
      </trkpt>
      <trkpt lat="48.55455" lon="2.19747">
        <ele>94.35</ele>
        <time>2014-01-08T13:44:42Z</time>
      </trkpt>
      <trkpt lat="48.55464" lon="2.19746">
        <ele>94.35</ele>
        <time>2014-01-08T13:44:55Z</time>
      </trkpt>
      <trkpt lat="48.55467" lon="2.19746">
        <ele>93.87</ele>
        <time>2014-01-08T13:45:07Z</time>
      </trkpt>
      <trkpt lat="48.55469" lon="2.19747">
        <ele>94.35</ele>
        <time>2014-01-08T13:45:27Z</time>
      </trkpt>
      <trkpt lat="48.55472" lon="2.19748">
        <ele>94.35</ele>
        <time>2014-01-08T13:45:45Z</time>
      </trkpt>
      <trkpt lat="48.55473" lon="2.19747">
        <ele>94.35</ele>
        <time>2014-01-08T13:46:07Z</time>
      </trkpt>
      <trkpt lat="48.55475" lon="2.19746">
        <ele>94.35</ele>
        <time>2014-01-08T13:46:31Z</time>
      </trkpt>
      <trkpt lat="48.55477" lon="2.19748">
        <ele>96.27</ele>
        <time>2014-01-08T13:46:47Z</time>
      </trkpt>
      <trkpt lat="48.55483" lon="2.19747">
        <ele>96.75</ele>
        <time>2014-01-08T13:46:57Z</time>
      </trkpt>
      <trkpt lat="48.55492" lon="2.1975">
        <ele>98.19</ele>
        <time>2014-01-08T13:47:08Z</time>
      </trkpt>
      <trkpt lat="48.55505" lon="2.19752">
        <ele>99.15</ele>
        <time>2014-01-08T13:47:19Z</time>
      </trkpt>
      <trkpt lat="48.55522" lon="2.19758">
        <ele>99.63</ele>
        <time>2014-01-08T13:47:35Z</time>
      </trkpt>
      <trkpt lat="48.55543" lon="2.19771">
        <ele>99.15</ele>
        <time>2014-01-08T13:47:49Z</time>
      </trkpt>
      <trkpt lat="48.55565" lon="2.19782">
        <ele>99.63</ele>
        <time>2014-01-08T13:48:05Z</time>
      </trkpt>
      <trkpt lat="48.55589" lon="2.19791">
        <ele>99.15</ele>
        <time>2014-01-08T13:48:22Z</time>
      </trkpt>
      <trkpt lat="48.55595" lon="2.19796">
        <ele>98.19</ele>
        <time>2014-01-08T13:48:35Z</time>
      </trkpt>
      <trkpt lat="48.55598" lon="2.19795">
        <ele>98.19</ele>
        <time>2014-01-08T13:48:37Z</time>
      </trkpt>
      <trkpt lat="48.55612" lon="2.19792">
        <ele>97.23</ele>
        <time>2014-01-08T13:48:49Z</time>
      </trkpt>
      <trkpt lat="48.55619" lon="2.19771">
        <ele>96.27</ele>
        <time>2014-01-08T13:49:05Z</time>
      </trkpt>
      <trkpt lat="48.55625" lon="2.19751">
        <ele>96.75</ele>
        <time>2014-01-08T13:49:18Z</time>
      </trkpt>
      <trkpt lat="48.55628" lon="2.19726">
        <ele>97.23</ele>
        <time>2014-01-08T13:49:33Z</time>
      </trkpt>
      <trkpt lat="48.55631" lon="2.1971">
        <ele>94.83</ele>
        <time>2014-01-08T13:49:49Z</time>
      </trkpt>
      <trkpt lat="48.55634" lon="2.19691">
        <ele>93.39</ele>
        <time>2014-01-08T13:50:02Z</time>
      </trkpt>
      <trkpt lat="48.55637" lon="2.19659">
        <ele>95.31</ele>
        <time>2014-01-08T13:50:16Z</time>
      </trkpt>
      <trkpt lat="48.5564" lon="2.1963">
        <ele>97.71</ele>
        <time>2014-01-08T13:50:32Z</time>
      </trkpt>
      <trkpt lat="48.5564" lon="2.19626">
        <ele>98.19</ele>
        <time>2014-01-08T13:50:34Z</time>
      </trkpt>
      <trkpt lat="48.55642" lon="2.19618">
        <ele>99.63</ele>
        <time>2014-01-08T13:50:38Z</time>
      </trkpt>
      <trkpt lat="48.55644" lon="2.19592">
        <ele>100.6</ele>
        <time>2014-01-08T13:50:52Z</time>
      </trkpt>
      <trkpt lat="48.55646" lon="2.19578">
        <ele>101.08</ele>
        <time>2014-01-08T13:51:01Z</time>
      </trkpt>
      <trkpt lat="48.5565" lon="2.19556">
        <ele>102.04</ele>
        <time>2014-01-08T13:51:15Z</time>
      </trkpt>
      <trkpt lat="48.55654" lon="2.1953">
        <ele>103</ele>
        <time>2014-01-08T13:51:31Z</time>
      </trkpt>
      <trkpt lat="48.55655" lon="2.19529">
        <ele>103</ele>
        <time>2014-01-08T13:51:32Z</time>
      </trkpt>
      <trkpt lat="48.55658" lon="2.19508">
        <ele>104.92</ele>
        <time>2014-01-08T13:51:44Z</time>
      </trkpt>
      <trkpt lat="48.55662" lon="2.19488">
        <ele>104.92</ele>
        <time>2014-01-08T13:51:58Z</time>
      </trkpt>
      <trkpt lat="48.55662" lon="2.19484">
        <ele>104.92</ele>
        <time>2014-01-08T13:52:00Z</time>
      </trkpt>
      <trkpt lat="48.55663" lon="2.19465">
        <ele>106.36</ele>
        <time>2014-01-08T13:52:12Z</time>
      </trkpt>
      <trkpt lat="48.55663" lon="2.19464">
        <ele>106.36</ele>
        <time>2014-01-08T13:52:14Z</time>
      </trkpt>
      <trkpt lat="48.55667" lon="2.19449">
        <ele>106.36</ele>
        <time>2014-01-08T13:52:26Z</time>
      </trkpt>
      <trkpt lat="48.55669" lon="2.19418">
        <ele>110.21</ele>
        <time>2014-01-08T13:52:40Z</time>
      </trkpt>
      <trkpt lat="48.55669" lon="2.19394">
        <ele>114.05</ele>
        <time>2014-01-08T13:52:55Z</time>
      </trkpt>
      <trkpt lat="48.55672" lon="2.19391">
        <ele>116.94</ele>
        <time>2014-01-08T13:53:08Z</time>
      </trkpt>
      <trkpt lat="48.55677" lon="2.19379">
        <ele>115.98</ele>
        <time>2014-01-08T13:53:23Z</time>
      </trkpt>
      <trkpt lat="48.5568" lon="2.19364">
        <ele>115.5</ele>
        <time>2014-01-08T13:53:35Z</time>
      </trkpt>
      <trkpt lat="48.55682" lon="2.19353">
        <ele>116.94</ele>
        <time>2014-01-08T13:53:49Z</time>
      </trkpt>
      <trkpt lat="48.55686" lon="2.19336">
        <ele>116.46</ele>
        <time>2014-01-08T13:54:03Z</time>
      </trkpt>
      <trkpt lat="48.55686" lon="2.19313">
        <ele>116.94</ele>
        <time>2014-01-08T13:54:14Z</time>
      </trkpt>
      <trkpt lat="48.55687" lon="2.19302">
        <ele>115.98</ele>
        <time>2014-01-08T13:54:27Z</time>
      </trkpt>
      <trkpt lat="48.55688" lon="2.19283">
        <ele>115.5</ele>
        <time>2014-01-08T13:54:41Z</time>
      </trkpt>
      <trkpt lat="48.55692" lon="2.19261">
        <ele>118.38</ele>
        <time>2014-01-08T13:54:54Z</time>
      </trkpt>
      <trkpt lat="48.55698" lon="2.19246">
        <ele>118.86</ele>
        <time>2014-01-08T13:55:06Z</time>
      </trkpt>
      <trkpt lat="48.55698" lon="2.1923">
        <ele>117.9</ele>
        <time>2014-01-08T13:55:18Z</time>
      </trkpt>
      <trkpt lat="48.55697" lon="2.1921">
        <ele>118.86</ele>
        <time>2014-01-08T13:55:30Z</time>
      </trkpt>
      <trkpt lat="48.55698" lon="2.19193">
        <ele>118.38</ele>
        <time>2014-01-08T13:55:43Z</time>
      </trkpt>
      <trkpt lat="48.55695" lon="2.1917">
        <ele>120.3</ele>
        <time>2014-01-08T13:55:56Z</time>
      </trkpt>
      <trkpt lat="48.55694" lon="2.19154">
        <ele>119.82</ele>
        <time>2014-01-08T13:56:08Z</time>
      </trkpt>
      <trkpt lat="48.55694" lon="2.19133">
        <ele>120.3</ele>
        <time>2014-01-08T13:56:21Z</time>
      </trkpt>
      <trkpt lat="48.55694" lon="2.19116">
        <ele>119.34</ele>
        <time>2014-01-08T13:56:33Z</time>
      </trkpt>
      <trkpt lat="48.55697" lon="2.19096">
        <ele>124.15</ele>
        <time>2014-01-08T13:56:45Z</time>
      </trkpt>
      <trkpt lat="48.55697" lon="2.19079">
        <ele>126.55</ele>
        <time>2014-01-08T13:56:58Z</time>
      </trkpt>
      <trkpt lat="48.55698" lon="2.19059">
        <ele>129.92</ele>
        <time>2014-01-08T13:57:12Z</time>
      </trkpt>
      <trkpt lat="48.55701" lon="2.19042">
        <ele>133.76</ele>
        <time>2014-01-08T13:57:26Z</time>
      </trkpt>
      <trkpt lat="48.55701" lon="2.19025">
        <ele>137.13</ele>
        <time>2014-01-08T13:57:41Z</time>
      </trkpt>
      <trkpt lat="48.55701" lon="2.19013">
        <ele>138.57</ele>
        <time>2014-01-08T13:57:52Z</time>
      </trkpt>
      <trkpt lat="48.55703" lon="2.19002">
        <ele>137.61</ele>
        <time>2014-01-08T13:58:06Z</time>
      </trkpt>
      <trkpt lat="48.55705" lon="2.18989">
        <ele>137.13</ele>
        <time>2014-01-08T13:58:19Z</time>
      </trkpt>
      <trkpt lat="48.5571" lon="2.18978">
        <ele>137.61</ele>
        <time>2014-01-08T13:58:33Z</time>
      </trkpt>
      <trkpt lat="48.55709" lon="2.18958">
        <ele>135.2</ele>
        <time>2014-01-08T13:58:46Z</time>
      </trkpt>
      <trkpt lat="48.55709" lon="2.1894">
        <ele>134.24</ele>
        <time>2014-01-08T13:58:59Z</time>
      </trkpt>
      <trkpt lat="48.55711" lon="2.18919">
        <ele>133.76</ele>
        <time>2014-01-08T13:59:13Z</time>
      </trkpt>
      <trkpt lat="48.55715" lon="2.18903">
        <ele>131.36</ele>
        <time>2014-01-08T13:59:26Z</time>
      </trkpt>
      <trkpt lat="48.55716" lon="2.18882">
        <ele>128.95</ele>
        <time>2014-01-08T13:59:40Z</time>
      </trkpt>
      <trkpt lat="48.55718" lon="2.18868">
        <ele>124.63</ele>
        <time>2014-01-08T13:59:52Z</time>
      </trkpt>
      <trkpt lat="48.55722" lon="2.18851">
        <ele>123.19</ele>
        <time>2014-01-08T14:00:05Z</time>
      </trkpt>
      <trkpt lat="48.55725" lon="2.18832">
        <ele>120.3</ele>
        <time>2014-01-08T14:00:25Z</time>
      </trkpt>
      <trkpt lat="48.55729" lon="2.18821">
        <ele>111.17</ele>
        <time>2014-01-08T14:00:37Z</time>
      </trkpt>
      <trkpt lat="48.55739" lon="2.1882">
        <ele>105.4</ele>
        <time>2014-01-08T14:00:48Z</time>
      </trkpt>
      <trkpt lat="48.55751" lon="2.18818">
        <ele>104.44</ele>
        <time>2014-01-08T14:00:59Z</time>
      </trkpt>
      <trkpt lat="48.55754" lon="2.18815">
        <ele>103.96</ele>
        <time>2014-01-08T14:01:02Z</time>
      </trkpt>
      <trkpt lat="48.55765" lon="2.18809">
        <ele>102.04</ele>
        <time>2014-01-08T14:01:15Z</time>
      </trkpt>
      <trkpt lat="48.55778" lon="2.18806">
        <ele>103</ele>
        <time>2014-01-08T14:01:26Z</time>
      </trkpt>
      <trkpt lat="48.55785" lon="2.18804">
        <ele>104.44</ele>
        <time>2014-01-08T14:01:37Z</time>
      </trkpt>
      <trkpt lat="48.55794" lon="2.18801">
        <ele>108.77</ele>
        <time>2014-01-08T14:01:56Z</time>
      </trkpt>
      <trkpt lat="48.55797" lon="2.18799">
        <ele>106.84</ele>
        <time>2014-01-08T14:02:08Z</time>
      </trkpt>
      <trkpt lat="48.558" lon="2.18802">
        <ele>106.36</ele>
        <time>2014-01-08T14:02:12Z</time>
      </trkpt>
      <trkpt lat="48.55803" lon="2.18801">
        <ele>106.84</ele>
        <time>2014-01-08T14:02:15Z</time>
      </trkpt>
      <trkpt lat="48.55809" lon="2.1881">
        <ele>108.77</ele>
        <time>2014-01-08T14:02:28Z</time>
      </trkpt>
      <trkpt lat="48.5582" lon="2.18823">
        <ele>123.19</ele>
        <time>2014-01-08T14:02:41Z</time>
      </trkpt>
      <trkpt lat="48.55822" lon="2.18838">
        <ele>127.03</ele>
        <time>2014-01-08T14:02:57Z</time>
      </trkpt>
      <trkpt lat="48.55819" lon="2.18852">
        <ele>129.92</ele>
        <time>2014-01-08T14:03:10Z</time>
      </trkpt>
      <trkpt lat="48.55824" lon="2.18852">
        <ele>131.36</ele>
        <time>2014-01-08T14:03:24Z</time>
      </trkpt>
      <trkpt lat="48.55824" lon="2.18851">
        <ele>130.88</ele>
        <time>2014-01-08T14:03:26Z</time>
      </trkpt>
      <trkpt lat="48.55836" lon="2.18851">
        <ele>132.8</ele>
        <time>2014-01-08T14:03:40Z</time>
      </trkpt>
      <trkpt lat="48.55842" lon="2.18842">
        <ele>129.43</ele>
        <time>2014-01-08T14:03:52Z</time>
      </trkpt>
      <trkpt lat="48.55841" lon="2.18838">
        <ele>129.43</ele>
        <time>2014-01-08T14:03:55Z</time>
      </trkpt>
      <trkpt lat="48.55835" lon="2.18825">
        <ele>127.99</ele>
        <time>2014-01-08T14:04:07Z</time>
      </trkpt>
      <trkpt lat="48.5585" lon="2.18829">
        <ele>129.43</ele>
        <time>2014-01-08T14:04:21Z</time>
      </trkpt>
      <trkpt lat="48.55853" lon="2.18832">
        <ele>131.36</ele>
        <time>2014-01-08T14:04:38Z</time>
      </trkpt>
      <trkpt lat="48.55853" lon="2.18833">
        <ele>131.84</ele>
        <time>2014-01-08T14:04:56Z</time>
      </trkpt>
      <trkpt lat="48.55855" lon="2.18832">
        <ele>132.32</ele>
        <time>2014-01-08T14:05:11Z</time>
      </trkpt>
      <trkpt lat="48.55854" lon="2.1883">
        <ele>132.8</ele>
        <time>2014-01-08T14:05:34Z</time>
      </trkpt>
      <trkpt lat="48.55854" lon="2.1883">
        <ele>132.8</ele>
        <time>2014-01-08T14:05:55Z</time>
      </trkpt>
      <trkpt lat="48.55854" lon="2.18829">
        <ele>133.28</ele>
        <time>2014-01-08T14:06:08Z</time>
      </trkpt>
      <trkpt lat="48.55855" lon="2.18831">
        <ele>134.72</ele>
        <time>2014-01-08T14:06:27Z</time>
      </trkpt>
      <trkpt lat="48.55855" lon="2.18831">
        <ele>134.24</ele>
        <time>2014-01-08T14:06:46Z</time>
      </trkpt>
      <trkpt lat="48.55856" lon="2.18831">
        <ele>134.72</ele>
        <time>2014-01-08T14:07:08Z</time>
      </trkpt>
      <trkpt lat="48.55855" lon="2.18831">
        <ele>135.2</ele>
        <time>2014-01-08T14:07:31Z</time>
      </trkpt>
      <trkpt lat="48.55855" lon="2.18831">
        <ele>135.2</ele>
        <time>2014-01-08T14:07:50Z</time>
      </trkpt>
      <trkpt lat="48.55848" lon="2.18828">
        <ele>135.2</ele>
        <time>2014-01-08T14:08:06Z</time>
      </trkpt>
      <trkpt lat="48.55839" lon="2.18827">
        <ele>136.16</ele>
        <time>2014-01-08T14:08:21Z</time>
      </trkpt>
      <trkpt lat="48.55837" lon="2.18813">
        <ele>135.68</ele>
        <time>2014-01-08T14:08:35Z</time>
      </trkpt>
      <trkpt lat="48.55835" lon="2.18805">
        <ele>133.76</ele>
        <time>2014-01-08T14:08:48Z</time>
      </trkpt>
      <trkpt lat="48.55834" lon="2.18815">
        <ele>130.88</ele>
        <time>2014-01-08T14:09:10Z</time>
      </trkpt>
      <trkpt lat="48.55835" lon="2.1882">
        <ele>127.03</ele>
        <time>2014-01-08T14:09:37Z</time>
      </trkpt>
      <trkpt lat="48.55834" lon="2.18812">
        <ele>125.59</ele>
        <time>2014-01-08T14:10:08Z</time>
      </trkpt>
      <trkpt lat="48.55836" lon="2.18804">
        <ele>122.22</ele>
        <time>2014-01-08T14:10:32Z</time>
      </trkpt>
      <trkpt lat="48.55837" lon="2.18805">
        <ele>123.67</ele>
        <time>2014-01-08T14:10:57Z</time>
      </trkpt>
      <trkpt lat="48.55838" lon="2.18804">
        <ele>123.67</ele>
        <time>2014-01-08T14:11:23Z</time>
      </trkpt>
      <trkpt lat="48.55833" lon="2.18816">
        <ele>124.15</ele>
        <time>2014-01-08T14:11:53Z</time>
      </trkpt>
      <trkpt lat="48.55833" lon="2.18815">
        <ele>126.07</ele>
        <time>2014-01-08T14:12:23Z</time>
      </trkpt>
      <trkpt lat="48.55833" lon="2.18806">
        <ele>129.92</ele>
        <time>2014-01-08T14:12:35Z</time>
      </trkpt>
      <trkpt lat="48.55816" lon="2.18799">
        <ele>138.57</ele>
        <time>2014-01-08T14:12:50Z</time>
      </trkpt>
      <trkpt lat="48.55801" lon="2.18793">
        <ele>137.13</ele>
        <time>2014-01-08T14:13:03Z</time>
      </trkpt>
      <trkpt lat="48.55795" lon="2.18781">
        <ele>132.8</ele>
        <time>2014-01-08T14:13:17Z</time>
      </trkpt>
      <trkpt lat="48.55796" lon="2.18773">
        <ele>131.36</ele>
        <time>2014-01-08T14:13:27Z</time>
      </trkpt>
      <trkpt lat="48.55791" lon="2.1875">
        <ele>129.43</ele>
        <time>2014-01-08T14:13:42Z</time>
      </trkpt>
      <trkpt lat="48.55792" lon="2.1874">
        <ele>126.55</ele>
        <time>2014-01-08T14:13:56Z</time>
      </trkpt>
      <trkpt lat="48.55793" lon="2.18732">
        <ele>126.07</ele>
        <time>2014-01-08T14:14:16Z</time>
      </trkpt>
      <trkpt lat="48.55797" lon="2.18712">
        <ele>124.15</ele>
        <time>2014-01-08T14:14:31Z</time>
      </trkpt>
      <trkpt lat="48.55798" lon="2.18705">
        <ele>121.74</ele>
        <time>2014-01-08T14:14:45Z</time>
      </trkpt>
      <trkpt lat="48.55798" lon="2.18703">
        <ele>121.26</ele>
        <time>2014-01-08T14:14:48Z</time>
      </trkpt>
      <trkpt lat="48.55803" lon="2.18694">
        <ele>115.01</ele>
        <time>2014-01-08T14:15:02Z</time>
      </trkpt>
      <trkpt lat="48.55805" lon="2.18687">
        <ele>113.57</ele>
        <time>2014-01-08T14:15:16Z</time>
      </trkpt>
      <trkpt lat="48.55806" lon="2.18678">
        <ele>111.65</ele>
        <time>2014-01-08T14:15:31Z</time>
      </trkpt>
      <trkpt lat="48.55808" lon="2.18672">
        <ele>112.61</ele>
        <time>2014-01-08T14:15:44Z</time>
      </trkpt>
      <trkpt lat="48.5581" lon="2.18661">
        <ele>111.17</ele>
        <time>2014-01-08T14:15:59Z</time>
      </trkpt>
      <trkpt lat="48.55813" lon="2.18652">
        <ele>110.69</ele>
        <time>2014-01-08T14:16:14Z</time>
      </trkpt>
      <trkpt lat="48.55816" lon="2.18638">
        <ele>107.32</ele>
        <time>2014-01-08T14:16:27Z</time>
      </trkpt>
      <trkpt lat="48.5582" lon="2.18584">
        <ele>104.44</ele>
        <time>2014-01-08T14:16:41Z</time>
      </trkpt>
      <trkpt lat="48.5582" lon="2.18539">
        <ele>104.44</ele>
        <time>2014-01-08T14:16:55Z</time>
      </trkpt>
      <trkpt lat="48.55825" lon="2.18518">
        <ele>101.08</ele>
        <time>2014-01-08T14:17:07Z</time>
      </trkpt>
      <trkpt lat="48.55829" lon="2.18499">
        <ele>95.31</ele>
        <time>2014-01-08T14:17:19Z</time>
      </trkpt>
      <trkpt lat="48.55835" lon="2.18487">
        <ele>91.46</ele>
        <time>2014-01-08T14:17:29Z</time>
      </trkpt>
      <trkpt lat="48.55839" lon="2.18474">
        <ele>87.62</ele>
        <time>2014-01-08T14:17:37Z</time>
      </trkpt>
      <trkpt lat="48.5584" lon="2.18471">
        <ele>87.62</ele>
        <time>2014-01-08T14:17:39Z</time>
      </trkpt>
      <trkpt lat="48.55842" lon="2.18462">
        <ele>88.58</ele>
        <time>2014-01-08T14:17:43Z</time>
      </trkpt>
      <trkpt lat="48.5585" lon="2.1844">
        <ele>89.54</ele>
        <time>2014-01-08T14:17:58Z</time>
      </trkpt>
      <trkpt lat="48.55854" lon="2.18424">
        <ele>88.1</ele>
        <time>2014-01-08T14:18:10Z</time>
      </trkpt>
      <trkpt lat="48.55858" lon="2.18409">
        <ele>84.25</ele>
        <time>2014-01-08T14:18:24Z</time>
      </trkpt>
      <trkpt lat="48.5586" lon="2.18392">
        <ele>77.52</ele>
        <time>2014-01-08T14:18:37Z</time>
      </trkpt>
      <trkpt lat="48.55863" lon="2.18373">
        <ele>78</ele>
        <time>2014-01-08T14:18:51Z</time>
      </trkpt>
      <trkpt lat="48.55867" lon="2.18358">
        <ele>73.2</ele>
        <time>2014-01-08T14:19:04Z</time>
      </trkpt>
      <trkpt lat="48.55872" lon="2.18345">
        <ele>70.79</ele>
        <time>2014-01-08T14:19:16Z</time>
      </trkpt>
      <trkpt lat="48.55876" lon="2.18335">
        <ele>68.87</ele>
        <time>2014-01-08T14:19:27Z</time>
      </trkpt>
      <trkpt lat="48.55883" lon="2.18316">
        <ele>66.95</ele>
        <time>2014-01-08T14:19:39Z</time>
      </trkpt>
      <trkpt lat="48.55888" lon="2.18303">
        <ele>64.07</ele>
        <time>2014-01-08T14:19:50Z</time>
      </trkpt>
      <trkpt lat="48.55886" lon="2.18288">
        <ele>63.58</ele>
        <time>2014-01-08T14:20:04Z</time>
      </trkpt>
      <trkpt lat="48.55883" lon="2.18282">
        <ele>66.47</ele>
        <time>2014-01-08T14:20:09Z</time>
      </trkpt>
      <trkpt lat="48.55882" lon="2.18263">
        <ele>68.87</ele>
        <time>2014-01-08T14:20:22Z</time>
      </trkpt>
      <trkpt lat="48.55896" lon="2.18263">
        <ele>69.35</ele>
        <time>2014-01-08T14:20:36Z</time>
      </trkpt>
      <trkpt lat="48.55914" lon="2.18268">
        <ele>69.83</ele>
        <time>2014-01-08T14:20:50Z</time>
      </trkpt>
      <trkpt lat="48.5593" lon="2.1825">
        <ele>69.35</ele>
        <time>2014-01-08T14:21:07Z</time>
      </trkpt>
      <trkpt lat="48.55936" lon="2.18243">
        <ele>68.87</ele>
        <time>2014-01-08T14:21:15Z</time>
      </trkpt>
      <trkpt lat="48.55948" lon="2.1823">
        <ele>67.43</ele>
        <time>2014-01-08T14:21:29Z</time>
      </trkpt>
      <trkpt lat="48.55951" lon="2.18226">
        <ele>66.95</ele>
        <time>2014-01-08T14:21:34Z</time>
      </trkpt>
      <trkpt lat="48.55953" lon="2.18225">
        <ele>66.47</ele>
        <time>2014-01-08T14:21:36Z</time>
      </trkpt>
      <trkpt lat="48.55959" lon="2.18216">
        <ele>66.95</ele>
        <time>2014-01-08T14:21:43Z</time>
      </trkpt>
      <trkpt lat="48.55968" lon="2.18195">
        <ele>65.51</ele>
        <time>2014-01-08T14:21:57Z</time>
      </trkpt>
      <trkpt lat="48.55971" lon="2.18191">
        <ele>65.03</ele>
        <time>2014-01-08T14:22:01Z</time>
      </trkpt>
      <trkpt lat="48.55978" lon="2.18171">
        <ele>64.55</ele>
        <time>2014-01-08T14:22:14Z</time>
      </trkpt>
      <trkpt lat="48.55981" lon="2.18158">
        <ele>63.58</ele>
        <time>2014-01-08T14:22:22Z</time>
      </trkpt>
      <trkpt lat="48.55989" lon="2.18139">
        <ele>62.62</ele>
        <time>2014-01-08T14:22:34Z</time>
      </trkpt>
      <trkpt lat="48.55992" lon="2.18127">
        <ele>61.66</ele>
        <time>2014-01-08T14:22:41Z</time>
      </trkpt>
      <trkpt lat="48.55997" lon="2.18108">
        <ele>61.18</ele>
        <time>2014-01-08T14:22:52Z</time>
      </trkpt>
      <trkpt lat="48.56005" lon="2.18085">
        <ele>59.74</ele>
        <time>2014-01-08T14:23:07Z</time>
      </trkpt>
      <trkpt lat="48.56016" lon="2.18058">
        <ele>55.41</ele>
        <time>2014-01-08T14:23:26Z</time>
      </trkpt>
      <trkpt lat="48.56021" lon="2.18049">
        <ele>54.45</ele>
        <time>2014-01-08T14:23:33Z</time>
      </trkpt>
      <trkpt lat="48.56029" lon="2.18026">
        <ele>50.61</ele>
        <time>2014-01-08T14:23:49Z</time>
      </trkpt>
      <trkpt lat="48.5603" lon="2.18025">
        <ele>50.13</ele>
        <time>2014-01-08T14:23:50Z</time>
      </trkpt>
      <trkpt lat="48.56037" lon="2.1801">
        <ele>48.68</ele>
        <time>2014-01-08T14:24:00Z</time>
      </trkpt>
      <trkpt lat="48.56043" lon="2.17986">
        <ele>47.72</ele>
        <time>2014-01-08T14:24:14Z</time>
      </trkpt>
      <trkpt lat="48.56052" lon="2.17967">
        <ele>46.28</ele>
        <time>2014-01-08T14:24:27Z</time>
      </trkpt>
      <trkpt lat="48.56055" lon="2.1796">
        <ele>46.76</ele>
        <time>2014-01-08T14:24:32Z</time>
      </trkpt>
      <trkpt lat="48.5606" lon="2.17945">
        <ele>48.2</ele>
        <time>2014-01-08T14:24:41Z</time>
      </trkpt>
      <trkpt lat="48.56069" lon="2.17926">
        <ele>46.76</ele>
        <time>2014-01-08T14:24:57Z</time>
      </trkpt>
      <trkpt lat="48.56078" lon="2.17906">
        <ele>44.84</ele>
        <time>2014-01-08T14:25:13Z</time>
      </trkpt>
      <trkpt lat="48.56084" lon="2.17893">
        <ele>40.99</ele>
        <time>2014-01-08T14:25:24Z</time>
      </trkpt>
      <trkpt lat="48.56092" lon="2.1787">
        <ele>41.95</ele>
        <time>2014-01-08T14:25:37Z</time>
      </trkpt>
      <trkpt lat="48.56102" lon="2.17842">
        <ele>44.36</ele>
        <time>2014-01-08T14:25:54Z</time>
      </trkpt>
      <trkpt lat="48.56111" lon="2.17824">
        <ele>44.36</ele>
        <time>2014-01-08T14:26:08Z</time>
      </trkpt>
      <trkpt lat="48.56121" lon="2.17805">
        <ele>41.47</ele>
        <time>2014-01-08T14:26:23Z</time>
      </trkpt>
      <trkpt lat="48.5613" lon="2.1778">
        <ele>42.44</ele>
        <time>2014-01-08T14:26:38Z</time>
      </trkpt>
      <trkpt lat="48.56136" lon="2.1777">
        <ele>43.4</ele>
        <time>2014-01-08T14:26:45Z</time>
      </trkpt>
      <trkpt lat="48.56141" lon="2.1776">
        <ele>42.92</ele>
        <time>2014-01-08T14:26:53Z</time>
      </trkpt>
      <trkpt lat="48.56154" lon="2.17735">
        <ele>43.88</ele>
        <time>2014-01-08T14:27:09Z</time>
      </trkpt>
      <trkpt lat="48.5616" lon="2.17724">
        <ele>44.36</ele>
        <time>2014-01-08T14:27:16Z</time>
      </trkpt>
      <trkpt lat="48.56168" lon="2.17716">
        <ele>47.24</ele>
        <time>2014-01-08T14:27:29Z</time>
      </trkpt>
      <trkpt lat="48.56168" lon="2.17709">
        <ele>49.65</ele>
        <time>2014-01-08T14:27:43Z</time>
      </trkpt>
      <trkpt lat="48.56161" lon="2.177">
        <ele>49.65</ele>
        <time>2014-01-08T14:27:49Z</time>
      </trkpt>
      <trkpt lat="48.56149" lon="2.17687">
        <ele>48.68</ele>
        <time>2014-01-08T14:28:02Z</time>
      </trkpt>
      <trkpt lat="48.5614" lon="2.17676">
        <ele>50.13</ele>
        <time>2014-01-08T14:28:13Z</time>
      </trkpt>
      <trkpt lat="48.56133" lon="2.17665">
        <ele>53.97</ele>
        <time>2014-01-08T14:28:25Z</time>
      </trkpt>
      <trkpt lat="48.56124" lon="2.17645">
        <ele>55.89</ele>
        <time>2014-01-08T14:28:40Z</time>
      </trkpt>
      <trkpt lat="48.56115" lon="2.17618">
        <ele>56.37</ele>
        <time>2014-01-08T14:28:58Z</time>
      </trkpt>
      <trkpt lat="48.56101" lon="2.17602">
        <ele>55.89</ele>
        <time>2014-01-08T14:29:13Z</time>
      </trkpt>
      <trkpt lat="48.56094" lon="2.17596">
        <ele>55.41</ele>
        <time>2014-01-08T14:29:20Z</time>
      </trkpt>
      <trkpt lat="48.5609" lon="2.17594">
        <ele>54.93</ele>
        <time>2014-01-08T14:29:24Z</time>
      </trkpt>
      <trkpt lat="48.56084" lon="2.17587">
        <ele>53.97</ele>
        <time>2014-01-08T14:29:29Z</time>
      </trkpt>
      <trkpt lat="48.56067" lon="2.17573">
        <ele>50.13</ele>
        <time>2014-01-08T14:29:44Z</time>
      </trkpt>
      <trkpt lat="48.56048" lon="2.17557">
        <ele>53.01</ele>
        <time>2014-01-08T14:30:03Z</time>
      </trkpt>
      <trkpt lat="48.56038" lon="2.1755">
        <ele>56.37</ele>
        <time>2014-01-08T14:30:14Z</time>
      </trkpt>
      <trkpt lat="48.56018" lon="2.17532">
        <ele>59.26</ele>
        <time>2014-01-08T14:30:33Z</time>
      </trkpt>
      <trkpt lat="48.56001" lon="2.1752">
        <ele>59.74</ele>
        <time>2014-01-08T14:30:51Z</time>
      </trkpt>
      <trkpt lat="48.55995" lon="2.17514">
        <ele>59.74</ele>
        <time>2014-01-08T14:30:57Z</time>
      </trkpt>
      <trkpt lat="48.55976" lon="2.17494">
        <ele>61.18</ele>
        <time>2014-01-08T14:31:16Z</time>
      </trkpt>
      <trkpt lat="48.55964" lon="2.17475">
        <ele>62.62</ele>
        <time>2014-01-08T14:31:32Z</time>
      </trkpt>
      <trkpt lat="48.55961" lon="2.17456">
        <ele>63.58</ele>
        <time>2014-01-08T14:31:44Z</time>
      </trkpt>
      <trkpt lat="48.55958" lon="2.1743">
        <ele>61.18</ele>
        <time>2014-01-08T14:32:00Z</time>
      </trkpt>
      <trkpt lat="48.55953" lon="2.17402">
        <ele>60.7</ele>
        <time>2014-01-08T14:32:15Z</time>
      </trkpt>
      <trkpt lat="48.55949" lon="2.17369">
        <ele>61.66</ele>
        <time>2014-01-08T14:32:33Z</time>
      </trkpt>
      <trkpt lat="48.55945" lon="2.17338">
        <ele>66.47</ele>
        <time>2014-01-08T14:32:50Z</time>
      </trkpt>
      <trkpt lat="48.55939" lon="2.1731">
        <ele>69.35</ele>
        <time>2014-01-08T14:33:08Z</time>
      </trkpt>
      <trkpt lat="48.55938" lon="2.17305">
        <ele>70.79</ele>
        <time>2014-01-08T14:33:14Z</time>
      </trkpt>
      <trkpt lat="48.55937" lon="2.17283">
        <ele>69.35</ele>
        <time>2014-01-08T14:33:28Z</time>
      </trkpt>
      <trkpt lat="48.55934" lon="2.17255">
        <ele>65.99</ele>
        <time>2014-01-08T14:33:46Z</time>
      </trkpt>
      <trkpt lat="48.55928" lon="2.17226">
        <ele>69.35</ele>
        <time>2014-01-08T14:34:03Z</time>
      </trkpt>
      <trkpt lat="48.55926" lon="2.17219">
        <ele>68.87</ele>
        <time>2014-01-08T14:34:12Z</time>
      </trkpt>
      <trkpt lat="48.55921" lon="2.17199">
        <ele>71.76</ele>
        <time>2014-01-08T14:34:29Z</time>
      </trkpt>
      <trkpt lat="48.55919" lon="2.17193">
        <ele>72.72</ele>
        <time>2014-01-08T14:34:42Z</time>
      </trkpt>
      <trkpt lat="48.55919" lon="2.17193">
        <ele>73.2</ele>
        <time>2014-01-08T14:35:09Z</time>
      </trkpt>
      <trkpt lat="48.55915" lon="2.17183">
        <ele>74.16</ele>
        <time>2014-01-08T14:35:30Z</time>
      </trkpt>
      <trkpt lat="48.55903" lon="2.17149">
        <ele>75.6</ele>
        <time>2014-01-08T14:35:50Z</time>
      </trkpt>
      <trkpt lat="48.55894" lon="2.17124">
        <ele>78</ele>
        <time>2014-01-08T14:36:05Z</time>
      </trkpt>
      <trkpt lat="48.5589" lon="2.17096">
        <ele>77.52</ele>
        <time>2014-01-08T14:36:21Z</time>
      </trkpt>
      <trkpt lat="48.55886" lon="2.17068">
        <ele>76.56</ele>
        <time>2014-01-08T14:36:39Z</time>
      </trkpt>
      <trkpt lat="48.55881" lon="2.17036">
        <ele>78</ele>
        <time>2014-01-08T14:36:58Z</time>
      </trkpt>
      <trkpt lat="48.55876" lon="2.17005">
        <ele>77.52</ele>
        <time>2014-01-08T14:37:17Z</time>
      </trkpt>
      <trkpt lat="48.55872" lon="2.16978">
        <ele>76.08</ele>
        <time>2014-01-08T14:37:34Z</time>
      </trkpt>
      <trkpt lat="48.55871" lon="2.16974">
        <ele>75.12</ele>
        <time>2014-01-08T14:37:43Z</time>
      </trkpt>
      <trkpt lat="48.55864" lon="2.16936">
        <ele>76.08</ele>
        <time>2014-01-08T14:38:03Z</time>
      </trkpt>
      <trkpt lat="48.55854" lon="2.16902">
        <ele>76.56</ele>
        <time>2014-01-08T14:38:24Z</time>
      </trkpt>
      <trkpt lat="48.55852" lon="2.16887">
        <ele>75.6</ele>
        <time>2014-01-08T14:38:39Z</time>
      </trkpt>
      <trkpt lat="48.55851" lon="2.16885">
        <ele>75.6</ele>
        <time>2014-01-08T14:38:42Z</time>
      </trkpt>
      <trkpt lat="48.55842" lon="2.16861">
        <ele>76.56</ele>
        <time>2014-01-08T14:38:57Z</time>
      </trkpt>
      <trkpt lat="48.55838" lon="2.16849">
        <ele>76.08</ele>
        <time>2014-01-08T14:39:11Z</time>
      </trkpt>
      <trkpt lat="48.55832" lon="2.16832">
        <ele>76.56</ele>
        <time>2014-01-08T14:39:24Z</time>
      </trkpt>
      <trkpt lat="48.55814" lon="2.16799">
        <ele>77.52</ele>
        <time>2014-01-08T14:39:44Z</time>
      </trkpt>
      <trkpt lat="48.55801" lon="2.16769">
        <ele>78.48</ele>
        <time>2014-01-08T14:40:02Z</time>
      </trkpt>
      <trkpt lat="48.55795" lon="2.16751">
        <ele>77.52</ele>
        <time>2014-01-08T14:40:17Z</time>
      </trkpt>
      <trkpt lat="48.55794" lon="2.16744">
        <ele>77.52</ele>
        <time>2014-01-08T14:40:22Z</time>
      </trkpt>
      <trkpt lat="48.55791" lon="2.16719">
        <ele>78.48</ele>
        <time>2014-01-08T14:40:36Z</time>
      </trkpt>
      <trkpt lat="48.5579" lon="2.16695">
        <ele>77.04</ele>
        <time>2014-01-08T14:40:50Z</time>
      </trkpt>
      <trkpt lat="48.55785" lon="2.16669">
        <ele>76.56</ele>
        <time>2014-01-08T14:41:05Z</time>
      </trkpt>
      <trkpt lat="48.55783" lon="2.1665">
        <ele>77.52</ele>
        <time>2014-01-08T14:41:20Z</time>
      </trkpt>
      <trkpt lat="48.55779" lon="2.16628">
        <ele>78</ele>
        <time>2014-01-08T14:41:33Z</time>
      </trkpt>
      <trkpt lat="48.55777" lon="2.16603">
        <ele>75.12</ele>
        <time>2014-01-08T14:41:48Z</time>
      </trkpt>
      <trkpt lat="48.55772" lon="2.16577">
        <ele>77.52</ele>
        <time>2014-01-08T14:42:01Z</time>
      </trkpt>
      <trkpt lat="48.55767" lon="2.16555">
        <ele>77.04</ele>
        <time>2014-01-08T14:42:16Z</time>
      </trkpt>
      <trkpt lat="48.55763" lon="2.16531">
        <ele>76.56</ele>
        <time>2014-01-08T14:42:32Z</time>
      </trkpt>
      <trkpt lat="48.55757" lon="2.16508">
        <ele>75.12</ele>
        <time>2014-01-08T14:42:46Z</time>
      </trkpt>
      <trkpt lat="48.5575" lon="2.16486">
        <ele>74.64</ele>
        <time>2014-01-08T14:43:00Z</time>
      </trkpt>
      <trkpt lat="48.55744" lon="2.16468">
        <ele>74.16</ele>
        <time>2014-01-08T14:43:12Z</time>
      </trkpt>
      <trkpt lat="48.55732" lon="2.16444">
        <ele>74.16</ele>
        <time>2014-01-08T14:43:28Z</time>
      </trkpt>
      <trkpt lat="48.55723" lon="2.16422">
        <ele>73.68</ele>
        <time>2014-01-08T14:43:43Z</time>
      </trkpt>
      <trkpt lat="48.55715" lon="2.164">
        <ele>72.72</ele>
        <time>2014-01-08T14:43:58Z</time>
      </trkpt>
      <trkpt lat="48.55703" lon="2.16365">
        <ele>72.24</ele>
        <time>2014-01-08T14:44:19Z</time>
      </trkpt>
      <trkpt lat="48.55696" lon="2.16338">
        <ele>71.76</ele>
        <time>2014-01-08T14:44:37Z</time>
      </trkpt>
      <trkpt lat="48.5569" lon="2.16311">
        <ele>70.79</ele>
        <time>2014-01-08T14:44:53Z</time>
      </trkpt>
      <trkpt lat="48.55682" lon="2.16276">
        <ele>72.24</ele>
        <time>2014-01-08T14:45:12Z</time>
      </trkpt>
      <trkpt lat="48.55676" lon="2.16245">
        <ele>71.27</ele>
        <time>2014-01-08T14:45:30Z</time>
      </trkpt>
      <trkpt lat="48.55671" lon="2.16218">
        <ele>69.35</ele>
        <time>2014-01-08T14:45:48Z</time>
      </trkpt>
      <trkpt lat="48.55667" lon="2.16198">
        <ele>67.43</ele>
        <time>2014-01-08T14:46:01Z</time>
      </trkpt>
      <trkpt lat="48.55663" lon="2.16186">
        <ele>65.99</ele>
        <time>2014-01-08T14:46:08Z</time>
      </trkpt>
      <trkpt lat="48.55661" lon="2.16173">
        <ele>67.43</ele>
        <time>2014-01-08T14:46:24Z</time>
      </trkpt>
      <trkpt lat="48.55656" lon="2.16155">
        <ele>66.95</ele>
        <time>2014-01-08T14:46:35Z</time>
      </trkpt>
      <trkpt lat="48.55655" lon="2.16148">
        <ele>66.95</ele>
        <time>2014-01-08T14:46:48Z</time>
      </trkpt>
      <trkpt lat="48.55645" lon="2.16121">
        <ele>66.47</ele>
        <time>2014-01-08T14:47:04Z</time>
      </trkpt>
      <trkpt lat="48.55636" lon="2.16098">
        <ele>65.99</ele>
        <time>2014-01-08T14:47:16Z</time>
      </trkpt>
      <trkpt lat="48.55628" lon="2.16078">
        <ele>64.07</ele>
        <time>2014-01-08T14:47:27Z</time>
      </trkpt>
      <trkpt lat="48.55616" lon="2.16044">
        <ele>67.91</ele>
        <time>2014-01-08T14:47:46Z</time>
      </trkpt>
      <trkpt lat="48.55601" lon="2.16007">
        <ele>65.51</ele>
        <time>2014-01-08T14:48:10Z</time>
      </trkpt>
      <trkpt lat="48.55591" lon="2.15977">
        <ele>66.47</ele>
        <time>2014-01-08T14:48:28Z</time>
      </trkpt>
      <trkpt lat="48.55583" lon="2.15953">
        <ele>65.51</ele>
        <time>2014-01-08T14:48:43Z</time>
      </trkpt>
      <trkpt lat="48.55572" lon="2.15923">
        <ele>65.51</ele>
        <time>2014-01-08T14:49:02Z</time>
      </trkpt>
      <trkpt lat="48.55556" lon="2.15892">
        <ele>64.07</ele>
        <time>2014-01-08T14:49:23Z</time>
      </trkpt>
      <trkpt lat="48.55554" lon="2.15887">
        <ele>64.55</ele>
        <time>2014-01-08T14:49:39Z</time>
      </trkpt>
      <trkpt lat="48.55541" lon="2.1586">
        <ele>65.51</ele>
        <time>2014-01-08T14:49:51Z</time>
      </trkpt>
      <trkpt lat="48.55525" lon="2.15829">
        <ele>65.99</ele>
        <time>2014-01-08T14:50:10Z</time>
      </trkpt>
      <trkpt lat="48.55514" lon="2.15805">
        <ele>69.35</ele>
        <time>2014-01-08T14:50:27Z</time>
      </trkpt>
      <trkpt lat="48.55503" lon="2.15781">
        <ele>67.91</ele>
        <time>2014-01-08T14:50:43Z</time>
      </trkpt>
      <trkpt lat="48.55499" lon="2.15769">
        <ele>66.95</ele>
        <time>2014-01-08T14:50:50Z</time>
      </trkpt>
      <trkpt lat="48.5549" lon="2.15737">
        <ele>63.1</ele>
        <time>2014-01-08T14:51:07Z</time>
      </trkpt>
      <trkpt lat="48.55489" lon="2.15728">
        <ele>62.62</ele>
        <time>2014-01-08T14:51:13Z</time>
      </trkpt>
      <trkpt lat="48.55505" lon="2.15712">
        <ele>59.74</ele>
        <time>2014-01-08T14:51:30Z</time>
      </trkpt>
      <trkpt lat="48.55527" lon="2.15699">
        <ele>58.78</ele>
        <time>2014-01-08T14:51:50Z</time>
      </trkpt>
      <trkpt lat="48.55552" lon="2.15683">
        <ele>57.34</ele>
        <time>2014-01-08T14:52:13Z</time>
      </trkpt>
      <trkpt lat="48.55574" lon="2.15666">
        <ele>56.86</ele>
        <time>2014-01-08T14:52:34Z</time>
      </trkpt>
      <trkpt lat="48.55596" lon="2.15653">
        <ele>53.49</ele>
        <time>2014-01-08T14:52:55Z</time>
      </trkpt>
      <trkpt lat="48.55619" lon="2.15635">
        <ele>51.09</ele>
        <time>2014-01-08T14:53:19Z</time>
      </trkpt>
      <trkpt lat="48.55639" lon="2.15619">
        <ele>49.16</ele>
        <time>2014-01-08T14:53:38Z</time>
      </trkpt>
      <trkpt lat="48.55636" lon="2.15609">
        <ele>48.68</ele>
        <time>2014-01-08T14:53:48Z</time>
      </trkpt>
      <trkpt lat="48.55622" lon="2.1558">
        <ele>47.72</ele>
        <time>2014-01-08T14:54:07Z</time>
      </trkpt>
      <trkpt lat="48.5561" lon="2.15554">
        <ele>47.24</ele>
        <time>2014-01-08T14:54:26Z</time>
      </trkpt>
      <trkpt lat="48.55599" lon="2.15533">
        <ele>48.2</ele>
        <time>2014-01-08T14:54:44Z</time>
      </trkpt>
      <trkpt lat="48.55589" lon="2.15511">
        <ele>48.2</ele>
        <time>2014-01-08T14:55:01Z</time>
      </trkpt>
      <trkpt lat="48.55584" lon="2.15494">
        <ele>48.2</ele>
        <time>2014-01-08T14:55:17Z</time>
      </trkpt>
      <trkpt lat="48.5558" lon="2.15475">
        <ele>48.2</ele>
        <time>2014-01-08T14:55:31Z</time>
      </trkpt>
      <trkpt lat="48.55576" lon="2.15447">
        <ele>47.24</ele>
        <time>2014-01-08T14:55:47Z</time>
      </trkpt>
      <trkpt lat="48.55575" lon="2.1544">
        <ele>47.72</ele>
        <time>2014-01-08T14:56:01Z</time>
      </trkpt>
      <trkpt lat="48.55572" lon="2.1543">
        <ele>48.2</ele>
        <time>2014-01-08T14:56:14Z</time>
      </trkpt>
      <trkpt lat="48.55569" lon="2.15421">
        <ele>48.2</ele>
        <time>2014-01-08T14:56:29Z</time>
      </trkpt>
      <trkpt lat="48.55566" lon="2.15407">
        <ele>48.68</ele>
        <time>2014-01-08T14:56:46Z</time>
      </trkpt>
      <trkpt lat="48.55566" lon="2.15402">
        <ele>49.16</ele>
        <time>2014-01-08T14:57:05Z</time>
      </trkpt>
      <trkpt lat="48.55558" lon="2.15382">
        <ele>47.72</ele>
        <time>2014-01-08T14:57:20Z</time>
      </trkpt>
      <trkpt lat="48.55553" lon="2.15365">
        <ele>47.72</ele>
        <time>2014-01-08T14:57:32Z</time>
      </trkpt>
      <trkpt lat="48.55548" lon="2.15343">
        <ele>46.76</ele>
        <time>2014-01-08T14:57:48Z</time>
      </trkpt>
      <trkpt lat="48.55539" lon="2.15316">
        <ele>45.8</ele>
        <time>2014-01-08T14:58:04Z</time>
      </trkpt>
      <trkpt lat="48.55534" lon="2.15298">
        <ele>46.76</ele>
        <time>2014-01-08T14:58:16Z</time>
      </trkpt>
      <trkpt lat="48.55527" lon="2.15272">
        <ele>49.16</ele>
        <time>2014-01-08T14:58:30Z</time>
      </trkpt>
      <trkpt lat="48.55522" lon="2.15253">
        <ele>50.61</ele>
        <time>2014-01-08T14:58:44Z</time>
      </trkpt>
      <trkpt lat="48.55517" lon="2.15234">
        <ele>49.65</ele>
        <time>2014-01-08T14:58:59Z</time>
      </trkpt>
      <trkpt lat="48.55509" lon="2.15213">
        <ele>49.16</ele>
        <time>2014-01-08T14:59:16Z</time>
      </trkpt>
      <trkpt lat="48.55503" lon="2.15193">
        <ele>48.2</ele>
        <time>2014-01-08T14:59:30Z</time>
      </trkpt>
      <trkpt lat="48.55496" lon="2.15174">
        <ele>46.76</ele>
        <time>2014-01-08T14:59:44Z</time>
      </trkpt>
      <trkpt lat="48.55486" lon="2.15156">
        <ele>47.24</ele>
        <time>2014-01-08T14:59:58Z</time>
      </trkpt>
      <trkpt lat="48.55482" lon="2.15151">
        <ele>47.24</ele>
        <time>2014-01-08T15:00:04Z</time>
      </trkpt>
      <trkpt lat="48.55475" lon="2.15141">
        <ele>48.68</ele>
        <time>2014-01-08T15:00:14Z</time>
      </trkpt>
      <trkpt lat="48.55464" lon="2.15129">
        <ele>49.65</ele>
        <time>2014-01-08T15:00:26Z</time>
      </trkpt>
      <trkpt lat="48.55457" lon="2.15118">
        <ele>50.61</ele>
        <time>2014-01-08T15:00:36Z</time>
      </trkpt>
      <trkpt lat="48.55446" lon="2.15104">
        <ele>51.57</ele>
        <time>2014-01-08T15:00:52Z</time>
      </trkpt>
      <trkpt lat="48.55445" lon="2.15103">
        <ele>52.05</ele>
        <time>2014-01-08T15:00:53Z</time>
      </trkpt>
      <trkpt lat="48.55434" lon="2.15086">
        <ele>53.49</ele>
        <time>2014-01-08T15:01:09Z</time>
      </trkpt>
      <trkpt lat="48.55426" lon="2.15067">
        <ele>52.53</ele>
        <time>2014-01-08T15:01:25Z</time>
      </trkpt>
      <trkpt lat="48.55414" lon="2.15049">
        <ele>52.53</ele>
        <time>2014-01-08T15:01:42Z</time>
      </trkpt>
      <trkpt lat="48.55409" lon="2.15033">
        <ele>54.45</ele>
        <time>2014-01-08T15:01:55Z</time>
      </trkpt>
      <trkpt lat="48.55401" lon="2.15016">
        <ele>54.93</ele>
        <time>2014-01-08T15:02:10Z</time>
      </trkpt>
      <trkpt lat="48.55395" lon="2.15002">
        <ele>54.93</ele>
        <time>2014-01-08T15:02:23Z</time>
      </trkpt>
      <trkpt lat="48.55392" lon="2.14998">
        <ele>53.97</ele>
        <time>2014-01-08T15:02:40Z</time>
      </trkpt>
      <trkpt lat="48.55393" lon="2.14998">
        <ele>53.49</ele>
        <time>2014-01-08T15:03:03Z</time>
      </trkpt>
      <trkpt lat="48.55392" lon="2.14995">
        <ele>53.49</ele>
        <time>2014-01-08T15:03:24Z</time>
      </trkpt>
      <trkpt lat="48.55383" lon="2.14981">
        <ele>53.01</ele>
        <time>2014-01-08T15:03:37Z</time>
      </trkpt>
      <trkpt lat="48.55374" lon="2.14964">
        <ele>53.49</ele>
        <time>2014-01-08T15:03:52Z</time>
      </trkpt>
      <trkpt lat="48.55364" lon="2.14947">
        <ele>55.89</ele>
        <time>2014-01-08T15:04:06Z</time>
      </trkpt>
      <trkpt lat="48.55362" lon="2.14945">
        <ele>55.89</ele>
        <time>2014-01-08T15:04:08Z</time>
      </trkpt>
      <trkpt lat="48.55353" lon="2.14928">
        <ele>57.34</ele>
        <time>2014-01-08T15:04:23Z</time>
      </trkpt>
      <trkpt lat="48.55346" lon="2.14908">
        <ele>57.82</ele>
        <time>2014-01-08T15:04:38Z</time>
      </trkpt>
      <trkpt lat="48.55344" lon="2.1489">
        <ele>59.74</ele>
        <time>2014-01-08T15:04:52Z</time>
      </trkpt>
      <trkpt lat="48.55342" lon="2.14867">
        <ele>59.74</ele>
        <time>2014-01-08T15:05:06Z</time>
      </trkpt>
      <trkpt lat="48.5534" lon="2.14851">
        <ele>61.18</ele>
        <time>2014-01-08T15:05:19Z</time>
      </trkpt>
      <trkpt lat="48.55346" lon="2.14821">
        <ele>60.7</ele>
        <time>2014-01-08T15:05:34Z</time>
      </trkpt>
      <trkpt lat="48.5535" lon="2.14797">
        <ele>58.3</ele>
        <time>2014-01-08T15:05:50Z</time>
      </trkpt>
      <trkpt lat="48.55351" lon="2.14774">
        <ele>56.37</ele>
        <time>2014-01-08T15:06:05Z</time>
      </trkpt>
      <trkpt lat="48.55353" lon="2.14755">
        <ele>53.97</ele>
        <time>2014-01-08T15:06:19Z</time>
      </trkpt>
      <trkpt lat="48.55352" lon="2.14729">
        <ele>55.89</ele>
        <time>2014-01-08T15:06:36Z</time>
      </trkpt>
      <trkpt lat="48.55348" lon="2.14709">
        <ele>56.86</ele>
        <time>2014-01-08T15:06:51Z</time>
      </trkpt>
      <trkpt lat="48.55345" lon="2.14691">
        <ele>58.78</ele>
        <time>2014-01-08T15:07:04Z</time>
      </trkpt>
      <trkpt lat="48.55345" lon="2.1469">
        <ele>58.78</ele>
        <time>2014-01-08T15:07:05Z</time>
      </trkpt>
      <trkpt lat="48.55342" lon="2.14676">
        <ele>59.26</ele>
        <time>2014-01-08T15:07:15Z</time>
      </trkpt>
      <trkpt lat="48.55339" lon="2.14664">
        <ele>58.78</ele>
        <time>2014-01-08T15:07:23Z</time>
      </trkpt>
      <trkpt lat="48.55335" lon="2.14643">
        <ele>58.78</ele>
        <time>2014-01-08T15:07:38Z</time>
      </trkpt>
      <trkpt lat="48.55331" lon="2.14623">
        <ele>61.18</ele>
        <time>2014-01-08T15:07:54Z</time>
      </trkpt>
      <trkpt lat="48.55325" lon="2.14601">
        <ele>64.55</ele>
        <time>2014-01-08T15:08:08Z</time>
      </trkpt>
      <trkpt lat="48.55324" lon="2.14574">
        <ele>64.55</ele>
        <time>2014-01-08T15:08:25Z</time>
      </trkpt>
      <trkpt lat="48.55326" lon="2.14546">
        <ele>58.3</ele>
        <time>2014-01-08T15:08:41Z</time>
      </trkpt>
      <trkpt lat="48.55328" lon="2.1452">
        <ele>53.01</ele>
        <time>2014-01-08T15:08:58Z</time>
      </trkpt>
      <trkpt lat="48.55327" lon="2.145">
        <ele>51.09</ele>
        <time>2014-01-08T15:09:12Z</time>
      </trkpt>
      <trkpt lat="48.55322" lon="2.14476">
        <ele>54.45</ele>
        <time>2014-01-08T15:09:30Z</time>
      </trkpt>
      <trkpt lat="48.5532" lon="2.14454">
        <ele>57.34</ele>
        <time>2014-01-08T15:09:46Z</time>
      </trkpt>
      <trkpt lat="48.55318" lon="2.14434">
        <ele>61.66</ele>
        <time>2014-01-08T15:10:00Z</time>
      </trkpt>
      <trkpt lat="48.55314" lon="2.14417">
        <ele>64.07</ele>
        <time>2014-01-08T15:10:10Z</time>
      </trkpt>
      <trkpt lat="48.55313" lon="2.14391">
        <ele>66.47</ele>
        <time>2014-01-08T15:10:27Z</time>
      </trkpt>
      <trkpt lat="48.55312" lon="2.14384">
        <ele>65.03</ele>
        <time>2014-01-08T15:10:37Z</time>
      </trkpt>
      <trkpt lat="48.55308" lon="2.14367">
        <ele>64.55</ele>
        <time>2014-01-08T15:10:49Z</time>
      </trkpt>
      <trkpt lat="48.55305" lon="2.14342">
        <ele>61.66</ele>
        <time>2014-01-08T15:11:06Z</time>
      </trkpt>
      <trkpt lat="48.55302" lon="2.14318">
        <ele>65.03</ele>
        <time>2014-01-08T15:11:24Z</time>
      </trkpt>
      <trkpt lat="48.55301" lon="2.14291">
        <ele>65.03</ele>
        <time>2014-01-08T15:11:41Z</time>
      </trkpt>
      <trkpt lat="48.55298" lon="2.14261">
        <ele>65.03</ele>
        <time>2014-01-08T15:11:57Z</time>
      </trkpt>
      <trkpt lat="48.55296" lon="2.14238">
        <ele>63.58</ele>
        <time>2014-01-08T15:12:12Z</time>
      </trkpt>
      <trkpt lat="48.55292" lon="2.14217">
        <ele>66.47</ele>
        <time>2014-01-08T15:12:29Z</time>
      </trkpt>
      <trkpt lat="48.55287" lon="2.14196">
        <ele>68.39</ele>
        <time>2014-01-08T15:12:45Z</time>
      </trkpt>
      <trkpt lat="48.55282" lon="2.14168">
        <ele>66.95</ele>
        <time>2014-01-08T15:13:03Z</time>
      </trkpt>
      <trkpt lat="48.55277" lon="2.14144">
        <ele>69.35</ele>
        <time>2014-01-08T15:13:19Z</time>
      </trkpt>
      <trkpt lat="48.55272" lon="2.14122">
        <ele>73.2</ele>
        <time>2014-01-08T15:13:33Z</time>
      </trkpt>
      <trkpt lat="48.55268" lon="2.14099">
        <ele>78</ele>
        <time>2014-01-08T15:13:49Z</time>
      </trkpt>
      <trkpt lat="48.55256" lon="2.14077">
        <ele>74.16</ele>
        <time>2014-01-08T15:14:03Z</time>
      </trkpt>
      <trkpt lat="48.55244" lon="2.14054">
        <ele>73.68</ele>
        <time>2014-01-08T15:14:19Z</time>
      </trkpt>
      <trkpt lat="48.55232" lon="2.14034">
        <ele>75.6</ele>
        <time>2014-01-08T15:14:37Z</time>
      </trkpt>
      <trkpt lat="48.55219" lon="2.14013">
        <ele>71.76</ele>
        <time>2014-01-08T15:14:55Z</time>
      </trkpt>
      <trkpt lat="48.55208" lon="2.13993">
        <ele>72.24</ele>
        <time>2014-01-08T15:15:12Z</time>
      </trkpt>
      <trkpt lat="48.552" lon="2.13963">
        <ele>69.35</ele>
        <time>2014-01-08T15:15:28Z</time>
      </trkpt>
      <trkpt lat="48.55197" lon="2.13929">
        <ele>66.47</ele>
        <time>2014-01-08T15:15:46Z</time>
      </trkpt>
      <trkpt lat="48.55195" lon="2.13919">
        <ele>66.47</ele>
        <time>2014-01-08T15:15:51Z</time>
      </trkpt>
      <trkpt lat="48.55186" lon="2.13889">
        <ele>65.51</ele>
        <time>2014-01-08T15:16:09Z</time>
      </trkpt>
      <trkpt lat="48.55182" lon="2.13866">
        <ele>64.55</ele>
        <time>2014-01-08T15:16:24Z</time>
      </trkpt>
      <trkpt lat="48.55179" lon="2.13843">
        <ele>64.55</ele>
        <time>2014-01-08T15:16:39Z</time>
      </trkpt>
      <trkpt lat="48.55172" lon="2.13821">
        <ele>67.43</ele>
        <time>2014-01-08T15:16:52Z</time>
      </trkpt>
      <trkpt lat="48.55171" lon="2.13809">
        <ele>68.39</ele>
        <time>2014-01-08T15:16:58Z</time>
      </trkpt>
      <trkpt lat="48.55147" lon="2.13768">
        <ele>64.55</ele>
        <time>2014-01-08T15:17:25Z</time>
      </trkpt>
      <trkpt lat="48.55138" lon="2.13745">
        <ele>63.1</ele>
        <time>2014-01-08T15:17:39Z</time>
      </trkpt>
      <trkpt lat="48.55135" lon="2.13736">
        <ele>64.55</ele>
        <time>2014-01-08T15:17:45Z</time>
      </trkpt>
      <trkpt lat="48.55134" lon="2.13701">
        <ele>72.72</ele>
        <time>2014-01-08T15:18:04Z</time>
      </trkpt>
      <trkpt lat="48.55132" lon="2.13692">
        <ele>74.64</ele>
        <time>2014-01-08T15:18:09Z</time>
      </trkpt>
      <trkpt lat="48.55123" lon="2.1366">
        <ele>69.35</ele>
        <time>2014-01-08T15:18:25Z</time>
      </trkpt>
      <trkpt lat="48.55118" lon="2.13619">
        <ele>61.66</ele>
        <time>2014-01-08T15:18:46Z</time>
      </trkpt>
      <trkpt lat="48.55104" lon="2.13585">
        <ele>58.3</ele>
        <time>2014-01-08T15:19:07Z</time>
      </trkpt>
      <trkpt lat="48.55097" lon="2.13558">
        <ele>55.41</ele>
        <time>2014-01-08T15:19:23Z</time>
      </trkpt>
      <trkpt lat="48.55086" lon="2.13533">
        <ele>54.93</ele>
        <time>2014-01-08T15:19:39Z</time>
      </trkpt>
      <trkpt lat="48.55072" lon="2.13506">
        <ele>51.57</ele>
        <time>2014-01-08T15:19:58Z</time>
      </trkpt>
      <trkpt lat="48.55057" lon="2.13482">
        <ele>48.2</ele>
        <time>2014-01-08T15:20:16Z</time>
      </trkpt>
      <trkpt lat="48.55044" lon="2.13461">
        <ele>47.72</ele>
        <time>2014-01-08T15:20:32Z</time>
      </trkpt>
      <trkpt lat="48.55026" lon="2.13442">
        <ele>49.16</ele>
        <time>2014-01-08T15:20:51Z</time>
      </trkpt>
      <trkpt lat="48.55005" lon="2.13419">
        <ele>50.61</ele>
        <time>2014-01-08T15:21:12Z</time>
      </trkpt>
      <trkpt lat="48.54985" lon="2.13403">
        <ele>51.09</ele>
        <time>2014-01-08T15:21:32Z</time>
      </trkpt>
      <trkpt lat="48.54967" lon="2.13392">
        <ele>51.57</ele>
        <time>2014-01-08T15:21:48Z</time>
      </trkpt>
      <trkpt lat="48.54953" lon="2.13381">
        <ele>53.97</ele>
        <time>2014-01-08T15:22:03Z</time>
      </trkpt>
      <trkpt lat="48.54947" lon="2.13378">
        <ele>53.49</ele>
        <time>2014-01-08T15:22:09Z</time>
      </trkpt>
      <trkpt lat="48.54945" lon="2.13361">
        <ele>53.97</ele>
        <time>2014-01-08T15:22:25Z</time>
      </trkpt>
      <trkpt lat="48.54945" lon="2.13352">
        <ele>54.45</ele>
        <time>2014-01-08T15:22:40Z</time>
      </trkpt>
      <trkpt lat="48.54946" lon="2.13343">
        <ele>54.45</ele>
        <time>2014-01-08T15:22:46Z</time>
      </trkpt>
      <trkpt lat="48.54945" lon="2.13313">
        <ele>52.53</ele>
        <time>2014-01-08T15:23:03Z</time>
      </trkpt>
      <trkpt lat="48.54945" lon="2.13306">
        <ele>52.05</ele>
        <time>2014-01-08T15:23:07Z</time>
      </trkpt>
      <trkpt lat="48.54946" lon="2.13272">
        <ele>58.3</ele>
        <time>2014-01-08T15:23:26Z</time>
      </trkpt>
      <trkpt lat="48.54949" lon="2.13246">
        <ele>62.62</ele>
        <time>2014-01-08T15:23:40Z</time>
      </trkpt>
      <trkpt lat="48.54942" lon="2.13221">
        <ele>66.47</ele>
        <time>2014-01-08T15:23:56Z</time>
      </trkpt>
      <trkpt lat="48.54942" lon="2.13217">
        <ele>66.95</ele>
        <time>2014-01-08T15:23:58Z</time>
      </trkpt>
      <trkpt lat="48.5494" lon="2.13182">
        <ele>71.76</ele>
        <time>2014-01-08T15:24:15Z</time>
      </trkpt>
      <trkpt lat="48.54939" lon="2.13177">
        <ele>72.24</ele>
        <time>2014-01-08T15:24:18Z</time>
      </trkpt>
      <trkpt lat="48.54941" lon="2.13147">
        <ele>67.91</ele>
        <time>2014-01-08T15:24:36Z</time>
      </trkpt>
      <trkpt lat="48.54941" lon="2.13142">
        <ele>66.95</ele>
        <time>2014-01-08T15:24:39Z</time>
      </trkpt>
      <trkpt lat="48.54942" lon="2.1313">
        <ele>66.95</ele>
        <time>2014-01-08T15:24:46Z</time>
      </trkpt>
      <trkpt lat="48.54942" lon="2.13124">
        <ele>67.43</ele>
        <time>2014-01-08T15:24:51Z</time>
      </trkpt>
      <trkpt lat="48.54942" lon="2.1312">
        <ele>67.43</ele>
        <time>2014-01-08T15:24:53Z</time>
      </trkpt>
      <trkpt lat="48.54943" lon="2.13113">
        <ele>67.91</ele>
        <time>2014-01-08T15:24:57Z</time>
      </trkpt>
      <trkpt lat="48.54939" lon="2.13086">
        <ele>66.47</ele>
        <time>2014-01-08T15:25:13Z</time>
      </trkpt>
      <trkpt lat="48.54936" lon="2.13077">
        <ele>65.51</ele>
        <time>2014-01-08T15:25:19Z</time>
      </trkpt>
      <trkpt lat="48.54944" lon="2.13053">
        <ele>65.03</ele>
        <time>2014-01-08T15:25:33Z</time>
      </trkpt>
      <trkpt lat="48.54949" lon="2.13031">
        <ele>62.62</ele>
        <time>2014-01-08T15:25:46Z</time>
      </trkpt>
      <trkpt lat="48.54951" lon="2.13023">
        <ele>62.14</ele>
        <time>2014-01-08T15:25:51Z</time>
      </trkpt>
      <trkpt lat="48.54966" lon="2.13002">
        <ele>57.34</ele>
        <time>2014-01-08T15:26:07Z</time>
      </trkpt>
      <trkpt lat="48.54982" lon="2.12982">
        <ele>54.93</ele>
        <time>2014-01-08T15:26:24Z</time>
      </trkpt>
      <trkpt lat="48.54994" lon="2.12965">
        <ele>52.53</ele>
        <time>2014-01-08T15:26:38Z</time>
      </trkpt>
      <trkpt lat="48.55003" lon="2.12955">
        <ele>52.53</ele>
        <time>2014-01-08T15:26:46Z</time>
      </trkpt>
      <trkpt lat="48.55017" lon="2.12941">
        <ele>52.53</ele>
        <time>2014-01-08T15:27:01Z</time>
      </trkpt>
      <trkpt lat="48.55018" lon="2.12941">
        <ele>52.53</ele>
        <time>2014-01-08T15:27:05Z</time>
      </trkpt>
      <trkpt lat="48.55011" lon="2.1293">
        <ele>52.05</ele>
        <time>2014-01-08T15:27:13Z</time>
      </trkpt>
      <trkpt lat="48.55009" lon="2.12916">
        <ele>52.53</ele>
        <time>2014-01-08T15:27:22Z</time>
      </trkpt>
      <trkpt lat="48.5501" lon="2.12913">
        <ele>52.53</ele>
        <time>2014-01-08T15:27:24Z</time>
      </trkpt>
      <trkpt lat="48.55009" lon="2.12909">
        <ele>53.01</ele>
        <time>2014-01-08T15:27:27Z</time>
      </trkpt>
      <trkpt lat="48.55004" lon="2.12902">
        <ele>53.97</ele>
        <time>2014-01-08T15:27:33Z</time>
      </trkpt>
      <trkpt lat="48.55003" lon="2.12896">
        <ele>54.45</ele>
        <time>2014-01-08T15:27:37Z</time>
      </trkpt>
      <trkpt lat="48.54999" lon="2.12879">
        <ele>53.49</ele>
        <time>2014-01-08T15:27:48Z</time>
      </trkpt>
      <trkpt lat="48.54998" lon="2.12872">
        <ele>54.93</ele>
        <time>2014-01-08T15:28:07Z</time>
      </trkpt>
      <trkpt lat="48.54996" lon="2.12877">
        <ele>55.41</ele>
        <time>2014-01-08T15:28:25Z</time>
      </trkpt>
      <trkpt lat="48.55" lon="2.12898">
        <ele>50.61</ele>
        <time>2014-01-08T15:28:36Z</time>
      </trkpt>
      <trkpt lat="48.55001" lon="2.12904">
        <ele>49.16</ele>
        <time>2014-01-08T15:28:39Z</time>
      </trkpt>
      <trkpt lat="48.55004" lon="2.1292">
        <ele>47.72</ele>
        <time>2014-01-08T15:28:48Z</time>
      </trkpt>
      <trkpt lat="48.5501" lon="2.12939">
        <ele>49.16</ele>
        <time>2014-01-08T15:29:03Z</time>
      </trkpt>
      <trkpt lat="48.5501" lon="2.12938">
        <ele>49.65</ele>
        <time>2014-01-08T15:29:20Z</time>
      </trkpt>
      <trkpt lat="48.55011" lon="2.12937">
        <ele>49.65</ele>
        <time>2014-01-08T15:29:45Z</time>
      </trkpt>
      <trkpt lat="48.55023" lon="2.1293">
        <ele>49.65</ele>
        <time>2014-01-08T15:29:59Z</time>
      </trkpt>
      <trkpt lat="48.55025" lon="2.12928">
        <ele>49.65</ele>
        <time>2014-01-08T15:30:14Z</time>
      </trkpt>
      <trkpt lat="48.55034" lon="2.12919">
        <ele>49.16</ele>
        <time>2014-01-08T15:30:23Z</time>
      </trkpt>
      <trkpt lat="48.5505" lon="2.12905">
        <ele>47.24</ele>
        <time>2014-01-08T15:30:39Z</time>
      </trkpt>
      <trkpt lat="48.55059" lon="2.12903">
        <ele>49.65</ele>
        <time>2014-01-08T15:30:54Z</time>
      </trkpt>
      <trkpt lat="48.55077" lon="2.12888">
        <ele>49.65</ele>
        <time>2014-01-08T15:31:09Z</time>
      </trkpt>
      <trkpt lat="48.55098" lon="2.12868">
        <ele>53.01</ele>
        <time>2014-01-08T15:31:26Z</time>
      </trkpt>
      <trkpt lat="48.55115" lon="2.12851">
        <ele>54.45</ele>
        <time>2014-01-08T15:31:42Z</time>
      </trkpt>
      <trkpt lat="48.55132" lon="2.12834">
        <ele>56.37</ele>
        <time>2014-01-08T15:31:58Z</time>
      </trkpt>
      <trkpt lat="48.55139" lon="2.12812">
        <ele>56.86</ele>
        <time>2014-01-08T15:32:12Z</time>
      </trkpt>
      <trkpt lat="48.55138" lon="2.1281">
        <ele>56.86</ele>
        <time>2014-01-08T15:32:13Z</time>
      </trkpt>
      <trkpt lat="48.55136" lon="2.128">
        <ele>57.34</ele>
        <time>2014-01-08T15:32:19Z</time>
      </trkpt>
      <trkpt lat="48.55131" lon="2.12779">
        <ele>57.82</ele>
        <time>2014-01-08T15:32:30Z</time>
      </trkpt>
      <trkpt lat="48.55129" lon="2.12768">
        <ele>57.82</ele>
        <time>2014-01-08T15:32:36Z</time>
      </trkpt>
      <trkpt lat="48.55124" lon="2.12736">
        <ele>56.37</ele>
        <time>2014-01-08T15:32:54Z</time>
      </trkpt>
      <trkpt lat="48.55123" lon="2.12727">
        <ele>56.37</ele>
        <time>2014-01-08T15:33:00Z</time>
      </trkpt>
      <trkpt lat="48.55122" lon="2.12719">
        <ele>56.37</ele>
        <time>2014-01-08T15:33:05Z</time>
      </trkpt>
      <trkpt lat="48.55121" lon="2.12711">
        <ele>55.89</ele>
        <time>2014-01-08T15:33:09Z</time>
      </trkpt>
      <trkpt lat="48.55114" lon="2.12677">
        <ele>56.37</ele>
        <time>2014-01-08T15:33:28Z</time>
      </trkpt>
      <trkpt lat="48.5511" lon="2.12651">
        <ele>55.89</ele>
        <time>2014-01-08T15:33:42Z</time>
      </trkpt>
      <trkpt lat="48.55109" lon="2.12646">
        <ele>55.89</ele>
        <time>2014-01-08T15:33:45Z</time>
      </trkpt>
      <trkpt lat="48.55108" lon="2.12638">
        <ele>55.89</ele>
        <time>2014-01-08T15:33:49Z</time>
      </trkpt>
      <trkpt lat="48.55106" lon="2.1261">
        <ele>55.41</ele>
        <time>2014-01-08T15:34:06Z</time>
      </trkpt>
      <trkpt lat="48.55109" lon="2.12608">
        <ele>55.89</ele>
        <time>2014-01-08T15:34:16Z</time>
      </trkpt>
      <trkpt lat="48.55114" lon="2.12584">
        <ele>55.89</ele>
        <time>2014-01-08T15:34:49Z</time>
      </trkpt>
      <trkpt lat="48.55114" lon="2.12583">
        <ele>55.41</ele>
        <time>2014-01-08T15:34:50Z</time>
      </trkpt>
      <trkpt lat="48.55108" lon="2.12556">
        <ele>52.05</ele>
        <time>2014-01-08T15:35:06Z</time>
      </trkpt>
      <trkpt lat="48.55108" lon="2.12555">
        <ele>53.01</ele>
        <time>2014-01-08T15:35:10Z</time>
      </trkpt>
      <trkpt lat="48.55108" lon="2.12561">
        <ele>55.41</ele>
        <time>2014-01-08T15:35:26Z</time>
      </trkpt>
      <trkpt lat="48.5511" lon="2.12573">
        <ele>57.34</ele>
        <time>2014-01-08T15:35:39Z</time>
      </trkpt>
      <trkpt lat="48.55113" lon="2.12586">
        <ele>58.78</ele>
        <time>2014-01-08T15:35:54Z</time>
      </trkpt>
      <trkpt lat="48.55107" lon="2.12559">
        <ele>53.97</ele>
        <time>2014-01-08T15:36:10Z</time>
      </trkpt>
      <trkpt lat="48.5512" lon="2.12551">
        <ele>60.22</ele>
        <time>2014-01-08T15:36:23Z</time>
      </trkpt>
    </trkseg>
  </trk>
</gpx>